Wetterdaten: Donnerstag, 12.10.2017
Datum Zeit Temp. A. Feuchte A. Luftdruck Regen Wind Richtung Richtung Taupunkt Windben Empfang
12.10.2017 00:01 12,1 C 90 % 1013,7 hPa 0,0 l/m 3,1 km/h (1 Bft) SW 221 10,5 C 9,4 km/h (2 Bft) 100 %
12.10.2017 00:03 12,1 C 91 % 1013,8 hPa 0,0 l/m 3,1 km/h (1 Bft) SW 233 10,7 C 15,7 km/h (3 Bft) 100 %
12.10.2017 00:04 12,0 C 91 % 1013,7 hPa 0,0 l/m 0,8 km/h (0 Bft) S-SW 212 10,6 C 6,3 km/h (2 Bft) 100 %
12.10.2017 00:05 12,0 C 91 % 1013,7 hPa 0,0 l/m 6,7 km/h (2 Bft) SW 224 10,6 C 12,6 km/h (3 Bft) 100 %
12.10.2017 00:06 12,0 C 91 % 1013,7 hPa 0,0 l/m 4,9 km/h (1 Bft) W-SW 252 10,6 C 15,7 km/h (3 Bft) 100 %
12.10.2017 00:07 12,0 C 91 % 1013,7 hPa 0,0 l/m 2,2 km/h (1 Bft) W 276 10,6 C 12,6 km/h (3 Bft) 100 %
12.10.2017 00:08 11,9 C 91 % 1013,6 hPa 0,0 l/m 1,3 km/h (1 Bft) SW 229 10,5 C 6,3 km/h (2 Bft) 100 %
12.10.2017 00:09 11,9 C 91 % 1013,6 hPa 0,0 l/m 0,3 km/h (0 Bft) W-SW 253 10,5 C 3,1 km/h (1 Bft) 96 %
12.10.2017 00:10 11,9 C 91 % 1013,6 hPa 0,0 l/m 2,9 km/h (1 Bft) W-NW 298 10,5 C 12,6 km/h (3 Bft) 100 %
12.10.2017 00:11 11,9 C 91 % 1013,6 hPa 0,0 l/m 5,2 km/h (1 Bft) SW 233 10,5 C 12,6 km/h (3 Bft) 100 %
12.10.2017 00:12 11,9 C 91 % 1013,6 hPa 0,0 l/m 5,6 km/h (1 Bft) SW 214 10,5 C 18,8 km/h (3 Bft) 96 %
12.10.2017 00:13 11,9 C 91 % 1013,6 hPa 0,0 l/m 3,7 km/h (1 Bft) SW 214 10,5 C 9,4 km/h (2 Bft) 96 %
12.10.2017 00:14 11,9 C 91 % 1013,6 hPa 0,0 l/m 0,8 km/h (0 Bft) W 275 10,5 C 3,1 km/h (1 Bft) 100 %
12.10.2017 00:15 11,9 C 91 % 1013,6 hPa 0,0 l/m 1,3 km/h (1 Bft) W-SW 238 10,5 C 9,4 km/h (2 Bft) 96 %
12.10.2017 00:17 11,9 C 91 % 1013,6 hPa 0,0 l/m 3,1 km/h (1 Bft) W-SW 247 10,5 C 15,7 km/h (3 Bft) 98 %
12.10.2017 00:18 11,9 C 91 % 1013,6 hPa 0,0 l/m 1,8 km/h (1 Bft) W-NW 284 10,5 C 6,3 km/h (2 Bft) 96 %
12.10.2017 00:19 11,9 C 91 % 1013,6 hPa 0,0 l/m 2,4 km/h (1 Bft) SW 227 10,5 C 12,6 km/h (3 Bft) 96 %
12.10.2017 00:20 11,9 C 91 % 1013,6 hPa 0,0 l/m 1,9 km/h (1 Bft) S-SW 213 10,5 C 6,3 km/h (2 Bft) 100 %
12.10.2017 00:21 11,9 C 91 % 1013,7 hPa 0,0 l/m 0,9 km/h (0 Bft) W 281 10,5 C 3,1 km/h (1 Bft) 96 %
12.10.2017 00:22 11,9 C 91 % 1013,6 hPa 0,0 l/m 3,1 km/h (1 Bft) SW 224 10,5 C 9,4 km/h (2 Bft) 100 %
12.10.2017 00:23 11,9 C 91 % 1013,6 hPa 0,0 l/m 0,7 km/h (0 Bft) W-SW 258 10,5 C 3,1 km/h (1 Bft) 100 %
12.10.2017 00:24 11,9 C 91 % 1013,7 hPa 0,0 l/m 2,9 km/h (1 Bft) SW 229 10,5 C 9,4 km/h (2 Bft) 100 %
12.10.2017 00:25 11,9 C 91 % 1013,6 hPa 0,0 l/m 1,0 km/h (0 Bft) SW 214 10,5 C 3,1 km/h (1 Bft) 100 %
12.10.2017 00:26 11,9 C 91 % 1013,6 hPa 0,0 l/m 1,0 km/h (0 Bft) W-SW 242 10,5 C 3,1 km/h (1 Bft) 100 %
12.10.2017 00:27 11,9 C 91 % 1013,5 hPa 0,0 l/m 7,4 km/h (2 Bft) W-SW 258 10,5 C 12,6 km/h (3 Bft) 100 %
12.10.2017 00:28 11,9 C 91 % 1013,5 hPa 0,0 l/m 3,6 km/h (1 Bft) W-SW 245 10,5 C 12,6 km/h (3 Bft) 100 %
12.10.2017 00:29 11,9 C 91 % 1013,4 hPa 0,0 l/m 0,1 km/h (0 Bft) W-SW 245 10,5 C 3,1 km/h (1 Bft) 100 %
12.10.2017 00:30 11,9 C 91 % 1013,4 hPa 0,0 l/m 0,9 km/h (0 Bft) SW 234 10,5 C 3,1 km/h (1 Bft) 100 %
12.10.2017 00:31 12,0 C 91 % 1013,4 hPa 0,0 l/m 1,9 km/h (1 Bft) NO 50 10,6 C 3,1 km/h (1 Bft) 96 %
12.10.2017 00:32 11,9 C 91 % 1013,4 hPa 0,0 l/m 2,7 km/h (1 Bft) O 79 10,5 C 12,6 km/h (3 Bft) 100 %
12.10.2017 00:33 12,0 C 91 % 1013,4 hPa 0,0 l/m 0,4 km/h (0 Bft) N-NO 23 10,6 C 3,1 km/h (1 Bft) 100 %
12.10.2017 00:34 12,0 C 91 % 1013,4 hPa 0,0 l/m 2,2 km/h (1 Bft) W-SW 246 10,6 C 6,3 km/h (2 Bft) 100 %
12.10.2017 00:35 12,0 C 91 % 1013,4 hPa 0,0 l/m 2,2 km/h (1 Bft) W-SW 240 10,6 C 3,1 km/h (1 Bft) 100 %
12.10.2017 00:36 12,0 C 91 % 1013,4 hPa 0,0 l/m 2,9 km/h (1 Bft) W-SW 239 10,6 C 9,4 km/h (2 Bft) 100 %
12.10.2017 00:37 12,0 C 91 % 1013,4 hPa 0,0 l/m 6,6 km/h (2 Bft) W-SW 257 10,6 C 15,7 km/h (3 Bft) 100 %
12.10.2017 00:38 12,1 C 91 % 1013,4 hPa 0,0 l/m 2,3 km/h (1 Bft) SW 233 10,7 C 6,3 km/h (2 Bft) 100 %
12.10.2017 00:39 12,1 C 91 % 1013,4 hPa 0,0 l/m 0,2 km/h (0 Bft) N-NO 24 10,7 C 3,1 km/h (1 Bft) 100 %
12.10.2017 00:40 12,1 C 91 % 1013,4 hPa 0,0 l/m 13,2 km/h (3 Bft) W 278 10,7 C 22,0 km/h (4 Bft) 100 %
12.10.2017 00:41 12,1 C 91 % 1013,4 hPa 0,0 l/m 2,4 km/h (1 Bft) W-SW 248 10,7 C 6,3 km/h (2 Bft) 100 %
12.10.2017 00:42 12,1 C 90 % 1013,3 hPa 0,0 l/m 4,1 km/h (1 Bft) S 176 10,5 C 15,7 km/h (3 Bft) 100 %
12.10.2017 00:43 12,2 C 90 % 1013,3 hPa 0,0 l/m 6,4 km/h (2 Bft) SW 234 10,6 C 18,8 km/h (3 Bft) 100 %
12.10.2017 00:44 12,2 C 90 % 1013,4 hPa 0,0 l/m 1,4 km/h (1 Bft) SW 236 10,6 C 3,1 km/h (1 Bft) 100 %
12.10.2017 00:45 12,2 C 90 % 1013,4 hPa 0,0 l/m 1,3 km/h (1 Bft) NW 316 10,6 C 6,3 km/h (2 Bft) 100 %
12.10.2017 00:46 12,2 C 90 % 1013,3 hPa 0,0 l/m 3,6 km/h (1 Bft) W-SW 238 10,6 C 12,6 km/h (3 Bft) 100 %
12.10.2017 00:47 12,2 C 90 % 1013,3 hPa 0,0 l/m 5,3 km/h (1 Bft) SW 215 10,6 C 12,6 km/h (3 Bft) 100 %
12.10.2017 00:48 12,2 C 90 % 1013,4 hPa 0,0 l/m 2,2 km/h (1 Bft) W-SW 239 10,6 C 6,3 km/h (2 Bft) 100 %
12.10.2017 00:49 12,3 C 90 % 1013,4 hPa 0,0 l/m 4,6 km/h (1 Bft) SW 218 10,7 C 9,4 km/h (2 Bft) 100 %
12.10.2017 00:50 12,3 C 90 % 1013,4 hPa 0,0 l/m 7,5 km/h (2 Bft) S 171 10,7 C 9,4 km/h (2 Bft) 100 %
12.10.2017 00:51 12,3 C 90 % 1013,3 hPa 0,0 l/m 6,8 km/h (2 Bft) SW 214 10,7 C 18,8 km/h (3 Bft) 100 %
12.10.2017 00:52 12,3 C 90 % 1013,3 hPa 0,0 l/m 8,0 km/h (2 Bft) W 280 10,7 C 12,6 km/h (3 Bft) 100 %
12.10.2017 00:53 12,3 C 90 % 1013,4 hPa 0,0 l/m 1,4 km/h (1 Bft) W-SW 253 10,7 C 9,4 km/h (2 Bft) 100 %
12.10.2017 00:54 12,4 C 89 % 1013,4 hPa 0,0 l/m 4,4 km/h (1 Bft) N-NW 337 10,6 C 12,6 km/h (3 Bft) 100 %
12.10.2017 00:55 12,4 C 89 % 1013,3 hPa 0,0 l/m 5,1 km/h (1 Bft) W-SW 253 10,6 C 9,4 km/h (2 Bft) 100 %
12.10.2017 00:56 12,4 C 89 % 1013,3 hPa 0,0 l/m 5,9 km/h (2 Bft) W-NW 302 10,6 C 12,6 km/h (3 Bft) 100 %
12.10.2017 00:57 12,4 C 89 % 1013,3 hPa 0,0 l/m 5,9 km/h (2 Bft) O-SO 121 10,6 C 12,6 km/h (3 Bft) 100 %
12.10.2017 00:58 12,4 C 89 % 1013,3 hPa 0,0 l/m 4,4 km/h (1 Bft) W-NW 297 10,6 C 12,6 km/h (3 Bft) 100 %
12.10.2017 00:59 12,5 C 89 % 1013,3 hPa 0,0 l/m 5,4 km/h (1 Bft) NW 305 10,7 C 12,6 km/h (3 Bft) 100 %
12.10.2017 01:00 12,5 C 89 % 1013,3 hPa 0,0 l/m 6,7 km/h (2 Bft) W-SW 243 10,7 C 12,6 km/h (3 Bft) 100 %
12.10.2017 01:01 12,5 C 89 % 1013,3 hPa 0,0 l/m 4,6 km/h (1 Bft) S-SO 150 10,7 C 9,4 km/h (2 Bft) 100 %
12.10.2017 01:02 12,5 C 89 % 1013,3 hPa 0,0 l/m 1,4 km/h (1 Bft) W-NW 296 10,7 C 6,3 km/h (2 Bft) 100 %
12.10.2017 01:03 12,5 C 89 % 1013,4 hPa 0,0 l/m 3,5 km/h (1 Bft) SW 219 10,7 C 15,7 km/h (3 Bft) 100 %
12.10.2017 01:04 12,5 C 89 % 1013,3 hPa 0,0 l/m 5,6 km/h (1 Bft) SW 220 10,7 C 12,6 km/h (3 Bft) 100 %
12.10.2017 01:05 12,5 C 89 % 1013,3 hPa 0,0 l/m 7,4 km/h (2 Bft) W-NW 297 10,7 C 12,6 km/h (3 Bft) 100 %
12.10.2017 01:06 12,6 C 89 % 1013,3 hPa 0,0 l/m 7,2 km/h (2 Bft) S-SW 209 10,8 C 18,8 km/h (3 Bft) 100 %
12.10.2017 01:07 12,6 C 89 % 1013,3 hPa 0,0 l/m 5,1 km/h (1 Bft) SW 224 10,8 C 9,4 km/h (2 Bft) 100 %
12.10.2017 01:08 12,6 C 89 % 1013,3 hPa 0,0 l/m 3,0 km/h (1 Bft) N-NW 335 10,8 C 9,4 km/h (2 Bft) 100 %
12.10.2017 01:09 12,6 C 89 % 1013,4 hPa 0,0 l/m 7,0 km/h (2 Bft) S 186 10,8 C 15,7 km/h (3 Bft) 100 %
12.10.2017 01:10 12,6 C 89 % 1013,3 hPa 0,0 l/m 6,1 km/h (2 Bft) SW 229 10,8 C 15,7 km/h (3 Bft) 100 %
12.10.2017 01:11 12,6 C 89 % 1013,2 hPa 0,0 l/m 8,2 km/h (2 Bft) W-NW 290 10,8 C 15,7 km/h (3 Bft) 100 %
12.10.2017 01:12 12,6 C 89 % 1013,2 hPa 0,0 l/m 3,8 km/h (1 Bft) W 274 10,8 C 6,3 km/h (2 Bft) 100 %
12.10.2017 01:13 12,6 C 89 % 1013,2 hPa 0,0 l/m 4,0 km/h (1 Bft) NW 304 10,8 C 9,4 km/h (2 Bft) 100 %
12.10.2017 01:14 12,6 C 89 % 1013,3 hPa 0,0 l/m 11,1 km/h (2 Bft) W-NW 286 10,8 C 28,2 km/h (4 Bft) 100 %
12.10.2017 01:15 12,6 C 89 % 1013,2 hPa 0,0 l/m 0,9 km/h (0 Bft) N-NO 18 10,8 C 3,1 km/h (1 Bft) 100 %
12.10.2017 01:16 12,7 C 89 % 1013,3 hPa 0,0 l/m 3,5 km/h (1 Bft) W-SW 243 10,9 C 12,6 km/h (3 Bft) 96 %
12.10.2017 01:17 12,7 C 89 % 1013,3 hPa 0,0 l/m 9,4 km/h (2 Bft) SW 228 10,9 C 25,1 km/h (4 Bft) 100 %
12.10.2017 01:18 12,7 C 88 % 1013,2 hPa 0,0 l/m 3,0 km/h (1 Bft) S-SW 210 10,8 C 6,3 km/h (2 Bft) 100 %
12.10.2017 01:19 12,7 C 88 % 1013,2 hPa 0,0 l/m 6,7 km/h (2 Bft) W-NW 299 10,8 C 9,4 km/h (2 Bft) 96 %
12.10.2017 01:20 12,7 C 88 % 1013,1 hPa 0,0 l/m 4,6 km/h (1 Bft) W-NW 283 10,8 C 9,4 km/h (2 Bft) 100 %
12.10.2017 01:21 12,7 C 89 % 1013,1 hPa 0,0 l/m 5,9 km/h (2 Bft) SW 236 10,9 C 15,7 km/h (3 Bft) 100 %
12.10.2017 01:22 12,7 C 88 % 1013,1 hPa 0,0 l/m 2,5 km/h (1 Bft) S-SO 153 10,8 C 6,3 km/h (2 Bft) 100 %
12.10.2017 01:23 12,7 C 88 % 1013,1 hPa 0,0 l/m 2,2 km/h (1 Bft) S-SW 213 10,8 C 9,4 km/h (2 Bft) 96 %
12.10.2017 01:24 12,7 C 88 % 1013,1 hPa 0,0 l/m 10,4 km/h (2 Bft) W 269 10,8 C 18,8 km/h (3 Bft) 100 %
12.10.2017 01:25 12,7 C 88 % 1013,1 hPa 0,0 l/m 6,0 km/h (2 Bft) NO 37 10,8 C 12,6 km/h (3 Bft) 96 %
12.10.2017 01:26 12,7 C 88 % 1013,1 hPa 0,0 l/m 4,0 km/h (1 Bft) SW 226 10,8 C 9,4 km/h (2 Bft) 100 %
12.10.2017 01:27 12,7 C 88 % 1013,1 hPa 0,0 l/m 4,5 km/h (1 Bft) SW 225 10,8 C 9,4 km/h (2 Bft) 96 %
12.10.2017 01:28 12,7 C 88 % 1013,1 hPa 0,0 l/m 2,6 km/h (1 Bft) N 5 10,8 C 3,1 km/h (1 Bft) 96 %
12.10.2017 01:29 12,7 C 88 % 1013,1 hPa 0,0 l/m 1,2 km/h (1 Bft) W-NW 284 10,8 C 3,1 km/h (1 Bft) 100 %
12.10.2017 01:30 12,7 C 88 % 1013,1 hPa 0,0 l/m 3,7 km/h (1 Bft) W-NW 299 10,8 C 9,4 km/h (2 Bft) 96 %
12.10.2017 01:31 12,7 C 88 % 1013,0 hPa 0,0 l/m 6,1 km/h (2 Bft) W-SW 237 10,8 C 9,4 km/h (2 Bft) 100 %
12.10.2017 01:32 12,8 C 88 % 1013,0 hPa 0,0 l/m 8,8 km/h (2 Bft) W-SW 243 10,9 C 15,7 km/h (3 Bft) 92 %
12.10.2017 01:33 12,8 C 88 % 1013,0 hPa 0,0 l/m 8,8 km/h (2 Bft) S-SW 200 10,9 C 15,7 km/h (3 Bft) 100 %
12.10.2017 01:34 12,8 C 88 % 1013,0 hPa 0,0 l/m 0,2 km/h (0 Bft) NW 306 10,9 C 3,1 km/h (1 Bft) 100 %
12.10.2017 01:35 12,8 C 88 % 1012,9 hPa 0,0 l/m 3,6 km/h (1 Bft) O-NO 60 10,9 C 9,4 km/h (2 Bft) 100 %
12.10.2017 01:36 12,8 C 88 % 1012,9 hPa 0,0 l/m 3,6 km/h (1 Bft) SW 224 10,9 C 9,4 km/h (2 Bft) 100 %
12.10.2017 01:37 12,8 C 88 % 1012,9 hPa 0,0 l/m 5,0 km/h (1 Bft) W-SW 252 10,9 C 9,4 km/h (2 Bft) 100 %
12.10.2017 01:38 12,8 C 88 % 1012,9 hPa 0,0 l/m 5,6 km/h (1 Bft) W-SW 237 10,9 C 12,6 km/h (3 Bft) 100 %
12.10.2017 01:39 12,8 C 88 % 1012,8 hPa 0,0 l/m 2,1 km/h (1 Bft) W-SW 242 10,9 C 9,4 km/h (2 Bft) 100 %
12.10.2017 01:40 12,8 C 88 % 1012,8 hPa 0,0 l/m 9,4 km/h (2 Bft) W 281 10,9 C 12,6 km/h (3 Bft) 100 %
12.10.2017 01:42 12,9 C 88 % 1012,8 hPa 0,0 l/m 7,0 km/h (2 Bft) W-NW 302 11,0 C 12,6 km/h (3 Bft) 100 %
12.10.2017 01:43 12,9 C 88 % 1012,9 hPa 0,0 l/m 5,0 km/h (1 Bft) N-NW 328 11,0 C 9,4 km/h (2 Bft) 100 %
12.10.2017 01:44 12,9 C 88 % 1012,9 hPa 0,0 l/m 3,5 km/h (1 Bft) W-SW 248 11,0 C 6,3 km/h (2 Bft) 100 %
12.10.2017 01:45 12,9 C 88 % 1012,9 hPa 0,0 l/m 2,5 km/h (1 Bft) SW 217 11,0 C 9,4 km/h (2 Bft) 100 %
12.10.2017 01:46 12,9 C 87 % 1012,9 hPa 0,0 l/m 11,5 km/h (2 Bft) SW 229 10,8 C 18,8 km/h (3 Bft) 100 %
12.10.2017 01:47 13,0 C 87 % 1012,9 hPa 0,0 l/m 5,7 km/h (1 Bft) W-SW 240 10,9 C 12,6 km/h (3 Bft) 100 %
12.10.2017 01:48 13,0 C 87 % 1012,9 hPa 0,0 l/m 9,8 km/h (2 Bft) NW 325 10,9 C 25,1 km/h (4 Bft) 100 %
12.10.2017 01:49 13,0 C 87 % 1012,9 hPa 0,0 l/m 7,7 km/h (2 Bft) NW 308 10,9 C 15,7 km/h (3 Bft) 100 %
12.10.2017 01:50 13,1 C 87 % 1013,0 hPa 0,0 l/m 9,1 km/h (2 Bft) W-NW 299 11,0 C 12,6 km/h (3 Bft) 100 %
12.10.2017 01:51 13,1 C 87 % 1013,0 hPa 0,0 l/m 7,4 km/h (2 Bft) S-SW 211 11,0 C 18,8 km/h (3 Bft) 100 %
12.10.2017 01:52 13,1 C 87 % 1012,9 hPa 0,0 l/m 6,0 km/h (2 Bft) W-SW 238 11,0 C 12,6 km/h (3 Bft) 100 %
12.10.2017 01:53 13,1 C 87 % 1012,9 hPa 0,0 l/m 7,2 km/h (2 Bft) W-SW 238 11,0 C 12,6 km/h (3 Bft) 100 %
12.10.2017 01:54 13,1 C 87 % 1012,9 hPa 0,0 l/m 8,2 km/h (2 Bft) W-NW 287 11,0 C 15,7 km/h (3 Bft) 100 %
12.10.2017 01:55 13,1 C 87 % 1012,9 hPa 0,0 l/m 4,9 km/h (1 Bft) W-SW 242 11,0 C 9,4 km/h (2 Bft) 100 %
12.10.2017 01:56 13,1 C 87 % 1012,8 hPa 0,0 l/m 2,6 km/h (1 Bft) S 172 11,0 C 6,3 km/h (2 Bft) 100 %
12.10.2017 01:57 13,1 C 87 % 1012,8 hPa 0,0 l/m 8,1 km/h (2 Bft) W 268 11,0 C 15,7 km/h (3 Bft) 100 %
12.10.2017 01:58 13,1 C 87 % 1012,8 hPa 0,0 l/m 6,8 km/h (2 Bft) W-NW 302 11,0 C 15,7 km/h (3 Bft) 100 %
12.10.2017 01:59 13,1 C 87 % 1012,9 hPa 0,0 l/m 3,1 km/h (1 Bft) SW 232 11,0 C 6,3 km/h (2 Bft) 100 %
12.10.2017 02:00 13,1 C 87 % 1012,9 hPa 0,0 l/m 2,5 km/h (1 Bft) S-SO 163 11,0 C 9,4 km/h (2 Bft) 100 %
12.10.2017 02:01 13,1 C 87 % 1012,8 hPa 0,0 l/m 5,4 km/h (1 Bft) W 279 11,0 C 9,4 km/h (2 Bft) 100 %
12.10.2017 02:02 13,1 C 87 % 1012,9 hPa 0,0 l/m 4,8 km/h (1 Bft) W 262 11,0 C 9,4 km/h (2 Bft) 100 %
12.10.2017 02:03 13,1 C 87 % 1012,8 hPa 0,0 l/m 5,0 km/h (1 Bft) W-NW 293 11,0 C 12,6 km/h (3 Bft) 100 %
12.10.2017 02:04 13,1 C 87 % 1012,7 hPa 0,0 l/m 9,1 km/h (2 Bft) S-SW 211 11,0 C 15,7 km/h (3 Bft) 100 %
12.10.2017 02:05 13,1 C 87 % 1012,7 hPa 0,0 l/m 5,8 km/h (2 Bft) NW 322 11,0 C 18,8 km/h (3 Bft) 100 %
12.10.2017 02:06 13,1 C 87 % 1012,6 hPa 0,0 l/m 3,0 km/h (1 Bft) SW 219 11,0 C 6,3 km/h (2 Bft) 100 %
12.10.2017 02:07 13,0 C 87 % 1012,5 hPa 0,0 l/m 12,4 km/h (3 Bft) SW 219 10,9 C 34,5 km/h (5 Bft) 100 %
12.10.2017 02:08 13,0 C 87 % 1012,5 hPa 0,0 l/m 16,5 km/h (3 Bft) W-SW 252 10,9 C 31,4 km/h (5 Bft) 100 %
12.10.2017 02:09 13,1 C 87 % 1012,5 hPa 0,0 l/m 6,8 km/h (2 Bft) SW 215 11,0 C 22,0 km/h (4 Bft) 100 %
12.10.2017 02:10 13,0 C 87 % 1012,5 hPa 0,0 l/m 11,5 km/h (2 Bft) S-SW 199 10,9 C 22,0 km/h (4 Bft) 100 %
12.10.2017 02:11 13,0 C 87 % 1012,4 hPa 0,0 l/m 3,0 km/h (1 Bft) W-SW 255 10,9 C 6,3 km/h (2 Bft) 100 %
12.10.2017 02:12 13,0 C 87 % 1012,5 hPa 0,0 l/m 2,9 km/h (1 Bft) W-NW 299 10,9 C 12,6 km/h (3 Bft) 100 %
12.10.2017 02:13 12,9 C 87 % 1012,5 hPa 0,0 l/m 6,4 km/h (2 Bft) NW 319 10,8 C 15,7 km/h (3 Bft) 100 %
12.10.2017 02:14 12,9 C 87 % 1012,5 hPa 0,0 l/m 4,2 km/h (1 Bft) S 188 10,8 C 28,2 km/h (4 Bft) 100 %
12.10.2017 02:15 12,9 C 87 % 1012,5 hPa 0,0 l/m 13,3 km/h (3 Bft) W-SW 240 10,8 C 28,2 km/h (4 Bft) 100 %
12.10.2017 02:16 12,9 C 87 % 1012,5 hPa 0,0 l/m 12,9 km/h (3 Bft) W 278 10,8 C 25,1 km/h (4 Bft) 100 %
12.10.2017 02:17 12,9 C 87 % 1012,4 hPa 0,0 l/m 8,7 km/h (2 Bft) S 184 10,8 C 18,8 km/h (3 Bft) 100 %
12.10.2017 02:18 12,9 C 87 % 1012,4 hPa 0,0 l/m 8,6 km/h (2 Bft) NW 316 10,8 C 15,7 km/h (3 Bft) 100 %
12.10.2017 02:19 12,9 C 88 % 1012,5 hPa 0,0 l/m 9,7 km/h (2 Bft) S-SW 210 11,0 C 25,1 km/h (4 Bft) 100 %
12.10.2017 02:20 12,9 C 88 % 1012,5 hPa 0,0 l/m 7,2 km/h (2 Bft) S-SO 152 11,0 C 12,6 km/h (3 Bft) 100 %
12.10.2017 02:21 12,9 C 88 % 1012,5 hPa 0,0 l/m 7,2 km/h (2 Bft) SW 223 11,0 C 15,7 km/h (3 Bft) 100 %
12.10.2017 02:22 12,9 C 88 % 1012,4 hPa 0,0 l/m 8,4 km/h (2 Bft) SW 229 11,0 C 25,1 km/h (4 Bft) 100 %
12.10.2017 02:23 12,8 C 88 % 1012,4 hPa 0,0 l/m 8,4 km/h (2 Bft) SW 221 10,9 C 25,1 km/h (4 Bft) 100 %
12.10.2017 02:24 12,8 C 88 % 1012,4 hPa 0,0 l/m 3,9 km/h (1 Bft) S 175 10,9 C 9,4 km/h (2 Bft) 100 %
12.10.2017 02:25 12,8 C 88 % 1012,4 hPa 0,0 l/m 4,6 km/h (1 Bft) SW 220 10,9 C 9,4 km/h (2 Bft) 100 %
12.10.2017 02:26 12,8 C 88 % 1012,4 hPa 0,0 l/m 4,9 km/h (1 Bft) W-SW 241 10,9 C 9,4 km/h (2 Bft) 100 %
12.10.2017 02:27 12,8 C 88 % 1012,4 hPa 0,0 l/m 4,1 km/h (1 Bft) NW 321 10,9 C 12,6 km/h (3 Bft) 100 %
12.10.2017 02:28 12,8 C 88 % 1012,3 hPa 0,0 l/m 4,7 km/h (1 Bft) S 191 10,9 C 15,7 km/h (3 Bft) 100 %
12.10.2017 02:29 12,7 C 88 % 1012,3 hPa 0,0 l/m 6,4 km/h (2 Bft) W-SW 237 10,8 C 12,6 km/h (3 Bft) 92 %
12.10.2017 02:30 12,7 C 88 % 1012,4 hPa 0,0 l/m 10,5 km/h (2 Bft) SW 222 10,8 C 25,1 km/h (4 Bft) 100 %
12.10.2017 02:31 12,7 C 88 % 1012,4 hPa 0,0 l/m 10,8 km/h (2 Bft) W-NW 295 10,8 C 22,0 km/h (4 Bft) 96 %
12.10.2017 02:32 12,7 C 88 % 1012,3 hPa 0,0 l/m 9,3 km/h (2 Bft) W 269 10,8 C 15,7 km/h (3 Bft) 100 %
12.10.2017 02:33 12,7 C 88 % 1012,3 hPa 0,0 l/m 5,9 km/h (2 Bft) S 180 10,8 C 9,4 km/h (2 Bft) 92 %
12.10.2017 02:34 12,7 C 88 % 1012,3 hPa 0,0 l/m 8,7 km/h (2 Bft) W 263 10,8 C 25,1 km/h (4 Bft) 100 %
12.10.2017 02:35 12,7 C 88 % 1012,3 hPa 0,0 l/m 2,5 km/h (1 Bft) NW 305 10,8 C 6,3 km/h (2 Bft) 96 %
12.10.2017 02:36 12,7 C 88 % 1012,4 hPa 0,0 l/m 1,3 km/h (1 Bft) W-NW 296 10,8 C 3,1 km/h (1 Bft) 100 %
12.10.2017 02:37 12,7 C 88 % 1012,4 hPa 0,0 l/m 7,7 km/h (2 Bft) W-SW 253 10,8 C 18,8 km/h (3 Bft) 97 %
12.10.2017 02:38 12,7 C 88 % 1012,4 hPa 0,0 l/m 3,9 km/h (1 Bft) NW 304 10,8 C 12,6 km/h (3 Bft) 100 %
12.10.2017 02:39 12,7 C 88 % 1012,5 hPa 0,0 l/m 5,1 km/h (1 Bft) W-SW 257 10,8 C 9,4 km/h (2 Bft) 96 %
12.10.2017 02:40 12,7 C 88 % 1012,4 hPa 0,0 l/m 3,3 km/h (1 Bft) SW 233 10,8 C 9,4 km/h (2 Bft) 96 %
12.10.2017 02:41 12,7 C 88 % 1012,5 hPa 0,0 l/m 4,6 km/h (1 Bft) W-SW 246 10,8 C 15,7 km/h (3 Bft) 100 %
12.10.2017 02:42 12,7 C 88 % 1012,5 hPa 0,0 l/m 6,9 km/h (2 Bft) W 278 10,8 C 12,6 km/h (3 Bft) 96 %
12.10.2017 02:43 12,7 C 88 % 1012,5 hPa 0,0 l/m 9,3 km/h (2 Bft) SW 214 10,8 C 18,8 km/h (3 Bft) 100 %
12.10.2017 02:44 12,7 C 88 % 1012,4 hPa 0,0 l/m 9,7 km/h (2 Bft) W-NW 288 10,8 C 22,0 km/h (4 Bft) 100 %
12.10.2017 02:45 12,7 C 88 % 1012,4 hPa 0,0 l/m 1,6 km/h (1 Bft) N-NW 344 10,8 C 6,3 km/h (2 Bft) 100 %
12.10.2017 02:46 12,7 C 88 % 1012,5 hPa 0,0 l/m 6,7 km/h (2 Bft) W-NW 285 10,8 C 12,6 km/h (3 Bft) 100 %
12.10.2017 02:47 12,7 C 88 % 1012,5 hPa 0,0 l/m 7,1 km/h (2 Bft) S 174 10,8 C 18,8 km/h (3 Bft) 100 %
12.10.2017 02:48 12,7 C 88 % 1012,5 hPa 0,0 l/m 6,1 km/h (2 Bft) N-NW 327 10,8 C 12,6 km/h (3 Bft) 100 %
12.10.2017 02:49 12,7 C 88 % 1012,5 hPa 0,0 l/m 6,0 km/h (2 Bft) S-SW 212 10,8 C 12,6 km/h (3 Bft) 100 %
12.10.2017 02:50 12,7 C 88 % 1012,4 hPa 0,0 l/m 10,7 km/h (2 Bft) NW 309 10,8 C 18,8 km/h (3 Bft) 100 %
12.10.2017 02:51 12,7 C 88 % 1012,4 hPa 0,0 l/m 5,6 km/h (1 Bft) W-NW 302 10,8 C 15,7 km/h (3 Bft) 100 %
12.10.2017 02:52 12,6 C 89 % 1012,5 hPa 0,0 l/m 6,7 km/h (2 Bft) W-SW 238 10,8 C 12,6 km/h (3 Bft) 100 %
12.10.2017 02:53 12,6 C 89 % 1012,4 hPa 0,0 l/m 9,0 km/h (2 Bft) W-NW 284 10,8 C 15,7 km/h (3 Bft) 100 %
12.10.2017 02:54 12,6 C 89 % 1012,4 hPa 0,0 l/m 4,8 km/h (1 Bft) SW 227 10,8 C 9,4 km/h (2 Bft) 100 %
12.10.2017 02:55 12,6 C 89 % 1012,5 hPa 0,0 l/m 11,1 km/h (2 Bft) NW 311 10,8 C 18,8 km/h (3 Bft) 100 %
12.10.2017 02:56 12,6 C 89 % 1012,5 hPa 0,0 l/m 6,9 km/h (2 Bft) SW 217 10,8 C 12,6 km/h (3 Bft) 100 %
12.10.2017 02:57 12,5 C 89 % 1012,5 hPa 0,0 l/m 7,0 km/h (2 Bft) SW 225 10,7 C 15,7 km/h (3 Bft) 100 %
12.10.2017 02:58 12,5 C 89 % 1012,5 hPa 0,0 l/m 4,4 km/h (1 Bft) SW 231 10,7 C 12,6 km/h (3 Bft) 100 %
12.10.2017 02:59 12,5 C 89 % 1012,5 hPa 0,0 l/m 7,4 km/h (2 Bft) W-SW 239 10,7 C 15,7 km/h (3 Bft) 100 %
12.10.2017 03:00 12,5 C 89 % 1012,5 hPa 0,0 l/m 9,7 km/h (2 Bft) SW 224 10,7 C 25,1 km/h (4 Bft) 100 %
12.10.2017 03:01 12,5 C 89 % 1012,5 hPa 0,0 l/m 15,4 km/h (3 Bft) W 279 10,7 C 18,8 km/h (3 Bft) 100 %
12.10.2017 03:02 12,5 C 89 % 1012,5 hPa 0,0 l/m 4,8 km/h (1 Bft) W-NW 285 10,7 C 9,4 km/h (2 Bft) 100 %
12.10.2017 03:03 12,5 C 89 % 1012,5 hPa 0,0 l/m 3,0 km/h (1 Bft) SW 221 10,7 C 22,0 km/h (4 Bft) 100 %
12.10.2017 03:04 12,5 C 89 % 1012,4 hPa 0,0 l/m 10,9 km/h (2 Bft) W-SW 240 10,7 C 25,1 km/h (4 Bft) 100 %
12.10.2017 03:05 12,5 C 89 % 1012,3 hPa 0,0 l/m 13,5 km/h (3 Bft) SW 221 10,7 C 22,0 km/h (4 Bft) 100 %
12.10.2017 03:06 12,4 C 89 % 1012,3 hPa 0,0 l/m 5,1 km/h (1 Bft) S-SW 212 10,6 C 12,6 km/h (3 Bft) 100 %
12.10.2017 03:07 12,4 C 89 % 1012,3 hPa 0,0 l/m 10,8 km/h (2 Bft) NO 47 10,6 C 22,0 km/h (4 Bft) 100 %
12.10.2017 03:08 12,4 C 89 % 1012,4 hPa 0,0 l/m 3,0 km/h (1 Bft) W 278 10,6 C 6,3 km/h (2 Bft) 100 %
12.10.2017 03:09 12,4 C 89 % 1012,4 hPa 0,0 l/m 1,5 km/h (1 Bft) O-NO 65 10,6 C 3,1 km/h (1 Bft) 100 %
12.10.2017 03:10 12,4 C 90 % 1012,5 hPa 0,0 l/m 2,5 km/h (1 Bft) NO 36 10,8 C 12,6 km/h (3 Bft) 100 %
12.10.2017 03:11 12,4 C 90 % 1012,4 hPa 0,0 l/m 7,9 km/h (2 Bft) SW 219 10,8 C 15,7 km/h (3 Bft) 100 %
12.10.2017 03:12 12,4 C 90 % 1012,5 hPa 0,0 l/m 11,5 km/h (2 Bft) W-SW 255 10,8 C 18,8 km/h (3 Bft) 100 %
12.10.2017 03:13 12,4 C 90 % 1012,5 hPa 0,0 l/m 6,1 km/h (2 Bft) W-NW 296 10,8 C 15,7 km/h (3 Bft) 100 %
12.10.2017 03:14 12,4 C 90 % 1012,5 hPa 0,0 l/m 6,8 km/h (2 Bft) W-NW 283 10,8 C 18,8 km/h (3 Bft) 100 %
12.10.2017 03:15 12,4 C 90 % 1012,5 hPa 0,0 l/m 4,1 km/h (1 Bft) NW 307 10,8 C 12,6 km/h (3 Bft) 100 %
12.10.2017 03:16 12,4 C 90 % 1012,5 hPa 0,0 l/m 5,0 km/h (1 Bft) NW 308 10,8 C 9,4 km/h (2 Bft) 100 %
12.10.2017 03:17 12,4 C 90 % 1012,4 hPa 0,0 l/m 5,9 km/h (2 Bft) SW 224 10,8 C 12,6 km/h (3 Bft) 100 %
12.10.2017 03:18 12,4 C 90 % 1012,4 hPa 0,0 l/m 12,6 km/h (3 Bft) SW 229 10,8 C 25,1 km/h (4 Bft) 100 %
12.10.2017 03:19 12,4 C 90 % 1012,4 hPa 0,0 l/m 3,5 km/h (1 Bft) W-SW 255 10,8 C 12,6 km/h (3 Bft) 100 %
12.10.2017 03:20 12,4 C 90 % 1012,4 hPa 0,0 l/m 2,7 km/h (1 Bft) W-SW 246 10,8 C 6,3 km/h (2 Bft) 100 %
12.10.2017 03:21 12,4 C 90 % 1012,4 hPa 0,0 l/m 7,7 km/h (2 Bft) W-SW 241 10,8 C 12,6 km/h (3 Bft) 100 %
12.10.2017 03:22 12,4 C 90 % 1012,4 hPa 0,0 l/m 5,5 km/h (1 Bft) S-SO 155 10,8 C 9,4 km/h (2 Bft) 100 %
12.10.2017 03:23 12,4 C 90 % 1012,4 hPa 0,0 l/m 4,9 km/h (1 Bft) SW 236 10,8 C 12,6 km/h (3 Bft) 100 %
12.10.2017 03:24 12,4 C 90 % 1012,4 hPa 0,0 l/m 5,0 km/h (1 Bft) NW 309 10,8 C 9,4 km/h (2 Bft) 100 %
12.10.2017 03:25 12,4 C 90 % 1012,5 hPa 0,0 l/m 4,1 km/h (1 Bft) SW 220 10,8 C 9,4 km/h (2 Bft) 100 %
12.10.2017 03:26 12,4 C 90 % 1012,5 hPa 0,0 l/m 7,7 km/h (2 Bft) SW 227 10,8 C 15,7 km/h (3 Bft) 100 %
12.10.2017 03:27 12,4 C 90 % 1012,5 hPa 0,0 l/m 5,6 km/h (1 Bft) W-SW 252 10,8 C 12,6 km/h (3 Bft) 100 %
12.10.2017 03:28 12,4 C 90 % 1012,5 hPa 0,0 l/m 4,0 km/h (1 Bft) W-SW 254 10,8 C 9,4 km/h (2 Bft) 99 %
12.10.2017 03:29 12,4 C 90 % 1012,5 hPa 0,0 l/m 5,5 km/h (1 Bft) W-NW 294 10,8 C 12,6 km/h (3 Bft) 100 %
12.10.2017 03:30 12,4 C 90 % 1012,5 hPa 0,0 l/m 6,0 km/h (2 Bft) W-NW 291 10,8 C 12,6 km/h (3 Bft) 100 %
12.10.2017 03:31 12,4 C 90 % 1012,5 hPa 0,0 l/m 7,1 km/h (2 Bft) SW 231 10,8 C 12,6 km/h (3 Bft) 100 %
12.10.2017 03:32 12,4 C 90 % 1012,4 hPa 0,0 l/m 12,4 km/h (3 Bft) NW 311 10,8 C 22,0 km/h (4 Bft) 100 %
12.10.2017 03:33 12,4 C 90 % 1012,4 hPa 0,0 l/m 9,9 km/h (2 Bft) SW 218 10,8 C 22,0 km/h (4 Bft) 100 %
12.10.2017 03:34 12,4 C 90 % 1012,4 hPa 0,0 l/m 8,5 km/h (2 Bft) W 268 10,8 C 15,7 km/h (3 Bft) 100 %
12.10.2017 03:35 12,4 C 90 % 1012,4 hPa 0,0 l/m 7,2 km/h (2 Bft) W-NW 293 10,8 C 9,4 km/h (2 Bft) 100 %
12.10.2017 03:36 12,4 C 90 % 1012,4 hPa 0,0 l/m 4,5 km/h (1 Bft) W-SW 257 10,8 C 9,4 km/h (2 Bft) 100 %
12.10.2017 03:37 12,4 C 90 % 1012,3 hPa 0,0 l/m 3,4 km/h (1 Bft) W 280 10,8 C 9,4 km/h (2 Bft) 100 %
12.10.2017 03:38 12,4 C 90 % 1012,3 hPa 0,0 l/m 3,1 km/h (1 Bft) W 269 10,8 C 12,6 km/h (3 Bft) 100 %
12.10.2017 03:39 12,4 C 90 % 1012,2 hPa 0,0 l/m 0,9 km/h (0 Bft) W-NW 296 10,8 C 3,1 km/h (1 Bft) 100 %
12.10.2017 03:40 12,4 C 90 % 1012,2 hPa 0,0 l/m 7,6 km/h (2 Bft) S 181 10,8 C 22,0 km/h (4 Bft) 100 %
12.10.2017 03:41 12,4 C 90 % 1012,2 hPa 0,0 l/m 4,1 km/h (1 Bft) NO 37 10,8 C 9,4 km/h (2 Bft) 96 %
12.10.2017 03:42 12,4 C 90 % 1012,2 hPa 0,0 l/m 6,8 km/h (2 Bft) SW 230 10,8 C 15,7 km/h (3 Bft) 100 %
12.10.2017 03:43 12,4 C 90 % 1012,2 hPa 0,0 l/m 7,5 km/h (2 Bft) W 259 10,8 C 18,8 km/h (3 Bft) 100 %
12.10.2017 03:44 12,4 C 90 % 1012,2 hPa 0,0 l/m 3,0 km/h (1 Bft) SW 223 10,8 C 9,4 km/h (2 Bft) 96 %
12.10.2017 03:45 12,4 C 90 % 1012,2 hPa 0,0 l/m 4,1 km/h (1 Bft) W 273 10,8 C 15,7 km/h (3 Bft) 99 %
12.10.2017 03:46 12,4 C 90 % 1012,2 hPa 0,0 l/m 5,8 km/h (2 Bft) W-NW 285 10,8 C 9,4 km/h (2 Bft) 100 %
12.10.2017 03:47 12,4 C 90 % 1012,2 hPa 0,0 l/m 4,3 km/h (1 Bft) W-SW 244 10,8 C 12,6 km/h (3 Bft) 97 %
12.10.2017 03:48 12,4 C 90 % 1012,2 hPa 0,0 l/m 6,0 km/h (2 Bft) S-SW 213 10,8 C 15,7 km/h (3 Bft) 96 %
12.10.2017 03:49 12,4 C 90 % 1012,1 hPa 0,0 l/m 3,3 km/h (1 Bft) S 174 10,8 C 15,7 km/h (3 Bft) 100 %
12.10.2017 03:50 12,4 C 90 % 1012,1 hPa 0,0 l/m 3,3 km/h (1 Bft) W-SW 250 10,8 C 9,4 km/h (2 Bft) 96 %
12.10.2017 03:51 12,4 C 90 % 1012,1 hPa 0,0 l/m 4,0 km/h (1 Bft) SW 224 10,8 C 12,6 km/h (3 Bft) 100 %
12.10.2017 03:52 12,4 C 91 % 1012,1 hPa 0,0 l/m 10,8 km/h (2 Bft) W 278 11,0 C 18,8 km/h (3 Bft) 97 %
12.10.2017 03:53 12,3 C 91 % 1012,1 hPa 0,0 l/m 4,1 km/h (1 Bft) S-SW 205 10,9 C 12,6 km/h (3 Bft) 100 %
12.10.2017 03:54 12,4 C 91 % 1012,2 hPa 0,0 l/m 12,4 km/h (3 Bft) NW 308 11,0 C 25,1 km/h (4 Bft) 96 %
12.10.2017 03:55 12,4 C 91 % 1012,2 hPa 0,0 l/m 10,5 km/h (2 Bft) SO 139 11,0 C 22,0 km/h (4 Bft) 96 %
12.10.2017 03:56 12,4 C 91 % 1012,2 hPa 0,0 l/m 4,1 km/h (1 Bft) W 262 11,0 C 9,4 km/h (2 Bft) 100 %
12.10.2017 03:57 12,4 C 91 % 1012,1 hPa 0,0 l/m 9,4 km/h (2 Bft) W-NW 293 11,0 C 22,0 km/h (4 Bft) 100 %
12.10.2017 03:58 12,4 C 90 % 1012,1 hPa 0,0 l/m 2,4 km/h (1 Bft) NW 313 10,8 C 6,3 km/h (2 Bft) 100 %
12.10.2017 03:59 12,4 C 91 % 1012,1 hPa 0,0 l/m 6,5 km/h (2 Bft) W-SW 241 11,0 C 9,4 km/h (2 Bft) 100 %
12.10.2017 04:00 12,4 C 91 % 1012,1 hPa 0,0 l/m 6,4 km/h (2 Bft) S-SW 203 11,0 C 9,4 km/h (2 Bft) 100 %
12.10.2017 04:01 12,4 C 91 % 1012,1 hPa 0,0 l/m 5,9 km/h (2 Bft) SW 236 11,0 C 15,7 km/h (3 Bft) 100 %
12.10.2017 04:02 12,4 C 91 % 1012,1 hPa 0,0 l/m 5,6 km/h (1 Bft) SW 221 11,0 C 12,6 km/h (3 Bft) 100 %
12.10.2017 04:03 12,4 C 90 % 1012,1 hPa 0,0 l/m 7,9 km/h (2 Bft) W 272 10,8 C 15,7 km/h (3 Bft) 100 %
12.10.2017 04:04 12,5 C 90 % 1012,1 hPa 0,0 l/m 5,5 km/h (1 Bft) W-SW 241 10,9 C 15,7 km/h (3 Bft) 100 %
12.10.2017 04:05 12,5 C 90 % 1012,1 hPa 0,0 l/m 10,6 km/h (2 Bft) W-NW 295 10,9 C 22,0 km/h (4 Bft) 100 %
12.10.2017 04:06 12,5 C 90 % 1012,1 hPa 0,0 l/m 10,0 km/h (2 Bft) S-SO 162 10,9 C 15,7 km/h (3 Bft) 100 %
12.10.2017 04:07 12,5 C 90 % 1012,1 hPa 0,0 l/m 5,1 km/h (1 Bft) SW 232 10,9 C 9,4 km/h (2 Bft) 100 %
12.10.2017 04:08 12,6 C 90 % 1012,1 hPa 0,0 l/m 8,2 km/h (2 Bft) S 182 11,0 C 22,0 km/h (4 Bft) 100 %
12.10.2017 04:09 12,6 C 90 % 1012,1 hPa 0,0 l/m 7,2 km/h (2 Bft) W-SW 237 11,0 C 12,6 km/h (3 Bft) 100 %
12.10.2017 04:10 12,6 C 90 % 1012,0 hPa 0,0 l/m 12,0 km/h (2 Bft) W-NW 291 11,0 C 22,0 km/h (4 Bft) 100 %
12.10.2017 04:11 12,6 C 90 % 1012,1 hPa 0,0 l/m 13,1 km/h (3 Bft) SW 236 11,0 C 25,1 km/h (4 Bft) 100 %
12.10.2017 04:12 12,6 C 90 % 1012,1 hPa 0,0 l/m 8,4 km/h (2 Bft) W 281 11,0 C 22,0 km/h (4 Bft) 100 %
12.10.2017 04:13 12,6 C 90 % 1012,1 hPa 0,0 l/m 7,5 km/h (2 Bft) W-NW 287 11,0 C 22,0 km/h (4 Bft) 100 %
12.10.2017 04:14 12,6 C 90 % 1012,1 hPa 0,0 l/m 6,4 km/h (2 Bft) SW 217 11,0 C 15,7 km/h (3 Bft) 100 %
12.10.2017 04:15 12,6 C 90 % 1012,0 hPa 0,0 l/m 16,0 km/h (3 Bft) W-SW 240 11,0 C 31,4 km/h (5 Bft) 100 %
12.10.2017 04:16 12,7 C 90 % 1012,1 hPa 0,0 l/m 9,2 km/h (2 Bft) S-SW 206 11,1 C 28,2 km/h (4 Bft) 100 %
12.10.2017 04:17 12,7 C 90 % 1012,1 hPa 0,0 l/m 7,4 km/h (2 Bft) W 281 11,1 C 15,7 km/h (3 Bft) 100 %
12.10.2017 04:18 12,7 C 90 % 1012,2 hPa 0,0 l/m 10,7 km/h (2 Bft) S 191 11,1 C 22,0 km/h (4 Bft) 100 %
12.10.2017 04:19 12,7 C 90 % 1012,1 hPa 0,0 l/m 8,9 km/h (2 Bft) W-SW 254 11,1 C 15,7 km/h (3 Bft) 100 %
12.10.2017 04:20 12,7 C 90 % 1012,1 hPa 0,0 l/m 4,8 km/h (1 Bft) S-SW 208 11,1 C 15,7 km/h (3 Bft) 100 %
12.10.2017 04:21 12,7 C 90 % 1012,2 hPa 0,0 l/m 8,6 km/h (2 Bft) S-SW 213 11,1 C 15,7 km/h (3 Bft) 100 %
12.10.2017 04:22 12,7 C 90 % 1012,2 hPa 0,0 l/m 6,1 km/h (2 Bft) N 360 11,1 C 9,4 km/h (2 Bft) 100 %
12.10.2017 04:23 12,7 C 90 % 1012,1 hPa 0,0 l/m 3,3 km/h (1 Bft) W-NW 292 11,1 C 12,6 km/h (3 Bft) 100 %
12.10.2017 04:24 12,7 C 90 % 1012,1 hPa 0,0 l/m 4,9 km/h (1 Bft) NW 326 11,1 C 18,8 km/h (3 Bft) 100 %
12.10.2017 04:25 12,7 C 90 % 1012,1 hPa 0,0 l/m 8,8 km/h (2 Bft) W 272 11,1 C 15,7 km/h (3 Bft) 100 %
12.10.2017 04:26 12,7 C 90 % 1012,1 hPa 0,0 l/m 5,2 km/h (1 Bft) S-SW 206 11,1 C 12,6 km/h (3 Bft) 100 %
12.10.2017 04:27 12,7 C 90 % 1012,1 hPa 0,0 l/m 9,6 km/h (2 Bft) SW 221 11,1 C 18,8 km/h (3 Bft) 100 %
12.10.2017 04:28 12,7 C 90 % 1012,1 hPa 0,0 l/m 9,8 km/h (2 Bft) SW 227 11,1 C 15,7 km/h (3 Bft) 100 %
12.10.2017 04:29 12,7 C 90 % 1012,1 hPa 0,0 l/m 2,7 km/h (1 Bft) W-NW 283 11,1 C 9,4 km/h (2 Bft) 100 %
12.10.2017 04:30 12,7 C 90 % 1012,1 hPa 0,0 l/m 2,9 km/h (1 Bft) W-SW 239 11,1 C 6,3 km/h (2 Bft) 100 %
12.10.2017 04:31 12,7 C 90 % 1012,1 hPa 0,0 l/m 5,4 km/h (1 Bft) W-SW 248 11,1 C 9,4 km/h (2 Bft) 100 %
12.10.2017 04:32 12,7 C 90 % 1012,0 hPa 0,0 l/m 6,4 km/h (2 Bft) SW 236 11,1 C 15,7 km/h (3 Bft) 100 %
12.10.2017 04:33 12,7 C 90 % 1012,0 hPa 0,0 l/m 4,3 km/h (1 Bft) NW 319 11,1 C 12,6 km/h (3 Bft) 100 %
12.10.2017 04:34 12,7 C 90 % 1012,0 hPa 0,0 l/m 8,1 km/h (2 Bft) S 181 11,1 C 22,0 km/h (4 Bft) 100 %
12.10.2017 04:35 12,7 C 90 % 1012,1 hPa 0,0 l/m 0,1 km/h (0 Bft) W-SW 239 11,1 C 3,1 km/h (1 Bft) 100 %
12.10.2017 04:36 12,7 C 90 % 1012,1 hPa 0,0 l/m 1,1 km/h (1 Bft) W-SW 243 11,1 C 3,1 km/h (1 Bft) 100 %
12.10.2017 04:37 12,7 C 90 % 1012,0 hPa 0,0 l/m 5,6 km/h (1 Bft) SW 220 11,1 C 12,6 km/h (3 Bft) 100 %
12.10.2017 04:38 12,7 C 90 % 1012,0 hPa 0,0 l/m 0,7 km/h (0 Bft) NW 304 11,1 C 3,1 km/h (1 Bft) 100 %
12.10.2017 04:39 12,7 C 90 % 1012,1 hPa 0,0 l/m 3,0 km/h (1 Bft) SW 231 11,1 C 9,4 km/h (2 Bft) 100 %
12.10.2017 04:40 12,7 C 90 % 1012,1 hPa 0,0 l/m 5,8 km/h (2 Bft) O-SO 113 11,1 C 15,7 km/h (3 Bft) 100 %
12.10.2017 04:41 12,7 C 90 % 1012,1 hPa 0,0 l/m 7,5 km/h (2 Bft) SW 236 11,1 C 12,6 km/h (3 Bft) 100 %
12.10.2017 04:42 12,7 C 90 % 1012,1 hPa 0,0 l/m 1,9 km/h (1 Bft) W 266 11,1 C 9,4 km/h (2 Bft) 100 %
12.10.2017 04:43 12,7 C 90 % 1012,1 hPa 0,0 l/m 4,1 km/h (1 Bft) SW 233 11,1 C 6,3 km/h (2 Bft) 100 %
12.10.2017 04:44 12,7 C 90 % 1012,1 hPa 0,0 l/m 5,2 km/h (1 Bft) W-NW 299 11,1 C 12,6 km/h (3 Bft) 100 %
12.10.2017 04:45 12,7 C 90 % 1012,1 hPa 0,0 l/m 3,5 km/h (1 Bft) SW 217 11,1 C 12,6 km/h (3 Bft) 100 %
12.10.2017 04:46 12,7 C 90 % 1012,0 hPa 0,0 l/m 8,0 km/h (2 Bft) SW 220 11,1 C 18,8 km/h (3 Bft) 100 %
12.10.2017 04:47 12,7 C 90 % 1012,0 hPa 0,0 l/m 6,4 km/h (2 Bft) S-SW 212 11,1 C 18,8 km/h (3 Bft) 100 %
12.10.2017 04:48 12,8 C 90 % 1012,0 hPa 0,0 l/m 8,9 km/h (2 Bft) S-SO 159 11,2 C 12,6 km/h (3 Bft) 100 %
12.10.2017 04:49 12,8 C 90 % 1012,0 hPa 0,0 l/m 2,5 km/h (1 Bft) SW 214 11,2 C 6,3 km/h (2 Bft) 96 %
12.10.2017 04:50 12,8 C 89 % 1012,0 hPa 0,0 l/m 9,7 km/h (2 Bft) W-SW 245 11,0 C 18,8 km/h (3 Bft) 96 %
12.10.2017 04:51 12,8 C 89 % 1012,0 hPa 0,0 l/m 7,1 km/h (2 Bft) S-SO 161 11,0 C 12,6 km/h (3 Bft) 100 %
12.10.2017 04:52 12,8 C 89 % 1012,1 hPa 0,0 l/m 4,3 km/h (1 Bft) W-SW 258 11,0 C 9,4 km/h (2 Bft) 100 %
12.10.2017 04:53 12,8 C 90 % 1012,0 hPa 0,0 l/m 2,4 km/h (1 Bft) SW 229 11,2 C 18,8 km/h (3 Bft) 100 %
12.10.2017 04:54 12,8 C 89 % 1012,0 hPa 0,0 l/m 6,7 km/h (2 Bft) W 272 11,0 C 12,6 km/h (3 Bft) 100 %
12.10.2017 04:55 12,8 C 89 % 1012,1 hPa 0,0 l/m 5,0 km/h (1 Bft) W 261 11,0 C 15,7 km/h (3 Bft) 96 %
12.10.2017 04:56 12,8 C 89 % 1012,0 hPa 0,0 l/m 6,0 km/h (2 Bft) NW 322 11,0 C 12,6 km/h (3 Bft) 100 %
12.10.2017 04:57 12,8 C 89 % 1011,9 hPa 0,0 l/m 1,6 km/h (1 Bft) SW 219 11,0 C 6,3 km/h (2 Bft) 93 %
12.10.2017 04:58 12,8 C 89 % 1011,9 hPa 0,0 l/m 3,5 km/h (1 Bft) SW 224 11,0 C 12,6 km/h (3 Bft) 100 %
12.10.2017 04:59 12,8 C 89 % 1011,9 hPa 0,0 l/m 0,4 km/h (0 Bft) W 269 11,0 C 3,1 km/h (1 Bft) 96 %
12.10.2017 05:00 12,8 C 89 % 1012,0 hPa 0,0 l/m 4,5 km/h (1 Bft) N-NW 335 11,0 C 9,4 km/h (2 Bft) 100 %
12.10.2017 05:01 12,8 C 89 % 1011,9 hPa 0,0 l/m 2,2 km/h (1 Bft) NW 324 11,0 C 6,3 km/h (2 Bft) 96 %
12.10.2017 05:02 12,8 C 90 % 1011,9 hPa 0,0 l/m 1,8 km/h (1 Bft) SW 233 11,2 C 3,1 km/h (1 Bft) 96 %
12.10.2017 05:03 12,8 C 90 % 1011,9 hPa 0,0 l/m 0,5 km/h (0 Bft) SW 226 11,2 C 3,1 km/h (1 Bft) 100 %
12.10.2017 05:04 12,8 C 90 % 1011,9 hPa 0,0 l/m 1,4 km/h (1 Bft) S-SW 212 11,2 C 3,1 km/h (1 Bft) 96 %
12.10.2017 05:05 12,8 C 90 % 1011,9 hPa 0,0 l/m 2,4 km/h (1 Bft) W-NW 295 11,2 C 6,3 km/h (2 Bft) 100 %
12.10.2017 05:06 12,8 C 90 % 1011,9 hPa 0,0 l/m 0,8 km/h (0 Bft) W-SW 251 11,2 C 3,1 km/h (1 Bft) 96 %
12.10.2017 05:07 12,8 C 90 % 1011,9 hPa 0,0 l/m 3,9 km/h (1 Bft) W 262 11,2 C 6,3 km/h (2 Bft) 100 %
12.10.2017 05:08 12,8 C 90 % 1011,9 hPa 0,0 l/m 5,9 km/h (2 Bft) W 261 11,2 C 9,4 km/h (2 Bft) 100 %
12.10.2017 05:09 12,8 C 90 % 1011,9 hPa 0,0 l/m 2,2 km/h (1 Bft) W 266 11,2 C 9,4 km/h (2 Bft) 100 %
12.10.2017 05:10 12,8 C 90 % 1011,9 hPa 0,0 l/m 6,9 km/h (2 Bft) SW 221 11,2 C 15,7 km/h (3 Bft) 100 %
12.10.2017 05:12 12,8 C 90 % 1011,9 hPa 0,0 l/m 5,4 km/h (1 Bft) SW 221 11,2 C 15,7 km/h (3 Bft) 100 %
12.10.2017 05:13 12,8 C 89 % 1011,9 hPa 0,0 l/m 6,7 km/h (2 Bft) S-SO 156 11,0 C 12,6 km/h (3 Bft) 100 %
12.10.2017 05:14 12,8 C 89 % 1011,9 hPa 0,0 l/m 3,0 km/h (1 Bft) W-SW 252 11,0 C 9,4 km/h (2 Bft) 100 %
12.10.2017 05:16 12,9 C 89 % 1011,8 hPa 0,0 l/m 3,0 km/h (1 Bft) W-NW 302 11,1 C 9,4 km/h (2 Bft) 100 %
12.10.2017 05:17 12,9 C 89 % 1011,8 hPa 0,0 l/m 4,0 km/h (1 Bft) W-NW 302 11,1 C 6,3 km/h (2 Bft) 100 %
12.10.2017 05:18 12,9 C 89 % 1011,9 hPa 0,0 l/m 7,1 km/h (2 Bft) W-NW 283 11,1 C 12,6 km/h (3 Bft) 100 %
12.10.2017 05:19 12,9 C 89 % 1011,9 hPa 0,0 l/m 6,3 km/h (2 Bft) SW 236 11,1 C 9,4 km/h (2 Bft) 100 %
12.10.2017 05:20 12,9 C 89 % 1011,9 hPa 0,0 l/m 4,3 km/h (1 Bft) SW 232 11,1 C 12,6 km/h (3 Bft) 100 %
12.10.2017 05:21 12,9 C 89 % 1012,0 hPa 0,0 l/m 5,2 km/h (1 Bft) SW 236 11,1 C 15,7 km/h (3 Bft) 100 %
12.10.2017 05:22 12,9 C 89 % 1011,9 hPa 0,0 l/m 9,9 km/h (2 Bft) W 262 11,1 C 15,7 km/h (3 Bft) 100 %
12.10.2017 05:23 12,9 C 89 % 1011,9 hPa 0,0 l/m 7,4 km/h (2 Bft) SW 224 11,1 C 12,6 km/h (3 Bft) 100 %
12.10.2017 05:24 12,9 C 89 % 1011,9 hPa 0,0 l/m 7,9 km/h (2 Bft) W-SW 243 11,1 C 15,7 km/h (3 Bft) 100 %
12.10.2017 05:25 13,0 C 89 % 1011,9 hPa 0,0 l/m 1,8 km/h (1 Bft) S-SW 192 11,2 C 9,4 km/h (2 Bft) 100 %
12.10.2017 05:26 13,0 C 89 % 1011,9 hPa 0,0 l/m 6,3 km/h (2 Bft) W 279 11,2 C 9,4 km/h (2 Bft) 100 %
12.10.2017 05:27 13,0 C 89 % 1011,9 hPa 0,0 l/m 5,7 km/h (1 Bft) W 264 11,2 C 15,7 km/h (3 Bft) 100 %
12.10.2017 05:28 13,1 C 89 % 1011,9 hPa 0,0 l/m 5,2 km/h (1 Bft) S-SW 203 11,3 C 12,6 km/h (3 Bft) 100 %
12.10.2017 05:29 13,1 C 89 % 1012,0 hPa 0,0 l/m 0,8 km/h (0 Bft) W-SW 255 11,3 C 6,3 km/h (2 Bft) 100 %
12.10.2017 05:30 13,1 C 89 % 1011,9 hPa 0,0 l/m 8,0 km/h (2 Bft) O 82 11,3 C 15,7 km/h (3 Bft) 100 %
12.10.2017 05:31 13,1 C 89 % 1012,0 hPa 0,0 l/m 3,9 km/h (1 Bft) NW 309 11,3 C 9,4 km/h (2 Bft) 100 %
12.10.2017 05:32 13,1 C 89 % 1012,0 hPa 0,0 l/m 2,2 km/h (1 Bft) NW 315 11,3 C 15,7 km/h (3 Bft) 100 %
12.10.2017 05:33 13,1 C 89 % 1012,0 hPa 0,0 l/m 4,2 km/h (1 Bft) NW 311 11,3 C 12,6 km/h (3 Bft) 100 %
12.10.2017 05:34 13,1 C 89 % 1012,0 hPa 0,0 l/m 0,4 km/h (0 Bft) W-NW 284 11,3 C 6,3 km/h (2 Bft) 100 %
12.10.2017 05:35 13,1 C 89 % 1012,0 hPa 0,0 l/m 11,9 km/h (2 Bft) S-SW 198 11,3 C 25,1 km/h (4 Bft) 100 %
12.10.2017 05:36 13,2 C 89 % 1012,0 hPa 0,0 l/m 15,9 km/h (3 Bft) SW 236 11,4 C 28,2 km/h (4 Bft) 100 %
12.10.2017 05:37 13,2 C 89 % 1012,0 hPa 0,0 l/m 9,6 km/h (2 Bft) SW 216 11,4 C 22,0 km/h (4 Bft) 100 %
12.10.2017 05:38 13,2 C 88 % 1011,9 hPa 0,0 l/m 12,6 km/h (3 Bft) W-SW 238 11,3 C 18,8 km/h (3 Bft) 100 %
12.10.2017 05:39 13,2 C 88 % 1012,0 hPa 0,0 l/m 4,2 km/h (1 Bft) NW 314 11,3 C 9,4 km/h (2 Bft) 100 %
12.10.2017 05:40 13,2 C 88 % 1012,1 hPa 0,0 l/m 10,3 km/h (2 Bft) W-NW 283 11,3 C 18,8 km/h (3 Bft) 100 %
12.10.2017 05:41 13,3 C 88 % 1012,1 hPa 0,0 l/m 3,1 km/h (1 Bft) NW 312 11,4 C 6,3 km/h (2 Bft) 100 %
12.10.2017 05:42 13,3 C 88 % 1012,1 hPa 0,0 l/m 4,3 km/h (1 Bft) W-NW 298 11,4 C 9,4 km/h (2 Bft) 97 %
12.10.2017 05:43 13,3 C 88 % 1012,1 hPa 0,0 l/m 2,4 km/h (1 Bft) S-SW 208 11,4 C 6,3 km/h (2 Bft) 100 %
12.10.2017 05:44 13,3 C 88 % 1012,1 hPa 0,0 l/m 3,7 km/h (1 Bft) W-NW 297 11,4 C 6,3 km/h (2 Bft) 100 %
12.10.2017 05:45 13,3 C 88 % 1012,1 hPa 0,0 l/m 1,6 km/h (1 Bft) NW 312 11,4 C 6,3 km/h (2 Bft) 100 %
12.10.2017 05:46 13,2 C 89 % 1012,2 hPa 0,0 l/m 3,1 km/h (1 Bft) W-SW 243 11,4 C 6,3 km/h (2 Bft) 100 %
12.10.2017 05:47 13,2 C 89 % 1012,1 hPa 0,0 l/m 2,4 km/h (1 Bft) SW 216 11,4 C 6,3 km/h (2 Bft) 100 %
12.10.2017 05:48 13,2 C 89 % 1012,2 hPa 0,0 l/m 8,8 km/h (2 Bft) W 273 11,4 C 18,8 km/h (3 Bft) 100 %
12.10.2017 05:49 13,2 C 89 % 1012,2 hPa 0,0 l/m 4,1 km/h (1 Bft) W-SW 243 11,4 C 6,3 km/h (2 Bft) 100 %
12.10.2017 05:50 13,2 C 89 % 1012,2 hPa 0,0 l/m 5,4 km/h (1 Bft) W-SW 255 11,4 C 9,4 km/h (2 Bft) 100 %
12.10.2017 05:51 13,2 C 89 % 1012,2 hPa 0,0 l/m 4,2 km/h (1 Bft) W-SW 240 11,4 C 9,4 km/h (2 Bft) 100 %
12.10.2017 05:52 13,2 C 89 % 1012,3 hPa 0,0 l/m 2,3 km/h (1 Bft) SW 228 11,4 C 9,4 km/h (2 Bft) 100 %
12.10.2017 05:53 13,2 C 89 % 1012,3 hPa 0,0 l/m 1,8 km/h (1 Bft) S 186 11,4 C 9,4 km/h (2 Bft) 100 %
12.10.2017 05:54 13,2 C 89 % 1012,3 hPa 0,0 l/m 6,6 km/h (2 Bft) SW 231 11,4 C 12,6 km/h (3 Bft) 100 %
12.10.2017 05:55 13,2 C 89 % 1012,3 hPa 0,0 l/m 6,4 km/h (2 Bft) W-SW 240 11,4 C 9,4 km/h (2 Bft) 100 %
12.10.2017 05:56 13,2 C 89 % 1012,2 hPa 0,0 l/m 5,0 km/h (1 Bft) S-SW 208 11,4 C 15,7 km/h (3 Bft) 100 %
12.10.2017 05:57 13,2 C 89 % 1012,4 hPa 0,0 l/m 6,1 km/h (2 Bft) SW 230 11,4 C 12,6 km/h (3 Bft) 100 %
12.10.2017 05:58 13,2 C 89 % 1012,4 hPa 0,0 l/m 4,9 km/h (1 Bft) W 275 11,4 C 12,6 km/h (3 Bft) 100 %
12.10.2017 05:59 13,2 C 89 % 1012,4 hPa 0,0 l/m 3,5 km/h (1 Bft) W-NW 300 11,4 C 6,3 km/h (2 Bft) 100 %
12.10.2017 06:00 13,2 C 89 % 1012,4 hPa 0,0 l/m 8,9 km/h (2 Bft) W 262 11,4 C 12,6 km/h (3 Bft) 100 %
12.10.2017 06:01 13,2 C 89 % 1012,4 hPa 0,0 l/m 1,2 km/h (1 Bft) W-NW 297 11,4 C 3,1 km/h (1 Bft) 96 %
12.10.2017 06:02 13,2 C 89 % 1012,4 hPa 0,0 l/m 5,8 km/h (2 Bft) N-NW 330 11,4 C 12,6 km/h (3 Bft) 96 %
12.10.2017 06:03 13,2 C 89 % 1012,4 hPa 0,0 l/m 3,1 km/h (1 Bft) S-SW 195 11,4 C 6,3 km/h (2 Bft) 96 %
12.10.2017 06:04 13,2 C 89 % 1012,4 hPa 0,0 l/m 3,6 km/h (1 Bft) W-NW 297 11,4 C 6,3 km/h (2 Bft) 100 %
12.10.2017 06:05 13,3 C 89 % 1012,4 hPa 0,0 l/m 6,4 km/h (2 Bft) W-NW 282 11,5 C 18,8 km/h (3 Bft) 96 %
12.10.2017 06:06 13,3 C 89 % 1012,4 hPa 0,0 l/m 3,1 km/h (1 Bft) O-NO 60 11,5 C 6,3 km/h (2 Bft) 100 %
12.10.2017 06:07 13,3 C 89 % 1012,5 hPa 0,0 l/m 3,4 km/h (1 Bft) SW 225 11,5 C 6,3 km/h (2 Bft) 96 %
12.10.2017 06:08 13,4 C 89 % 1012,6 hPa 0,0 l/m 4,4 km/h (1 Bft) S-SW 211 11,6 C 6,3 km/h (2 Bft) 96 %
12.10.2017 06:09 13,4 C 89 % 1012,6 hPa 0,0 l/m 1,8 km/h (1 Bft) SW 236 11,6 C 6,3 km/h (2 Bft) 100 %
12.10.2017 06:10 13,4 C 89 % 1012,6 hPa 0,0 l/m 3,3 km/h (1 Bft) W-SW 252 11,6 C 6,3 km/h (2 Bft) 100 %
12.10.2017 06:11 13,3 C 89 % 1012,6 hPa 0,0 l/m 1,6 km/h (1 Bft) W 266 11,5 C 6,3 km/h (2 Bft) 96 %
12.10.2017 06:12 13,4 C 89 % 1012,6 hPa 0,0 l/m 8,5 km/h (2 Bft) W 280 11,6 C 22,0 km/h (4 Bft) 96 %
12.10.2017 06:13 13,4 C 89 % 1012,6 hPa 0,0 l/m 4,2 km/h (1 Bft) S-SW 198 11,6 C 12,6 km/h (3 Bft) 100 %
12.10.2017 06:14 13,4 C 90 % 1012,6 hPa 0,0 l/m 11,8 km/h (2 Bft) W 262 11,8 C 15,7 km/h (3 Bft) 96 %
12.10.2017 06:15 13,5 C 90 % 1012,6 hPa 0,0 l/m 13,2 km/h (3 Bft) W-NW 290 11,9 C 34,5 km/h (5 Bft) 100 %
12.10.2017 06:16 13,6 C 90 % 1012,6 hPa 0,0 l/m 12,7 km/h (3 Bft) NW 309 12,0 C 18,8 km/h (3 Bft) 100 %
12.10.2017 06:17 13,7 C 89 % 1012,7 hPa 0,0 l/m 12,7 km/h (3 Bft) N 349 11,9 C 18,8 km/h (3 Bft) 100 %
12.10.2017 06:18 13,8 C 89 % 1012,6 hPa 0,0 l/m 13,3 km/h (3 Bft) W 271 12,0 C 22,0 km/h (4 Bft) 100 %
12.10.2017 06:19 13,9 C 89 % 1012,6 hPa 0,0 l/m 8,6 km/h (2 Bft) W 266 12,1 C 15,7 km/h (3 Bft) 100 %
12.10.2017 06:20 13,9 C 89 % 1012,8 hPa 0,0 l/m 12,2 km/h (2 Bft) S-SW 200 12,1 C 18,8 km/h (3 Bft) 100 %
12.10.2017 06:21 13,9 C 89 % 1012,7 hPa 0,0 l/m 4,2 km/h (1 Bft) W 259 12,1 C 9,4 km/h (2 Bft) 100 %
12.10.2017 06:22 14,0 C 89 % 1012,6 hPa 0,0 l/m 5,5 km/h (1 Bft) W 263 12,2 C 12,6 km/h (3 Bft) 100 %
12.10.2017 06:23 14,0 C 88 % 1012,6 hPa 0,0 l/m 8,9 km/h (2 Bft) NW 315 12,0 C 15,7 km/h (3 Bft) 100 %
12.10.2017 06:24 14,0 C 88 % 1012,6 hPa 0,0 l/m 9,3 km/h (2 Bft) W-SW 244 12,0 C 18,8 km/h (3 Bft) 100 %
12.10.2017 06:25 14,0 C 88 % 1012,6 hPa 0,0 l/m 4,1 km/h (1 Bft) SW 233 12,0 C 12,6 km/h (3 Bft) 100 %
12.10.2017 06:26 14,0 C 88 % 1012,6 hPa 0,0 l/m 8,2 km/h (2 Bft) W 281 12,0 C 15,7 km/h (3 Bft) 100 %
12.10.2017 06:27 14,0 C 88 % 1012,6 hPa 0,0 l/m 10,7 km/h (2 Bft) N-NW 334 12,0 C 22,0 km/h (4 Bft) 100 %
12.10.2017 06:28 14,0 C 88 % 1012,7 hPa 0,0 l/m 7,3 km/h (2 Bft) W-SW 237 12,0 C 15,7 km/h (3 Bft) 100 %
12.10.2017 06:29 14,0 C 89 % 1012,7 hPa 0,0 l/m 11,4 km/h (2 Bft) O 79 12,2 C 22,0 km/h (4 Bft) 100 %
12.10.2017 06:30 14,0 C 89 % 1012,7 hPa 0,0 l/m 3,8 km/h (1 Bft) W-NW 297 12,2 C 9,4 km/h (2 Bft) 100 %
12.10.2017 06:31 14,0 C 89 % 1012,8 hPa 0,0 l/m 12,1 km/h (2 Bft) W 279 12,2 C 31,4 km/h (5 Bft) 97 %
12.10.2017 06:32 14,0 C 89 % 1012,8 hPa 0,0 l/m 6,3 km/h (2 Bft) N-NW 347 12,2 C 9,4 km/h (2 Bft) 100 %
12.10.2017 06:33 14,0 C 89 % 1012,8 hPa 0,0 l/m 10,8 km/h (2 Bft) W-NW 285 12,2 C 22,0 km/h (4 Bft) 100 %
12.10.2017 06:34 14,0 C 88 % 1012,8 hPa 0,0 l/m 6,1 km/h (2 Bft) S-SW 201 12,0 C 9,4 km/h (2 Bft) 100 %
12.10.2017 06:35 14,1 C 89 % 1012,8 hPa 0,0 l/m 5,0 km/h (1 Bft) N-NW 330 12,3 C 12,6 km/h (3 Bft) 100 %
12.10.2017 06:36 14,0 C 88 % 1012,8 hPa 0,0 l/m 4,7 km/h (1 Bft) N 350 12,0 C 9,4 km/h (2 Bft) 100 %
12.10.2017 06:37 14,0 C 89 % 1012,8 hPa 0,0 l/m 8,1 km/h (2 Bft) S-SW 205 12,2 C 15,7 km/h (3 Bft) 100 %
12.10.2017 06:38 14,0 C 89 % 1012,7 hPa 0,0 l/m 3,1 km/h (1 Bft) NW 312 12,2 C 12,6 km/h (3 Bft) 100 %
12.10.2017 06:39 14,0 C 89 % 1012,7 hPa 0,0 l/m 2,2 km/h (1 Bft) N-NW 339 12,2 C 12,6 km/h (3 Bft) 100 %
12.10.2017 06:40 14,0 C 89 % 1012,7 hPa 0,0 l/m 3,0 km/h (1 Bft) N 355 12,2 C 15,7 km/h (3 Bft) 100 %
12.10.2017 06:41 13,9 C 89 % 1012,7 hPa 0,0 l/m 2,2 km/h (1 Bft) S-SW 209 12,1 C 6,3 km/h (2 Bft) 100 %
12.10.2017 06:42 13,9 C 89 % 1012,7 hPa 0,0 l/m 4,4 km/h (1 Bft) S 171 12,1 C 15,7 km/h (3 Bft) 100 %
12.10.2017 06:43 13,9 C 89 % 1012,7 hPa 0,0 l/m 6,7 km/h (2 Bft) W 271 12,1 C 15,7 km/h (3 Bft) 100 %
12.10.2017 06:44 13,9 C 88 % 1012,7 hPa 0,0 l/m 9,4 km/h (2 Bft) W-SW 252 11,9 C 12,6 km/h (3 Bft) 100 %
12.10.2017 06:45 13,9 C 88 % 1012,7 hPa 0,0 l/m 6,1 km/h (2 Bft) NW 315 11,9 C 15,7 km/h (3 Bft) 100 %
12.10.2017 06:46 13,9 C 88 % 1012,7 hPa 0,0 l/m 7,9 km/h (2 Bft) W-SW 257 11,9 C 15,7 km/h (3 Bft) 100 %
12.10.2017 06:47 13,9 C 88 % 1012,7 hPa 0,0 l/m 4,6 km/h (1 Bft) W-NW 285 11,9 C 9,4 km/h (2 Bft) 100 %
12.10.2017 06:48 13,9 C 88 % 1012,7 hPa 0,0 l/m 9,6 km/h (2 Bft) S-SW 195 11,9 C 12,6 km/h (3 Bft) 100 %
12.10.2017 06:49 13,9 C 88 % 1012,7 hPa 0,0 l/m 12,7 km/h (3 Bft) W-SW 238 11,9 C 18,8 km/h (3 Bft) 100 %
12.10.2017 06:50 13,9 C 88 % 1012,7 hPa 0,0 l/m 4,2 km/h (1 Bft) NW 310 11,9 C 12,6 km/h (3 Bft) 100 %
12.10.2017 06:51 13,9 C 88 % 1012,6 hPa 0,0 l/m 6,8 km/h (2 Bft) NW 318 11,9 C 9,4 km/h (2 Bft) 100 %
12.10.2017 06:52 13,9 C 88 % 1012,6 hPa 0,0 l/m 5,8 km/h (2 Bft) SW 216 11,9 C 18,8 km/h (3 Bft) 100 %
12.10.2017 06:53 13,9 C 88 % 1012,7 hPa 0,0 l/m 12,0 km/h (2 Bft) W-SW 249 11,9 C 25,1 km/h (4 Bft) 100 %
12.10.2017 06:54 13,9 C 88 % 1012,7 hPa 0,0 l/m 4,8 km/h (1 Bft) W-NW 297 11,9 C 9,4 km/h (2 Bft) 100 %
12.10.2017 06:55 13,9 C 88 % 1012,8 hPa 0,0 l/m 4,4 km/h (1 Bft) W-NW 288 11,9 C 6,3 km/h (2 Bft) 100 %
12.10.2017 06:56 13,9 C 88 % 1012,8 hPa 0,0 l/m 5,5 km/h (1 Bft) W 270 11,9 C 9,4 km/h (2 Bft) 100 %
12.10.2017 06:57 13,9 C 88 % 1012,8 hPa 0,0 l/m 5,5 km/h (1 Bft) W-NW 298 11,9 C 9,4 km/h (2 Bft) 93 %
12.10.2017 06:58 13,9 C 88 % 1012,9 hPa 0,0 l/m 5,9 km/h (2 Bft) NW 320 11,9 C 9,4 km/h (2 Bft) 100 %
12.10.2017 06:59 13,9 C 88 % 1012,9 hPa 0,0 l/m 9,3 km/h (2 Bft) NW 317 11,9 C 12,6 km/h (3 Bft) 100 %
12.10.2017 07:00 13,8 C 88 % 1012,9 hPa 0,0 l/m 4,6 km/h (1 Bft) W 262 11,8 C 15,7 km/h (3 Bft) 100 %
12.10.2017 07:01 13,8 C 88 % 1013,0 hPa 0,0 l/m 4,9 km/h (1 Bft) S-SW 207 11,8 C 9,4 km/h (2 Bft) 100 %
12.10.2017 07:02 13,7 C 88 % 1012,9 hPa 0,0 l/m 6,9 km/h (2 Bft) SW 221 11,7 C 12,6 km/h (3 Bft) 100 %
12.10.2017 07:03 13,7 C 88 % 1013,0 hPa 0,0 l/m 4,6 km/h (1 Bft) W-SW 257 11,7 C 12,6 km/h (3 Bft) 100 %
12.10.2017 07:04 13,7 C 88 % 1013,0 hPa 0,0 l/m 5,9 km/h (2 Bft) W-SW 239 11,7 C 15,7 km/h (3 Bft) 100 %
12.10.2017 07:05 13,7 C 89 % 1013,0 hPa 0,0 l/m 7,8 km/h (2 Bft) W-NW 295 11,9 C 12,6 km/h (3 Bft) 100 %
12.10.2017 07:06 13,7 C 89 % 1013,1 hPa 0,0 l/m 9,3 km/h (2 Bft) W-NW 294 11,9 C 15,7 km/h (3 Bft) 100 %
12.10.2017 07:07 13,6 C 89 % 1013,2 hPa 0,0 l/m 5,0 km/h (1 Bft) W-SW 243 11,8 C 12,6 km/h (3 Bft) 100 %
12.10.2017 07:08 13,6 C 89 % 1013,1 hPa 0,0 l/m 5,2 km/h (1 Bft) S 179 11,8 C 12,6 km/h (3 Bft) 96 %
12.10.2017 07:09 13,7 C 89 % 1013,2 hPa 0,0 l/m 3,3 km/h (1 Bft) W 263 11,9 C 12,6 km/h (3 Bft) 100 %
12.10.2017 07:10 13,7 C 88 % 1013,2 hPa 0,0 l/m 3,0 km/h (1 Bft) NW 318 11,7 C 6,3 km/h (2 Bft) 100 %
12.10.2017 07:11 13,7 C 88 % 1013,2 hPa 0,0 l/m 8,0 km/h (2 Bft) N-NW 338 11,7 C 12,6 km/h (3 Bft) 96 %
12.10.2017 07:12 13,7 C 88 % 1013,2 hPa 0,0 l/m 13,9 km/h (3 Bft) W-NW 295 11,7 C 18,8 km/h (3 Bft) 100 %
12.10.2017 07:13 13,7 C 87 % 1013,2 hPa 0,0 l/m 16,3 km/h (3 Bft) NW 307 11,6 C 28,2 km/h (4 Bft) 96 %
12.10.2017 07:14 13,8 C 87 % 1013,2 hPa 0,0 l/m 11,4 km/h (2 Bft) W 262 11,7 C 18,8 km/h (3 Bft) 100 %
12.10.2017 07:15 13,9 C 87 % 1013,2 hPa 0,0 l/m 2,5 km/h (1 Bft) W-NW 302 11,8 C 9,4 km/h (2 Bft) 96 %
12.10.2017 07:16 14,0 C 87 % 1013,3 hPa 0,0 l/m 8,7 km/h (2 Bft) SW 236 11,9 C 12,6 km/h (3 Bft) 100 %
12.10.2017 07:17 14,0 C 86 % 1013,3 hPa 0,0 l/m 13,5 km/h (3 Bft) W 271 11,7 C 25,1 km/h (4 Bft) 96 %
12.10.2017 07:18 14,1 C 86 % 1013,2 hPa 0,0 l/m 9,8 km/h (2 Bft) W-SW 254 11,8 C 18,8 km/h (3 Bft) 96 %
12.10.2017 07:19 14,1 C 86 % 1013,2 hPa 0,0 l/m 15,4 km/h (3 Bft) W 277 11,8 C 31,4 km/h (5 Bft) 100 %
12.10.2017 07:20 14,2 C 86 % 1013,2 hPa 0,0 l/m 10,8 km/h (2 Bft) W-NW 284 11,9 C 12,6 km/h (3 Bft) 96 %
12.10.2017 07:21 14,2 C 85 % 1013,2 hPa 0,0 l/m 15,1 km/h (3 Bft) W-NW 293 11,7 C 25,1 km/h (4 Bft) 100 %
12.10.2017 07:22 14,2 C 85 % 1013,3 hPa 0,0 l/m 11,4 km/h (2 Bft) W-NW 300 11,7 C 25,1 km/h (4 Bft) 100 %
12.10.2017 07:23 14,2 C 85 % 1013,3 hPa 0,0 l/m 14,3 km/h (3 Bft) S-SW 212 11,7 C 34,5 km/h (5 Bft) 100 %
12.10.2017 07:24 14,3 C 85 % 1013,3 hPa 0,0 l/m 5,1 km/h (1 Bft) W-NW 303 11,8 C 12,6 km/h (3 Bft) 100 %
12.10.2017 07:25 14,3 C 85 % 1013,3 hPa 0,0 l/m 7,8 km/h (2 Bft) W-NW 293 11,8 C 15,7 km/h (3 Bft) 100 %
12.10.2017 07:26 14,3 C 85 % 1013,3 hPa 0,0 l/m 10,2 km/h (2 Bft) NW 316 11,8 C 12,6 km/h (3 Bft) 100 %
12.10.2017 07:27 14,3 C 85 % 1013,4 hPa 0,0 l/m 9,9 km/h (2 Bft) W 265 11,8 C 18,8 km/h (3 Bft) 100 %
12.10.2017 07:28 14,3 C 84 % 1013,3 hPa 0,0 l/m 10,4 km/h (2 Bft) SW 236 11,6 C 15,7 km/h (3 Bft) 100 %
12.10.2017 07:29 14,3 C 85 % 1013,4 hPa 0,0 l/m 6,4 km/h (2 Bft) NW 307 11,8 C 18,8 km/h (3 Bft) 100 %
12.10.2017 07:30 14,3 C 84 % 1013,3 hPa 0,0 l/m 12,8 km/h (3 Bft) SW 217 11,6 C 22,0 km/h (4 Bft) 100 %
12.10.2017 07:31 14,3 C 84 % 1013,3 hPa 0,0 l/m 9,0 km/h (2 Bft) NW 325 11,6 C 31,4 km/h (5 Bft) 100 %
12.10.2017 07:32 14,3 C 84 % 1013,3 hPa 0,0 l/m 10,7 km/h (2 Bft) NW 305 11,6 C 18,8 km/h (3 Bft) 100 %
12.10.2017 07:33 14,3 C 84 % 1013,3 hPa 0,0 l/m 7,6 km/h (2 Bft) W-SW 251 11,6 C 18,8 km/h (3 Bft) 100 %
12.10.2017 07:34 14,3 C 84 % 1013,4 hPa 0,0 l/m 5,1 km/h (1 Bft) SW 215 11,6 C 9,4 km/h (2 Bft) 100 %
12.10.2017 07:35 14,3 C 84 % 1013,4 hPa 0,0 l/m 3,9 km/h (1 Bft) NW 313 11,6 C 6,3 km/h (2 Bft) 100 %
12.10.2017 07:36 14,3 C 84 % 1013,5 hPa 0,0 l/m 8,5 km/h (2 Bft) W 269 11,6 C 18,8 km/h (3 Bft) 100 %
12.10.2017 07:37 14,2 C 84 % 1013,4 hPa 0,0 l/m 9,6 km/h (2 Bft) SW 224 11,5 C 18,8 km/h (3 Bft) 100 %
12.10.2017 07:38 14,2 C 84 % 1013,5 hPa 0,0 l/m 7,1 km/h (2 Bft) S-SW 207 11,5 C 12,6 km/h (3 Bft) 100 %
12.10.2017 07:39 14,2 C 84 % 1013,5 hPa 0,0 l/m 9,1 km/h (2 Bft) W-NW 288 11,5 C 15,7 km/h (3 Bft) 100 %
12.10.2017 07:40 14,2 C 84 % 1013,5 hPa 0,0 l/m 9,0 km/h (2 Bft) SW 234 11,5 C 18,8 km/h (3 Bft) 100 %
12.10.2017 07:41 14,2 C 84 % 1013,5 hPa 0,0 l/m 8,9 km/h (2 Bft) W-NW 294 11,5 C 18,8 km/h (3 Bft) 100 %
12.10.2017 07:42 14,2 C 84 % 1013,5 hPa 0,0 l/m 17,5 km/h (3 Bft) NW 307 11,5 C 37,7 km/h (5 Bft) 100 %
12.10.2017 07:43 14,2 C 84 % 1013,5 hPa 0,0 l/m 20,3 km/h (4 Bft) W-SW 246 11,5 C 34,5 km/h (5 Bft) 100 %
12.10.2017 07:44 14,2 C 84 % 1013,5 hPa 0,0 l/m 13,8 km/h (3 Bft) NW 305 11,5 C 25,1 km/h (4 Bft) 100 %
12.10.2017 07:45 14,3 C 84 % 1013,5 hPa 0,0 l/m 19,7 km/h (3 Bft) NW 304 11,6 C 28,2 km/h (4 Bft) 100 %
12.10.2017 07:46 14,3 C 84 % 1013,6 hPa 0,0 l/m 8,5 km/h (2 Bft) NW 309 11,6 C 22,0 km/h (4 Bft) 100 %
12.10.2017 07:47 14,2 C 84 % 1013,6 hPa 0,0 l/m 9,6 km/h (2 Bft) SW 227 11,5 C 15,7 km/h (3 Bft) 100 %
12.10.2017 07:48 14,2 C 84 % 1013,6 hPa 0,0 l/m 7,0 km/h (2 Bft) S-SW 212 11,5 C 22,0 km/h (4 Bft) 100 %
12.10.2017 07:49 14,2 C 84 % 1013,5 hPa 0,0 l/m 3,3 km/h (1 Bft) W-NW 289 11,5 C 9,4 km/h (2 Bft) 100 %
12.10.2017 07:50 14,2 C 84 % 1013,5 hPa 0,0 l/m 4,4 km/h (1 Bft) W 277 11,5 C 9,4 km/h (2 Bft) 100 %
12.10.2017 07:51 14,1 C 84 % 1013,7 hPa 0,0 l/m 9,0 km/h (2 Bft) W 274 11,4 C 15,7 km/h (3 Bft) 100 %
12.10.2017 07:52 14,1 C 84 % 1013,7 hPa 0,0 l/m 8,9 km/h (2 Bft) W 261 11,4 C 15,7 km/h (3 Bft) 100 %
12.10.2017 07:53 14,1 C 84 % 1013,7 hPa 0,0 l/m 8,8 km/h (2 Bft) W 278 11,4 C 15,7 km/h (3 Bft) 100 %
12.10.2017 07:54 14,1 C 84 % 1013,8 hPa 0,0 l/m 16,8 km/h (3 Bft) W-SW 250 11,4 C 25,1 km/h (4 Bft) 100 %
12.10.2017 07:55 14,1 C 84 % 1013,9 hPa 0,0 l/m 10,3 km/h (2 Bft) W-NW 302 11,4 C 25,1 km/h (4 Bft) 100 %
12.10.2017 07:56 14,1 C 84 % 1013,8 hPa 0,0 l/m 7,3 km/h (2 Bft) W-SW 243 11,4 C 12,6 km/h (3 Bft) 100 %
12.10.2017 07:57 14,1 C 84 % 1013,9 hPa 0,0 l/m 11,3 km/h (2 Bft) W-NW 284 11,4 C 25,1 km/h (4 Bft) 100 %
12.10.2017 07:58 14,1 C 84 % 1014,0 hPa 0,0 l/m 8,6 km/h (2 Bft) W-NW 300 11,4 C 12,6 km/h (3 Bft) 100 %
12.10.2017 07:59 14,1 C 84 % 1014,0 hPa 0,0 l/m 7,9 km/h (2 Bft) N-NW 344 11,4 C 12,6 km/h (3 Bft) 100 %
12.10.2017 08:00 14,1 C 84 % 1014,0 hPa 0,0 l/m 8,0 km/h (2 Bft) W 268 11,4 C 12,6 km/h (3 Bft) 100 %
12.10.2017 08:01 14,1 C 84 % 1014,0 hPa 0,0 l/m 11,2 km/h (2 Bft) S-SW 195 11,4 C 25,1 km/h (4 Bft) 100 %
12.10.2017 08:02 14,1 C 84 % 1014,0 hPa 0,0 l/m 7,3 km/h (2 Bft) W-SW 250 11,4 C 12,6 km/h (3 Bft) 100 %
12.10.2017 08:03 14,1 C 84 % 1014,1 hPa 0,0 l/m 8,9 km/h (2 Bft) W-SW 258 11,4 C 15,7 km/h (3 Bft) 100 %
12.10.2017 08:04 14,1 C 84 % 1014,1 hPa 0,0 l/m 6,6 km/h (2 Bft) W-NW 293 11,4 C 12,6 km/h (3 Bft) 100 %
12.10.2017 08:05 14,1 C 84 % 1014,1 hPa 0,0 l/m 3,0 km/h (1 Bft) NW 316 11,4 C 6,3 km/h (2 Bft) 100 %
12.10.2017 08:06 14,1 C 85 % 1014,1 hPa 0,0 l/m 6,9 km/h (2 Bft) O 90 11,6 C 12,6 km/h (3 Bft) 100 %
12.10.2017 08:07 14,0 C 85 % 1014,1 hPa 0,0 l/m 4,9 km/h (1 Bft) W-NW 290 11,5 C 15,7 km/h (3 Bft) 100 %
12.10.2017 08:08 14,1 C 85 % 1014,1 hPa 0,0 l/m 5,1 km/h (1 Bft) O 87 11,6 C 9,4 km/h (2 Bft) 100 %
12.10.2017 08:09 14,0 C 85 % 1014,1 hPa 0,0 l/m 6,3 km/h (2 Bft) W-NW 293 11,5 C 15,7 km/h (3 Bft) 100 %
12.10.2017 08:10 14,0 C 85 % 1014,2 hPa 0,0 l/m 7,3 km/h (2 Bft) W-NW 303 11,5 C 12,6 km/h (3 Bft) 100 %
12.10.2017 08:11 14,0 C 85 % 1014,2 hPa 0,0 l/m 5,9 km/h (2 Bft) S-SW 199 11,5 C 12,6 km/h (3 Bft) 96 %
12.10.2017 08:12 14,0 C 85 % 1014,2 hPa 0,0 l/m 7,3 km/h (2 Bft) NW 322 11,5 C 12,6 km/h (3 Bft) 100 %
12.10.2017 08:13 14,0 C 85 % 1014,1 hPa 0,0 l/m 6,6 km/h (2 Bft) W-NW 295 11,5 C 12,6 km/h (3 Bft) 100 %
12.10.2017 08:14 14,0 C 85 % 1014,3 hPa 0,0 l/m 7,5 km/h (2 Bft) W 266 11,5 C 15,7 km/h (3 Bft) 100 %
12.10.2017 08:15 14,0 C 84 % 1014,3 hPa 0,0 l/m 8,9 km/h (2 Bft) NW 315 11,3 C 12,6 km/h (3 Bft) 96 %
12.10.2017 08:16 14,1 C 84 % 1014,3 hPa 0,0 l/m 7,5 km/h (2 Bft) W-NW 287 11,4 C 15,7 km/h (3 Bft) 100 %
12.10.2017 08:17 14,1 C 84 % 1014,3 hPa 0,0 l/m 8,2 km/h (2 Bft) W-NW 300 11,4 C 18,8 km/h (3 Bft) 100 %
12.10.2017 08:18 14,1 C 84 % 1014,3 hPa 0,0 l/m 13,4 km/h (3 Bft) W-SW 240 11,4 C 22,0 km/h (4 Bft) 96 %
12.10.2017 08:19 14,1 C 84 % 1014,3 hPa 0,0 l/m 4,4 km/h (1 Bft) W 280 11,4 C 9,4 km/h (2 Bft) 96 %
12.10.2017 08:20 14,1 C 84 % 1014,3 hPa 0,0 l/m 9,1 km/h (2 Bft) W-SW 249 11,4 C 18,8 km/h (3 Bft) 100 %
12.10.2017 08:21 14,1 C 84 % 1014,2 hPa 0,0 l/m 4,5 km/h (1 Bft) W-NW 286 11,4 C 6,3 km/h (2 Bft) 93 %
12.10.2017 08:22 14,1 C 84 % 1014,3 hPa 0,0 l/m 8,7 km/h (2 Bft) W-SW 238 11,4 C 18,8 km/h (3 Bft) 100 %
12.10.2017 08:23 14,1 C 84 % 1014,3 hPa 0,0 l/m 10,2 km/h (2 Bft) NW 319 11,4 C 18,8 km/h (3 Bft) 96 %
12.10.2017 08:24 14,1 C 84 % 1014,3 hPa 0,0 l/m 7,1 km/h (2 Bft) W 275 11,4 C 12,6 km/h (3 Bft) 100 %
12.10.2017 08:25 14,1 C 84 % 1014,2 hPa 0,0 l/m 4,1 km/h (1 Bft) W-NW 287 11,4 C 9,4 km/h (2 Bft) 96 %
12.10.2017 08:26 14,1 C 84 % 1014,2 hPa 0,0 l/m 9,0 km/h (2 Bft) W-NW 284 11,4 C 12,6 km/h (3 Bft) 96 %
12.10.2017 08:27 14,1 C 85 % 1014,3 hPa 0,0 l/m 3,9 km/h (1 Bft) NW 314 11,6 C 6,3 km/h (2 Bft) 100 %
12.10.2017 08:28 14,1 C 84 % 1014,3 hPa 0,0 l/m 2,6 km/h (1 Bft) W-NW 285 11,4 C 6,3 km/h (2 Bft) 100 %
12.10.2017 08:29 14,1 C 85 % 1014,3 hPa 0,0 l/m 8,3 km/h (2 Bft) SW 233 11,6 C 18,8 km/h (3 Bft) 100 %
12.10.2017 08:30 14,1 C 84 % 1014,4 hPa 0,0 l/m 4,3 km/h (1 Bft) W-NW 301 11,4 C 9,4 km/h (2 Bft) 100 %
12.10.2017 08:31 14,1 C 84 % 1014,4 hPa 0,0 l/m 5,8 km/h (2 Bft) W 273 11,4 C 12,6 km/h (3 Bft) 100 %
12.10.2017 08:32 14,1 C 84 % 1014,4 hPa 0,0 l/m 4,7 km/h (1 Bft) W 276 11,4 C 15,7 km/h (3 Bft) 100 %
12.10.2017 08:33 14,1 C 84 % 1014,4 hPa 0,0 l/m 8,3 km/h (2 Bft) N 352 11,4 C 28,2 km/h (4 Bft) 100 %
12.10.2017 08:34 14,1 C 84 % 1014,4 hPa 0,0 l/m 17,6 km/h (3 Bft) W-NW 293 11,4 C 31,4 km/h (5 Bft) 100 %
12.10.2017 08:35 14,1 C 83 % 1014,5 hPa 0,0 l/m 19,9 km/h (4 Bft) NW 304 11,3 C 40,8 km/h (6 Bft) 100 %
12.10.2017 08:36 14,1 C 83 % 1014,6 hPa 0,0 l/m 13,9 km/h (3 Bft) W-NW 303 11,3 C 28,2 km/h (4 Bft) 100 %
12.10.2017 08:37 14,1 C 83 % 1014,6 hPa 0,0 l/m 16,9 km/h (3 Bft) W 273 11,3 C 28,2 km/h (4 Bft) 100 %
12.10.2017 08:38 14,2 C 82 % 1014,6 hPa 0,0 l/m 21,8 km/h (4 Bft) SO 136 11,2 C 34,5 km/h (5 Bft) 100 %
12.10.2017 08:39 14,2 C 82 % 1014,6 hPa 0,0 l/m 17,3 km/h (3 Bft) W-SW 252 11,2 C 37,7 km/h (5 Bft) 100 %
12.10.2017 08:40 14,2 C 82 % 1014,7 hPa 0,0 l/m 14,7 km/h (3 Bft) W-SW 257 11,2 C 28,2 km/h (4 Bft) 100 %
12.10.2017 08:41 14,2 C 82 % 1014,8 hPa 0,0 l/m 8,2 km/h (2 Bft) W-NW 288 11,2 C 12,6 km/h (3 Bft) 100 %
12.10.2017 08:42 14,2 C 82 % 1014,9 hPa 0,0 l/m 9,0 km/h (2 Bft) W-NW 300 11,2 C 22,0 km/h (4 Bft) 100 %
12.10.2017 08:43 14,3 C 82 % 1014,9 hPa 0,0 l/m 12,0 km/h (2 Bft) W-NW 300 11,3 C 18,8 km/h (3 Bft) 100 %
12.10.2017 08:44 14,2 C 83 % 1014,9 hPa 0,0 l/m 9,3 km/h (2 Bft) W 271 11,4 C 12,6 km/h (3 Bft) 100 %
12.10.2017 08:45 14,2 C 83 % 1015,0 hPa 0,0 l/m 10,8 km/h (2 Bft) W-SW 245 11,4 C 18,8 km/h (3 Bft) 100 %
12.10.2017 08:46 14,2 C 83 % 1015,0 hPa 0,0 l/m 16,0 km/h (3 Bft) W-NW 289 11,4 C 25,1 km/h (4 Bft) 100 %
12.10.2017 08:47 14,2 C 83 % 1015,0 hPa 0,0 l/m 10,9 km/h (2 Bft) SW 230 11,4 C 18,8 km/h (3 Bft) 100 %
12.10.2017 08:48 14,2 C 83 % 1015,0 hPa 0,0 l/m 22,0 km/h (4 Bft) W-SW 250 11,4 C 34,5 km/h (5 Bft) 100 %
12.10.2017 08:49 14,1 C 83 % 1015,0 hPa 0,0 l/m 14,5 km/h (3 Bft) W-SW 248 11,3 C 28,2 km/h (4 Bft) 100 %
12.10.2017 08:50 14,1 C 83 % 1015,0 hPa 0,0 l/m 17,3 km/h (3 Bft) SW 232 11,3 C 31,4 km/h (5 Bft) 100 %
12.10.2017 08:51 14,1 C 83 % 1015,2 hPa 0,0 l/m 12,4 km/h (3 Bft) W 265 11,3 C 22,0 km/h (4 Bft) 100 %
12.10.2017 08:52 14,0 C 83 % 1015,2 hPa 0,0 l/m 13,1 km/h (3 Bft) W-NW 290 11,2 C 22,0 km/h (4 Bft) 100 %
12.10.2017 08:53 14,0 C 83 % 1015,2 hPa 0,0 l/m 18,0 km/h (3 Bft) W-NW 288 11,2 C 34,5 km/h (5 Bft) 100 %
12.10.2017 08:54 13,9 C 83 % 1015,2 hPa 0,0 l/m 8,7 km/h (2 Bft) W-NW 290 11,1 C 15,7 km/h (3 Bft) 100 %
12.10.2017 08:55 13,9 C 83 % 1015,2 hPa 0,0 l/m 4,7 km/h (1 Bft) NW 308 11,1 C 9,4 km/h (2 Bft) 100 %
12.10.2017 08:56 13,9 C 83 % 1015,2 hPa 0,0 l/m 11,4 km/h (2 Bft) W 276 11,1 C 18,8 km/h (3 Bft) 100 %
12.10.2017 08:57 13,9 C 83 % 1015,2 hPa 0,0 l/m 14,0 km/h (3 Bft) W 266 11,1 C 25,1 km/h (4 Bft) 100 %
12.10.2017 08:58 13,9 C 82 % 1015,2 hPa 0,0 l/m 19,1 km/h (3 Bft) NW 320 10,9 C 37,7 km/h (5 Bft) 100 %
12.10.2017 08:59 13,8 C 82 % 1015,2 hPa 0,0 l/m 8,6 km/h (2 Bft) W-SW 240 10,8 C 18,8 km/h (3 Bft) 100 %
12.10.2017 09:00 13,9 C 83 % 1015,3 hPa 0,0 l/m 13,0 km/h (3 Bft) SW 219 11,1 C 22,0 km/h (4 Bft) 100 %
12.10.2017 09:01 13,8 C 83 % 1015,3 hPa 0,0 l/m 6,8 km/h (2 Bft) W 262 11,0 C 12,6 km/h (3 Bft) 100 %
12.10.2017 09:02 13,8 C 83 % 1015,3 hPa 0,0 l/m 5,0 km/h (1 Bft) W-NW 289 11,0 C 12,6 km/h (3 Bft) 100 %
12.10.2017 09:03 13,8 C 83 % 1015,3 hPa 0,0 l/m 8,3 km/h (2 Bft) SW 227 11,0 C 15,7 km/h (3 Bft) 100 %
12.10.2017 09:04 13,8 C 83 % 1015,3 hPa 0,0 l/m 8,0 km/h (2 Bft) NW 310 11,0 C 15,7 km/h (3 Bft) 100 %
12.10.2017 09:05 13,8 C 83 % 1015,4 hPa 0,0 l/m 7,5 km/h (2 Bft) W 273 11,0 C 12,6 km/h (3 Bft) 100 %
12.10.2017 09:06 13,8 C 83 % 1015,4 hPa 0,0 l/m 13,8 km/h (3 Bft) W-SW 247 11,0 C 22,0 km/h (4 Bft) 100 %
12.10.2017 09:07 13,8 C 83 % 1015,4 hPa 0,0 l/m 6,9 km/h (2 Bft) NW 311 11,0 C 12,6 km/h (3 Bft) 100 %
12.10.2017 09:08 13,8 C 83 % 1015,4 hPa 0,0 l/m 7,8 km/h (2 Bft) W-SW 248 11,0 C 12,6 km/h (3 Bft) 100 %
12.10.2017 09:09 13,8 C 83 % 1015,5 hPa 0,0 l/m 5,8 km/h (2 Bft) W 266 11,0 C 9,4 km/h (2 Bft) 100 %
12.10.2017 09:10 13,8 C 84 % 1015,5 hPa 0,0 l/m 2,6 km/h (1 Bft) W-NW 295 11,1 C 9,4 km/h (2 Bft) 100 %
12.10.2017 09:11 13,8 C 84 % 1015,5 hPa 0,0 l/m 3,0 km/h (1 Bft) W 262 11,1 C 9,4 km/h (2 Bft) 100 %
12.10.2017 09:12 13,8 C 84 % 1015,6 hPa 0,0 l/m 5,4 km/h (1 Bft) W-SW 241 11,1 C 12,6 km/h (3 Bft) 100 %
12.10.2017 09:13 13,8 C 83 % 1015,6 hPa 0,0 l/m 9,8 km/h (2 Bft) NW 310 11,0 C 15,7 km/h (3 Bft) 100 %
12.10.2017 09:14 13,8 C 83 % 1015,6 hPa 0,0 l/m 6,7 km/h (2 Bft) NW 305 11,0 C 12,6 km/h (3 Bft) 100 %
12.10.2017 09:15 13,8 C 83 % 1015,6 hPa 0,0 l/m 6,4 km/h (2 Bft) NW 311 11,0 C 12,6 km/h (3 Bft) 100 %
12.10.2017 09:16 13,8 C 83 % 1015,6 hPa 0,0 l/m 6,3 km/h (2 Bft) W 276 11,0 C 15,7 km/h (3 Bft) 93 %
12.10.2017 09:17 13,8 C 84 % 1015,7 hPa 0,0 l/m 5,4 km/h (1 Bft) W 279 11,1 C 12,6 km/h (3 Bft) 100 %
12.10.2017 09:18 13,8 C 84 % 1015,7 hPa 0,0 l/m 2,7 km/h (1 Bft) W-NW 302 11,1 C 9,4 km/h (2 Bft) 100 %
12.10.2017 09:19 13,8 C 84 % 1015,7 hPa 0,0 l/m 4,6 km/h (1 Bft) SW 224 11,1 C 6,3 km/h (2 Bft) 100 %
12.10.2017 09:20 13,8 C 84 % 1015,8 hPa 0,0 l/m 8,9 km/h (2 Bft) SW 227 11,1 C 15,7 km/h (3 Bft) 100 %
12.10.2017 09:21 13,8 C 83 % 1015,8 hPa 0,0 l/m 13,1 km/h (3 Bft) W-NW 293 11,0 C 22,0 km/h (4 Bft) 100 %
12.10.2017 09:22 13,7 C 83 % 1015,8 hPa 0,0 l/m 14,9 km/h (3 Bft) W-NW 303 10,9 C 25,1 km/h (4 Bft) 100 %
12.10.2017 09:23 13,7 C 83 % 1015,8 hPa 0,0 l/m 13,3 km/h (3 Bft) W-NW 299 10,9 C 22,0 km/h (4 Bft) 96 %
12.10.2017 09:24 13,7 C 83 % 1015,9 hPa 0,0 l/m 12,6 km/h (3 Bft) W-SW 240 10,9 C 15,7 km/h (3 Bft) 96 %
12.10.2017 09:25 13,7 C 83 % 1016,0 hPa 0,0 l/m 8,4 km/h (2 Bft) W-NW 299 10,9 C 12,6 km/h (3 Bft) 100 %
12.10.2017 09:26 13,6 C 82 % 1016,0 hPa 0,0 l/m 16,0 km/h (3 Bft) W 262 10,6 C 31,4 km/h (5 Bft) 92 %
12.10.2017 09:27 13,6 C 82 % 1016,1 hPa 0,0 l/m 13,9 km/h (3 Bft) NW 318 10,6 C 18,8 km/h (3 Bft) 100 %
12.10.2017 09:28 13,6 C 82 % 1016,0 hPa 0,0 l/m 6,1 km/h (2 Bft) N-NW 329 10,6 C 12,6 km/h (3 Bft) 96 %
12.10.2017 09:29 13,6 C 82 % 1016,0 hPa 0,0 l/m 12,7 km/h (3 Bft) W 270 10,6 C 22,0 km/h (4 Bft) 100 %
12.10.2017 09:30 13,6 C 82 % 1016,1 hPa 0,0 l/m 6,7 km/h (2 Bft) NW 307 10,6 C 9,4 km/h (2 Bft) 96 %
12.10.2017 09:31 13,6 C 82 % 1016,1 hPa 0,0 l/m 9,6 km/h (2 Bft) W-SW 255 10,6 C 18,8 km/h (3 Bft) 96 %
12.10.2017 09:32 13,5 C 82 % 1016,2 hPa 0,0 l/m 14,1 km/h (3 Bft) NW 309 10,5 C 22,0 km/h (4 Bft) 100 %
12.10.2017 09:33 13,5 C 82 % 1016,2 hPa 0,0 l/m 12,4 km/h (3 Bft) W-SW 241 10,5 C 18,8 km/h (3 Bft) 100 %
12.10.2017 09:34 13,4 C 82 % 1016,2 hPa 0,0 l/m 8,2 km/h (2 Bft) W 263 10,4 C 18,8 km/h (3 Bft) 100 %
12.10.2017 09:35 13,4 C 82 % 1016,2 hPa 0,0 l/m 12,6 km/h (3 Bft) NW 322 10,4 C 22,0 km/h (4 Bft) 100 %
12.10.2017 09:36 13,4 C 81 % 1016,2 hPa 0,0 l/m 7,7 km/h (2 Bft) N 6 10,2 C 18,8 km/h (3 Bft) 100 %
12.10.2017 09:37 13,4 C 81 % 1016,2 hPa 0,0 l/m 11,5 km/h (2 Bft) W-SW 256 10,2 C 18,8 km/h (3 Bft) 100 %
12.10.2017 09:38 13,4 C 81 % 1016,2 hPa 0,0 l/m 5,0 km/h (1 Bft) W 278 10,2 C 12,6 km/h (3 Bft) 100 %
12.10.2017 09:39 13,4 C 81 % 1016,2 hPa 0,0 l/m 9,2 km/h (2 Bft) W 278 10,2 C 25,1 km/h (4 Bft) 100 %
12.10.2017 09:40 13,4 C 81 % 1016,3 hPa 0,0 l/m 10,6 km/h (2 Bft) W 280 10,2 C 18,8 km/h (3 Bft) 100 %
12.10.2017 09:47 13,2 C 81 % 1016,5 hPa 0,0 l/m 18,2 km/h (3 Bft) W 264 10,0 C 31,4 km/h (5 Bft) 100 %
12.10.2017 09:48 13,2 C 80 % 1016,5 hPa 0,0 l/m 14,7 km/h (3 Bft) SW 230 9,8 C 25,1 km/h (4 Bft) 100 %
12.10.2017 09:49 13,2 C 80 % 1016,5 hPa 0,0 l/m 10,7 km/h (2 Bft) W-NW 290 9,8 C 15,7 km/h (3 Bft) 100 %
12.10.2017 09:50 13,2 C 80 % 1016,6 hPa 0,0 l/m 13,2 km/h (3 Bft) W-NW 292 9,8 C 22,0 km/h (4 Bft) 100 %
12.10.2017 09:51 13,1 C 80 % 1016,6 hPa 0,0 l/m 13,7 km/h (3 Bft) W 276 9,7 C 28,2 km/h (4 Bft) 100 %
12.10.2017 09:52 13,1 C 80 % 1016,6 hPa 0,0 l/m 12,8 km/h (3 Bft) NO 39 9,7 C 22,0 km/h (4 Bft) 100 %
12.10.2017 09:53 13,1 C 80 % 1016,6 hPa 0,0 l/m 12,7 km/h (3 Bft) W 276 9,7 C 25,1 km/h (4 Bft) 100 %
12.10.2017 09:54 13,1 C 80 % 1016,6 hPa 0,0 l/m 18,7 km/h (3 Bft) W-SW 258 9,7 C 34,5 km/h (5 Bft) 100 %
12.10.2017 09:55 13,1 C 80 % 1016,7 hPa 0,0 l/m 14,7 km/h (3 Bft) W 262 9,7 C 31,4 km/h (5 Bft) 100 %
12.10.2017 09:56 13,1 C 80 % 1016,7 hPa 0,0 l/m 12,9 km/h (3 Bft) W-SW 255 9,7 C 22,0 km/h (4 Bft) 100 %
12.10.2017 09:57 13,1 C 80 % 1016,7 hPa 0,0 l/m 12,0 km/h (2 Bft) W-NW 302 9,7 C 25,1 km/h (4 Bft) 100 %
12.10.2017 09:58 13,1 C 80 % 1016,7 hPa 0,0 l/m 15,2 km/h (3 Bft) W-SW 257 9,7 C 31,4 km/h (5 Bft) 100 %
12.10.2017 09:59 13,1 C 80 % 1016,7 hPa 0,0 l/m 12,0 km/h (2 Bft) W 266 9,7 C 28,2 km/h (4 Bft) 100 %
12.10.2017 10:00 13,1 C 80 % 1016,7 hPa 0,0 l/m 13,4 km/h (3 Bft) W-NW 289 9,7 C 22,0 km/h (4 Bft) 100 %
12.10.2017 10:02 13,1 C 79 % 1016,8 hPa 0,0 l/m 19,4 km/h (3 Bft) W-SW 256 9,5 C 37,7 km/h (5 Bft) 100 %
12.10.2017 10:03 13,1 C 79 % 1016,8 hPa 0,0 l/m 17,6 km/h (3 Bft) W-NW 297 9,5 C 31,4 km/h (5 Bft) 100 %
12.10.2017 10:04 13,0 C 79 % 1016,9 hPa 0,0 l/m 13,6 km/h (3 Bft) W-NW 285 9,4 C 28,2 km/h (4 Bft) 100 %
12.10.2017 10:05 13,0 C 79 % 1016,9 hPa 0,0 l/m 10,3 km/h (2 Bft) W-SW 239 9,4 C 15,7 km/h (3 Bft) 100 %
12.10.2017 10:06 13,0 C 80 % 1016,9 hPa 0,0 l/m 16,9 km/h (3 Bft) W-SW 257 9,6 C 25,1 km/h (4 Bft) 100 %
12.10.2017 10:07 12,9 C 80 % 1016,8 hPa 0,0 l/m 13,7 km/h (3 Bft) W-SW 243 9,5 C 25,1 km/h (4 Bft) 100 %
12.10.2017 10:08 12,9 C 80 % 1016,9 hPa 0,0 l/m 13,5 km/h (3 Bft) NW 307 9,5 C 25,1 km/h (4 Bft) 100 %
12.10.2017 10:09 12,9 C 80 % 1016,9 hPa 0,0 l/m 16,5 km/h (3 Bft) NW 318 9,5 C 31,4 km/h (5 Bft) 100 %
12.10.2017 10:10 12,9 C 80 % 1016,9 hPa 0,0 l/m 14,0 km/h (3 Bft) NW 304 9,5 C 28,2 km/h (4 Bft) 100 %
12.10.2017 10:11 13,0 C 80 % 1016,9 hPa 0,0 l/m 11,6 km/h (2 Bft) S 186 9,6 C 18,8 km/h (3 Bft) 100 %
12.10.2017 10:12 13,0 C 79 % 1017,0 hPa 0,0 l/m 20,0 km/h (4 Bft) W 260 9,4 C 50,2 km/h (7 Bft) 100 %
12.10.2017 10:13 13,1 C 79 % 1017,0 hPa 0,0 l/m 11,6 km/h (2 Bft) NW 318 9,5 C 22,0 km/h (4 Bft) 100 %
12.10.2017 10:14 13,1 C 79 % 1016,9 hPa 0,0 l/m 17,3 km/h (3 Bft) W-NW 301 9,5 C 31,4 km/h (5 Bft) 100 %
12.10.2017 10:15 13,2 C 79 % 1016,9 hPa 0,0 l/m 14,8 km/h (3 Bft) NW 325 9,6 C 22,0 km/h (4 Bft) 100 %
12.10.2017 10:16 13,2 C 80 % 1017,0 hPa 0,0 l/m 16,5 km/h (3 Bft) W-NW 301 9,8 C 25,1 km/h (4 Bft) 100 %
12.10.2017 10:17 13,3 C 79 % 1017,0 hPa 0,0 l/m 13,9 km/h (3 Bft) W-NW 290 9,7 C 18,8 km/h (3 Bft) 100 %
12.10.2017 10:18 13,3 C 80 % 1017,0 hPa 0,0 l/m 3,7 km/h (1 Bft) N-NW 342 9,9 C 9,4 km/h (2 Bft) 100 %
12.10.2017 10:19 13,3 C 80 % 1017,0 hPa 0,0 l/m 7,2 km/h (2 Bft) W 271 9,9 C 15,7 km/h (3 Bft) 100 %
12.10.2017 10:20 13,3 C 80 % 1017,0 hPa 0,0 l/m 11,2 km/h (2 Bft) N-NW 329 9,9 C 18,8 km/h (3 Bft) 100 %
12.10.2017 10:21 13,3 C 78 % 1017,1 hPa 0,0 l/m 12,4 km/h (3 Bft) W 271 9,5 C 31,4 km/h (5 Bft) 100 %
12.10.2017 10:22 13,3 C 79 % 1017,1 hPa 0,0 l/m 10,6 km/h (2 Bft) W-NW 301 9,7 C 15,7 km/h (3 Bft) 100 %
12.10.2017 10:23 13,4 C 79 % 1017,1 hPa 0,0 l/m 6,0 km/h (2 Bft) W-SW 255 9,8 C 15,7 km/h (3 Bft) 100 %
12.10.2017 10:24 13,4 C 79 % 1017,1 hPa 0,0 l/m 7,7 km/h (2 Bft) W-NW 287 9,8 C 12,6 km/h (3 Bft) 100 %
12.10.2017 10:25 13,4 C 79 % 1017,0 hPa 0,0 l/m 13,3 km/h (3 Bft) W-NW 293 9,8 C 25,1 km/h (4 Bft) 100 %
12.10.2017 10:26 13,4 C 77 % 1017,1 hPa 0,0 l/m 18,7 km/h (3 Bft) N-NW 331 9,5 C 34,5 km/h (5 Bft) 96 %
12.10.2017 10:27 13,4 C 78 % 1017,1 hPa 0,0 l/m 15,4 km/h (3 Bft) W-NW 285 9,6 C 25,1 km/h (4 Bft) 100 %
12.10.2017 10:28 13,4 C 78 % 1017,1 hPa 0,0 l/m 9,2 km/h (2 Bft) W-SW 251 9,6 C 12,6 km/h (3 Bft) 92 %
12.10.2017 10:29 13,4 C 79 % 1017,1 hPa 0,0 l/m 14,5 km/h (3 Bft) SW 223 9,8 C 22,0 km/h (4 Bft) 97 %
12.10.2017 10:30 13,5 C 78 % 1017,0 hPa 0,0 l/m 10,5 km/h (2 Bft) SW 219 9,7 C 18,8 km/h (3 Bft) 100 %
12.10.2017 10:31 13,5 C 78 % 1017,0 hPa 0,0 l/m 11,7 km/h (2 Bft) W 265 9,7 C 28,2 km/h (4 Bft) 100 %
12.10.2017 10:32 13,5 C 77 % 1017,1 hPa 0,0 l/m 22,6 km/h (4 Bft) NW 317 9,5 C 47,1 km/h (6 Bft) 96 %
12.10.2017 10:33 13,5 C 77 % 1017,0 hPa 0,0 l/m 11,2 km/h (2 Bft) N-NO 23 9,5 C 18,8 km/h (3 Bft) 96 %
12.10.2017 10:34 13,5 C 77 % 1017,1 hPa 0,0 l/m 12,2 km/h (2 Bft) W 274 9,5 C 22,0 km/h (4 Bft) 100 %
12.10.2017 10:35 13,5 C 77 % 1017,1 hPa 0,0 l/m 14,0 km/h (3 Bft) W 276 9,5 C 18,8 km/h (3 Bft) 96 %
12.10.2017 10:36 13,5 C 77 % 1017,1 hPa 0,0 l/m 10,9 km/h (2 Bft) W 265 9,5 C 18,8 km/h (3 Bft) 100 %
12.10.2017 10:37 13,6 C 77 % 1017,1 hPa 0,0 l/m 10,5 km/h (2 Bft) W-SW 246 9,6 C 15,7 km/h (3 Bft) 96 %
12.10.2017 10:38 13,6 C 77 % 1017,1 hPa 0,0 l/m 11,0 km/h (2 Bft) W 273 9,6 C 18,8 km/h (3 Bft) 100 %
12.10.2017 10:39 13,6 C 77 % 1017,2 hPa 0,0 l/m 12,2 km/h (2 Bft) S-SW 208 9,6 C 22,0 km/h (4 Bft) 100 %
12.10.2017 10:40 13,6 C 77 % 1017,3 hPa 0,0 l/m 13,3 km/h (3 Bft) W-NW 284 9,6 C 31,4 km/h (5 Bft) 100 %
12.10.2017 10:41 13,6 C 77 % 1017,2 hPa 0,0 l/m 14,0 km/h (3 Bft) W-NW 290 9,6 C 22,0 km/h (4 Bft) 100 %
12.10.2017 10:42 13,5 C 75 % 1017,2 hPa 0,0 l/m 18,4 km/h (3 Bft) W 276 9,2 C 28,2 km/h (4 Bft) 100 %
12.10.2017 10:43 13,5 C 75 % 1017,3 hPa 0,0 l/m 15,5 km/h (3 Bft) S-SW 198 9,2 C 22,0 km/h (4 Bft) 100 %
12.10.2017 10:44 13,5 C 76 % 1017,2 hPa 0,0 l/m 9,3 km/h (2 Bft) W 275 9,4 C 34,5 km/h (5 Bft) 100 %
12.10.2017 10:45 13,4 C 76 % 1017,3 hPa 0,0 l/m 18,4 km/h (3 Bft) NW 308 9,3 C 37,7 km/h (5 Bft) 100 %
12.10.2017 10:46 13,5 C 76 % 1017,2 hPa 0,0 l/m 9,4 km/h (2 Bft) S-SW 207 9,4 C 22,0 km/h (4 Bft) 100 %
12.10.2017 10:47 13,5 C 76 % 1017,3 hPa 0,0 l/m 13,5 km/h (3 Bft) W-NW 291 9,4 C 22,0 km/h (4 Bft) 100 %
12.10.2017 10:48 13,5 C 76 % 1017,2 hPa 0,0 l/m 13,2 km/h (3 Bft) NW 311 9,4 C 22,0 km/h (4 Bft) 100 %
12.10.2017 10:49 13,5 C 76 % 1017,2 hPa 0,0 l/m 12,2 km/h (2 Bft) W-NW 287 9,4 C 18,8 km/h (3 Bft) 100 %
12.10.2017 10:50 13,6 C 77 % 1017,3 hPa 0,0 l/m 8,8 km/h (2 Bft) W-NW 282 9,6 C 22,0 km/h (4 Bft) 100 %
12.10.2017 10:51 13,6 C 76 % 1017,2 hPa 0,0 l/m 15,8 km/h (3 Bft) W-SW 248 9,4 C 31,4 km/h (5 Bft) 100 %
12.10.2017 10:52 13,6 C 75 % 1017,4 hPa 0,0 l/m 21,8 km/h (4 Bft) W 276 9,3 C 28,2 km/h (4 Bft) 100 %
12.10.2017 10:54 13,6 C 76 % 1017,4 hPa 0,0 l/m 11,8 km/h (2 Bft) W-NW 294 9,4 C 28,2 km/h (4 Bft) 100 %
12.10.2017 10:55 13,6 C 75 % 1017,4 hPa 0,0 l/m 22,4 km/h (4 Bft) W-NW 296 9,3 C 37,7 km/h (5 Bft) 100 %
12.10.2017 10:56 13,6 C 75 % 1017,3 hPa 0,0 l/m 13,2 km/h (3 Bft) W-NW 284 9,3 C 22,0 km/h (4 Bft) 100 %
12.10.2017 10:57 13,6 C 75 % 1017,3 hPa 0,0 l/m 15,4 km/h (3 Bft) W-SW 255 9,3 C 31,4 km/h (5 Bft) 100 %
12.10.2017 10:58 13,6 C 76 % 1017,3 hPa 0,0 l/m 11,9 km/h (2 Bft) NW 312 9,4 C 15,7 km/h (3 Bft) 100 %
12.10.2017 10:59 13,6 C 76 % 1017,4 hPa 0,0 l/m 12,8 km/h (3 Bft) NW 312 9,4 C 22,0 km/h (4 Bft) 100 %
12.10.2017 11:00 13,7 C 76 % 1017,5 hPa 0,0 l/m 9,9 km/h (2 Bft) W 280 9,5 C 25,1 km/h (4 Bft) 100 %
12.10.2017 11:02 13,7 C 74 % 1017,4 hPa 0,0 l/m 11,1 km/h (2 Bft) W-NW 288 9,2 C 22,0 km/h (4 Bft) 100 %
12.10.2017 11:03 13,7 C 74 % 1017,4 hPa 0,0 l/m 10,7 km/h (2 Bft) W-NW 292 9,2 C 22,0 km/h (4 Bft) 100 %
12.10.2017 11:04 13,7 C 74 % 1017,4 hPa 0,0 l/m 11,8 km/h (2 Bft) W-NW 291 9,2 C 22,0 km/h (4 Bft) 100 %
12.10.2017 11:05 13,8 C 74 % 1017,5 hPa 0,0 l/m 16,0 km/h (3 Bft) W 268 9,2 C 28,2 km/h (4 Bft) 100 %
12.10.2017 11:06 13,8 C 74 % 1017,6 hPa 0,0 l/m 12,3 km/h (3 Bft) NW 314 9,2 C 25,1 km/h (4 Bft) 100 %
12.10.2017 11:07 13,8 C 74 % 1017,5 hPa 0,0 l/m 18,1 km/h (3 Bft) NW 305 9,2 C 40,8 km/h (6 Bft) 100 %
12.10.2017 11:08 13,8 C 74 % 1017,5 hPa 0,0 l/m 16,0 km/h (3 Bft) N-NW 330 9,2 C 34,5 km/h (5 Bft) 100 %
12.10.2017 11:09 13,8 C 74 % 1017,4 hPa 0,0 l/m 15,1 km/h (3 Bft) W 281 9,2 C 25,1 km/h (4 Bft) 100 %
12.10.2017 11:10 13,8 C 73 % 1017,4 hPa 0,0 l/m 16,9 km/h (3 Bft) W-SW 258 9,0 C 31,4 km/h (5 Bft) 100 %
12.10.2017 11:11 13,8 C 73 % 1017,5 hPa 0,0 l/m 14,9 km/h (3 Bft) W-NW 288 9,0 C 28,2 km/h (4 Bft) 100 %
12.10.2017 11:12 13,7 C 72 % 1017,6 hPa 0,0 l/m 18,7 km/h (3 Bft) W-SW 249 8,7 C 47,1 km/h (6 Bft) 100 %
12.10.2017 11:13 13,7 C 72 % 1017,5 hPa 0,0 l/m 22,6 km/h (4 Bft) NW 307 8,7 C 37,7 km/h (5 Bft) 100 %
12.10.2017 11:14 13,7 C 72 % 1017,6 hPa 0,0 l/m 13,9 km/h (3 Bft) W-SW 253 8,7 C 34,5 km/h (5 Bft) 100 %
12.10.2017 11:15 13,7 C 73 % 1017,5 hPa 0,0 l/m 15,1 km/h (3 Bft) W-SW 240 8,9 C 37,7 km/h (5 Bft) 100 %
12.10.2017 11:16 13,7 C 73 % 1017,5 hPa 0,0 l/m 17,6 km/h (3 Bft) W 271 8,9 C 34,5 km/h (5 Bft) 100 %
12.10.2017 11:17 13,7 C 73 % 1017,6 hPa 0,0 l/m 12,1 km/h (2 Bft) NW 305 8,9 C 28,2 km/h (4 Bft) 100 %
12.10.2017 11:18 13,7 C 72 % 1017,6 hPa 0,0 l/m 23,1 km/h (4 Bft) W-NW 300 8,7 C 37,7 km/h (5 Bft) 100 %
12.10.2017 11:19 13,7 C 72 % 1017,6 hPa 0,0 l/m 18,4 km/h (3 Bft) N-NW 334 8,7 C 25,1 km/h (4 Bft) 100 %
12.10.2017 11:20 13,6 C 73 % 1017,6 hPa 0,0 l/m 9,7 km/h (2 Bft) NW 316 8,9 C 15,7 km/h (3 Bft) 100 %
12.10.2017 11:21 13,6 C 73 % 1017,7 hPa 0,0 l/m 12,2 km/h (2 Bft) W-NW 298 8,9 C 25,1 km/h (4 Bft) 100 %
12.10.2017 11:22 13,6 C 73 % 1017,7 hPa 0,0 l/m 19,5 km/h (3 Bft) W 259 8,9 C 28,2 km/h (4 Bft) 100 %
12.10.2017 11:23 13,6 C 73 % 1017,7 hPa 0,0 l/m 13,5 km/h (3 Bft) W 261 8,9 C 18,8 km/h (3 Bft) 100 %
12.10.2017 11:24 13,6 C 73 % 1017,7 hPa 0,0 l/m 13,5 km/h (3 Bft) W-NW 291 8,9 C 25,1 km/h (4 Bft) 100 %
12.10.2017 11:25 13,6 C 73 % 1017,7 hPa 0,0 l/m 21,3 km/h (4 Bft) W-NW 297 8,9 C 40,8 km/h (6 Bft) 100 %
12.10.2017 11:26 13,6 C 73 % 1017,7 hPa 0,0 l/m 16,6 km/h (3 Bft) N 356 8,9 C 25,1 km/h (4 Bft) 100 %
12.10.2017 11:27 13,6 C 73 % 1017,7 hPa 0,0 l/m 19,2 km/h (3 Bft) NW 306 8,9 C 31,4 km/h (5 Bft) 100 %
12.10.2017 11:28 13,6 C 73 % 1017,7 hPa 0,0 l/m 14,6 km/h (3 Bft) W-NW 299 8,9 C 28,2 km/h (4 Bft) 100 %
12.10.2017 11:29 13,6 C 74 % 1017,8 hPa 0,0 l/m 10,2 km/h (2 Bft) NW 326 9,1 C 15,7 km/h (3 Bft) 100 %
12.10.2017 11:30 13,6 C 74 % 1017,7 hPa 0,0 l/m 14,0 km/h (3 Bft) W-NW 302 9,1 C 18,8 km/h (3 Bft) 100 %
12.10.2017 11:31 13,6 C 74 % 1017,8 hPa 0,0 l/m 15,7 km/h (3 Bft) N-NW 338 9,1 C 25,1 km/h (4 Bft) 96 %
12.10.2017 11:32 13,6 C 74 % 1017,8 hPa 0,0 l/m 13,1 km/h (3 Bft) NW 318 9,1 C 22,0 km/h (4 Bft) 97 %
12.10.2017 11:33 13,6 C 74 % 1017,9 hPa 0,0 l/m 11,5 km/h (2 Bft) W-NW 301 9,1 C 15,7 km/h (3 Bft) 100 %
12.10.2017 11:34 13,6 C 73 % 1017,9 hPa 0,0 l/m 17,6 km/h (3 Bft) W 260 8,9 C 25,1 km/h (4 Bft) 96 %
12.10.2017 11:35 13,6 C 73 % 1017,9 hPa 0,0 l/m 18,3 km/h (3 Bft) W-NW 288 8,9 C 31,4 km/h (5 Bft) 100 %
12.10.2017 11:36 13,6 C 73 % 1017,8 hPa 0,0 l/m 15,3 km/h (3 Bft) W 278 8,9 C 25,1 km/h (4 Bft) 92 %
12.10.2017 11:37 13,6 C 73 % 1017,9 hPa 0,0 l/m 17,7 km/h (3 Bft) NW 306 8,9 C 28,2 km/h (4 Bft) 100 %
12.10.2017 11:38 13,6 C 73 % 1017,9 hPa 0,0 l/m 15,9 km/h (3 Bft) W-SW 255 8,9 C 28,2 km/h (4 Bft) 96 %
12.10.2017 11:39 13,6 C 73 % 1017,9 hPa 0,0 l/m 9,5 km/h (2 Bft) NW 305 8,9 C 18,8 km/h (3 Bft) 96 %
12.10.2017 11:40 13,6 C 73 % 1018,0 hPa 0,0 l/m 23,1 km/h (4 Bft) NW 321 8,9 C 40,8 km/h (6 Bft) 100 %
12.10.2017 11:41 13,7 C 74 % 1017,9 hPa 0,0 l/m 14,6 km/h (3 Bft) W-NW 296 9,2 C 25,1 km/h (4 Bft) 100 %
12.10.2017 11:42 13,7 C 72 % 1017,9 hPa 0,0 l/m 20,5 km/h (4 Bft) NW 308 8,7 C 40,8 km/h (6 Bft) 100 %
12.10.2017 11:43 13,7 C 73 % 1017,9 hPa 0,0 l/m 13,6 km/h (3 Bft) W-NW 289 8,9 C 22,0 km/h (4 Bft) 100 %
12.10.2017 11:44 13,7 C 73 % 1017,9 hPa 0,0 l/m 11,6 km/h (2 Bft) N-NW 335 8,9 C 22,0 km/h (4 Bft) 100 %
12.10.2017 11:45 13,7 C 73 % 1018,0 hPa 0,0 l/m 11,8 km/h (2 Bft) NW 308 8,9 C 18,8 km/h (3 Bft) 100 %
12.10.2017 11:46 13,7 C 72 % 1018,1 hPa 0,0 l/m 16,6 km/h (3 Bft) W-SW 252 8,7 C 25,1 km/h (4 Bft) 100 %
12.10.2017 11:47 13,7 C 72 % 1018,0 hPa 0,0 l/m 16,1 km/h (3 Bft) W-SW 245 8,7 C 25,1 km/h (4 Bft) 100 %
12.10.2017 11:48 13,7 C 72 % 1018,1 hPa 0,0 l/m 17,4 km/h (3 Bft) W-SW 249 8,7 C 28,2 km/h (4 Bft) 100 %
12.10.2017 11:49 13,8 C 72 % 1018,0 hPa 0,0 l/m 19,9 km/h (4 Bft) N-NW 335 8,8 C 34,5 km/h (5 Bft) 100 %
12.10.2017 11:50 13,8 C 71 % 1018,0 hPa 0,0 l/m 16,3 km/h (3 Bft) W-SW 243 8,6 C 34,5 km/h (5 Bft) 100 %
12.10.2017 11:51 13,8 C 72 % 1018,1 hPa 0,0 l/m 8,6 km/h (2 Bft) NO 51 8,8 C 12,6 km/h (3 Bft) 100 %
12.10.2017 11:52 13,8 C 72 % 1018,1 hPa 0,0 l/m 16,7 km/h (3 Bft) W-NW 287 8,8 C 31,4 km/h (5 Bft) 100 %
12.10.2017 11:53 13,8 C 72 % 1018,1 hPa 0,0 l/m 13,6 km/h (3 Bft) W-NW 302 8,8 C 28,2 km/h (4 Bft) 100 %
12.10.2017 11:54 13,8 C 71 % 1018,1 hPa 0,0 l/m 20,7 km/h (4 Bft) W-SW 256 8,6 C 34,5 km/h (5 Bft) 100 %
12.10.2017 11:55 13,8 C 71 % 1018,3 hPa 0,0 l/m 22,4 km/h (4 Bft) W 280 8,6 C 34,5 km/h (5 Bft) 100 %
12.10.2017 11:56 13,8 C 71 % 1018,2 hPa 0,0 l/m 18,2 km/h (3 Bft) W 264 8,6 C 34,5 km/h (5 Bft) 100 %
12.10.2017 11:57 13,9 C 70 % 1018,3 hPa 0,0 l/m 22,6 km/h (4 Bft) W 272 8,5 C 47,1 km/h (6 Bft) 100 %
12.10.2017 11:58 13,9 C 71 % 1018,3 hPa 0,0 l/m 21,3 km/h (4 Bft) W-NW 302 8,7 C 31,4 km/h (5 Bft) 100 %
12.10.2017 11:59 13,9 C 71 % 1018,3 hPa 0,0 l/m 9,2 km/h (2 Bft) N 356 8,7 C 18,8 km/h (3 Bft) 100 %
12.10.2017 12:00 13,9 C 72 % 1018,2 hPa 0,0 l/m 9,7 km/h (2 Bft) W-NW 298 8,9 C 22,0 km/h (4 Bft) 100 %
12.10.2017 12:02 13,9 C 72 % 1018,3 hPa 0,0 l/m 14,4 km/h (3 Bft) NW 314 8,9 C 25,1 km/h (4 Bft) 100 %
12.10.2017 12:03 13,9 C 71 % 1018,3 hPa 0,0 l/m 13,9 km/h (3 Bft) W-NW 296 8,7 C 25,1 km/h (4 Bft) 100 %
12.10.2017 12:04 13,9 C 71 % 1018,3 hPa 0,0 l/m 22,7 km/h (4 Bft) W-NW 285 8,7 C 43,9 km/h (6 Bft) 100 %
12.10.2017 12:05 13,9 C 71 % 1018,4 hPa 0,0 l/m 17,3 km/h (3 Bft) N-NW 331 8,7 C 34,5 km/h (5 Bft) 100 %
12.10.2017 12:06 13,9 C 71 % 1018,4 hPa 0,0 l/m 16,9 km/h (3 Bft) NW 319 8,7 C 22,0 km/h (4 Bft) 100 %
12.10.2017 12:07 13,9 C 71 % 1018,5 hPa 0,0 l/m 13,7 km/h (3 Bft) W 274 8,7 C 22,0 km/h (4 Bft) 100 %
12.10.2017 12:08 14,0 C 71 % 1018,5 hPa 0,0 l/m 15,7 km/h (3 Bft) W-NW 287 8,8 C 31,4 km/h (5 Bft) 100 %
12.10.2017 12:09 14,0 C 71 % 1018,5 hPa 0,0 l/m 12,7 km/h (3 Bft) SW 226 8,8 C 25,1 km/h (4 Bft) 100 %
12.10.2017 12:10 14,0 C 71 % 1018,5 hPa 0,0 l/m 6,3 km/h (2 Bft) W 262 8,8 C 12,6 km/h (3 Bft) 100 %
12.10.2017 12:11 14,0 C 72 % 1018,5 hPa 0,0 l/m 15,8 km/h (3 Bft) SW 221 9,0 C 40,8 km/h (6 Bft) 100 %
12.10.2017 12:12 14,1 C 71 % 1018,5 hPa 0,0 l/m 16,9 km/h (3 Bft) SW 231 8,9 C 25,1 km/h (4 Bft) 100 %
12.10.2017 12:13 14,1 C 71 % 1018,5 hPa 0,0 l/m 14,9 km/h (3 Bft) W-NW 289 8,9 C 18,8 km/h (3 Bft) 100 %
12.10.2017 12:14 14,1 C 71 % 1018,6 hPa 0,0 l/m 18,0 km/h (3 Bft) NW 326 8,9 C 28,2 km/h (4 Bft) 100 %
12.10.2017 12:15 14,1 C 71 % 1018,5 hPa 0,0 l/m 20,2 km/h (4 Bft) NW 309 8,9 C 40,8 km/h (6 Bft) 100 %
12.10.2017 12:16 14,1 C 71 % 1018,6 hPa 0,0 l/m 10,5 km/h (2 Bft) W 265 8,9 C 15,7 km/h (3 Bft) 100 %
12.10.2017 12:17 14,0 C 72 % 1018,6 hPa 0,0 l/m 14,6 km/h (3 Bft) W-NW 292 9,0 C 28,2 km/h (4 Bft) 100 %
12.10.2017 12:18 14,0 C 72 % 1018,7 hPa 0,0 l/m 12,8 km/h (3 Bft) W-SW 243 9,0 C 18,8 km/h (3 Bft) 100 %
12.10.2017 12:19 14,0 C 71 % 1018,7 hPa 0,0 l/m 19,5 km/h (3 Bft) W-SW 255 8,8 C 31,4 km/h (5 Bft) 100 %
12.10.2017 12:20 14,0 C 71 % 1018,7 hPa 0,0 l/m 12,7 km/h (3 Bft) W-NW 297 8,8 C 18,8 km/h (3 Bft) 100 %
12.10.2017 12:21 13,9 C 72 % 1018,6 hPa 0,0 l/m 18,4 km/h (3 Bft) SW 231 8,9 C 31,4 km/h (5 Bft) 100 %
12.10.2017 12:22 14,0 C 72 % 1018,7 hPa 0,0 l/m 8,1 km/h (2 Bft) NW 316 9,0 C 12,6 km/h (3 Bft) 100 %
12.10.2017 12:23 13,9 C 73 % 1018,7 hPa 0,0 l/m 7,7 km/h (2 Bft) NW 316 9,1 C 15,7 km/h (3 Bft) 100 %
12.10.2017 12:24 14,0 C 72 % 1018,8 hPa 0,0 l/m 19,7 km/h (3 Bft) NW 313 9,0 C 34,5 km/h (5 Bft) 100 %
12.10.2017 12:25 13,9 C 72 % 1018,8 hPa 0,0 l/m 17,8 km/h (3 Bft) W-NW 294 8,9 C 37,7 km/h (5 Bft) 100 %
12.10.2017 12:26 13,9 C 72 % 1018,8 hPa 0,0 l/m 14,0 km/h (3 Bft) W-SW 240 8,9 C 25,1 km/h (4 Bft) 100 %
12.10.2017 12:27 13,9 C 72 % 1018,9 hPa 0,0 l/m 12,3 km/h (3 Bft) W 259 8,9 C 28,2 km/h (4 Bft) 96 %
12.10.2017 12:28 13,9 C 72 % 1018,9 hPa 0,0 l/m 8,1 km/h (2 Bft) NW 308 8,9 C 15,7 km/h (3 Bft) 100 %
12.10.2017 12:29 13,9 C 72 % 1018,8 hPa 0,0 l/m 12,3 km/h (3 Bft) W-SW 245 8,9 C 18,8 km/h (3 Bft) 100 %
12.10.2017 12:30 13,9 C 72 % 1018,8 hPa 0,0 l/m 18,8 km/h (3 Bft) W 268 8,9 C 34,5 km/h (5 Bft) 100 %
12.10.2017 12:31 13,9 C 72 % 1018,9 hPa 0,0 l/m 14,1 km/h (3 Bft) W-SW 257 8,9 C 22,0 km/h (4 Bft) 97 %
12.10.2017 12:32 13,9 C 71 % 1018,8 hPa 0,0 l/m 22,1 km/h (4 Bft) W-SW 258 8,7 C 37,7 km/h (5 Bft) 100 %
12.10.2017 12:33 13,9 C 71 % 1018,9 hPa 0,0 l/m 15,8 km/h (3 Bft) W-NW 289 8,7 C 25,1 km/h (4 Bft) 100 %
12.10.2017 12:35 13,9 C 72 % 1018,9 hPa 0,0 l/m 16,0 km/h (3 Bft) NW 309 8,9 C 25,1 km/h (4 Bft) 97 %
12.10.2017 12:36 13,9 C 72 % 1018,9 hPa 0,0 l/m 17,3 km/h (3 Bft) NW 304 8,9 C 31,4 km/h (5 Bft) 100 %
12.10.2017 12:37 13,9 C 72 % 1018,9 hPa 0,0 l/m 16,8 km/h (3 Bft) W-NW 300 8,9 C 28,2 km/h (4 Bft) 96 %
12.10.2017 12:39 13,9 C 72 % 1019,0 hPa 0,0 l/m 10,9 km/h (2 Bft) W-NW 290 8,9 C 28,2 km/h (4 Bft) 97 %
12.10.2017 12:40 13,8 C 72 % 1019,0 hPa 0,0 l/m 9,2 km/h (2 Bft) W-SW 249 8,8 C 12,6 km/h (3 Bft) 97 %
12.10.2017 12:41 13,8 C 72 % 1018,9 hPa 0,0 l/m 9,7 km/h (2 Bft) W 262 8,8 C 15,7 km/h (3 Bft) 100 %
12.10.2017 12:42 13,8 C 72 % 1018,9 hPa 0,0 l/m 9,6 km/h (2 Bft) W 276 8,8 C 15,7 km/h (3 Bft) 100 %
12.10.2017 12:43 13,8 C 73 % 1019,0 hPa 0,0 l/m 6,5 km/h (2 Bft) W 270 9,0 C 9,4 km/h (2 Bft) 100 %
12.10.2017 12:44 13,8 C 73 % 1019,0 hPa 0,0 l/m 10,6 km/h (2 Bft) W 280 9,0 C 22,0 km/h (4 Bft) 100 %
12.10.2017 12:45 13,8 C 72 % 1018,9 hPa 0,0 l/m 19,2 km/h (3 Bft) S-SW 213 8,8 C 40,8 km/h (6 Bft) 100 %
12.10.2017 12:46 13,8 C 72 % 1018,9 hPa 0,0 l/m 14,7 km/h (3 Bft) NO 49 8,8 C 31,4 km/h (5 Bft) 100 %
12.10.2017 12:47 13,8 C 72 % 1018,9 hPa 0,0 l/m 4,2 km/h (1 Bft) W-NW 297 8,8 C 9,4 km/h (2 Bft) 100 %
12.10.2017 12:48 13,8 C 72 % 1019,0 hPa 0,0 l/m 10,5 km/h (2 Bft) N-NW 330 8,8 C 18,8 km/h (3 Bft) 100 %
12.10.2017 12:49 13,7 C 73 % 1019,0 hPa 0,0 l/m 17,5 km/h (3 Bft) W 271 8,9 C 43,9 km/h (6 Bft) 100 %
12.10.2017 12:50 13,7 C 72 % 1018,9 hPa 0,0 l/m 21,5 km/h (4 Bft) W 273 8,7 C 43,9 km/h (6 Bft) 100 %
12.10.2017 12:51 13,7 C 72 % 1018,9 hPa 0,0 l/m 13,6 km/h (3 Bft) NW 322 8,7 C 22,0 km/h (4 Bft) 100 %
12.10.2017 12:52 13,7 C 73 % 1019,0 hPa 0,0 l/m 10,0 km/h (2 Bft) S-SW 193 8,9 C 15,7 km/h (3 Bft) 100 %
12.10.2017 12:53 13,7 C 73 % 1019,0 hPa 0,0 l/m 12,0 km/h (2 Bft) W-NW 300 8,9 C 22,0 km/h (4 Bft) 100 %
12.10.2017 12:54 13,7 C 72 % 1019,0 hPa 0,0 l/m 17,6 km/h (3 Bft) W-SW 242 8,7 C 25,1 km/h (4 Bft) 100 %
12.10.2017 12:55 13,7 C 73 % 1019,0 hPa 0,0 l/m 13,4 km/h (3 Bft) W 264 8,9 C 25,1 km/h (4 Bft) 100 %
12.10.2017 12:56 13,7 C 73 % 1019,0 hPa 0,0 l/m 7,9 km/h (2 Bft) NW 321 8,9 C 18,8 km/h (3 Bft) 100 %
12.10.2017 12:57 13,7 C 73 % 1019,0 hPa 0,0 l/m 9,9 km/h (2 Bft) W 273 8,9 C 25,1 km/h (4 Bft) 100 %
12.10.2017 12:58 13,7 C 73 % 1019,0 hPa 0,0 l/m 10,6 km/h (2 Bft) W 276 8,9 C 18,8 km/h (3 Bft) 100 %
12.10.2017 12:59 13,7 C 73 % 1019,0 hPa 0,0 l/m 11,6 km/h (2 Bft) W-NW 297 8,9 C 18,8 km/h (3 Bft) 100 %
12.10.2017 13:00 13,7 C 73 % 1018,9 hPa 0,0 l/m 8,8 km/h (2 Bft) W 271 8,9 C 18,8 km/h (3 Bft) 100 %
12.10.2017 13:02 13,7 C 73 % 1018,9 hPa 0,0 l/m 9,5 km/h (2 Bft) NW 311 8,9 C 18,8 km/h (3 Bft) 100 %
12.10.2017 13:03 13,7 C 73 % 1019,0 hPa 0,0 l/m 17,6 km/h (3 Bft) N-NW 340 8,9 C 25,1 km/h (4 Bft) 100 %
12.10.2017 13:04 13,7 C 72 % 1019,0 hPa 0,0 l/m 13,0 km/h (3 Bft) W 274 8,7 C 18,8 km/h (3 Bft) 100 %
12.10.2017 13:05 13,7 C 72 % 1018,9 hPa 0,0 l/m 12,9 km/h (3 Bft) W 269 8,7 C 18,8 km/h (3 Bft) 100 %
12.10.2017 13:06 13,7 C 72 % 1019,0 hPa 0,0 l/m 11,6 km/h (2 Bft) SW 221 8,7 C 18,8 km/h (3 Bft) 100 %
12.10.2017 13:07 13,7 C 72 % 1018,9 hPa 0,0 l/m 12,2 km/h (2 Bft) W-NW 296 8,7 C 18,8 km/h (3 Bft) 100 %
12.10.2017 13:08 13,7 C 72 % 1018,9 hPa 0,0 l/m 11,7 km/h (2 Bft) W-NW 298 8,7 C 18,8 km/h (3 Bft) 100 %
12.10.2017 13:09 13,7 C 72 % 1018,9 hPa 0,0 l/m 7,0 km/h (2 Bft) W-NW 297 8,7 C 12,6 km/h (3 Bft) 100 %
12.10.2017 13:10 13,7 C 72 % 1018,9 hPa 0,0 l/m 12,7 km/h (3 Bft) NW 323 8,7 C 25,1 km/h (4 Bft) 100 %
12.10.2017 13:11 13,7 C 72 % 1019,0 hPa 0,0 l/m 14,1 km/h (3 Bft) W 278 8,7 C 22,0 km/h (4 Bft) 100 %
12.10.2017 13:12 13,7 C 72 % 1019,0 hPa 0,0 l/m 13,8 km/h (3 Bft) W-NW 298 8,7 C 22,0 km/h (4 Bft) 100 %
12.10.2017 13:13 13,7 C 72 % 1019,0 hPa 0,0 l/m 12,9 km/h (3 Bft) W-NW 283 8,7 C 15,7 km/h (3 Bft) 100 %
12.10.2017 13:14 13,8 C 73 % 1019,0 hPa 0,0 l/m 7,4 km/h (2 Bft) SW 224 9,0 C 12,6 km/h (3 Bft) 100 %
12.10.2017 13:15 13,8 C 73 % 1019,0 hPa 0,0 l/m 6,0 km/h (2 Bft) NW 304 9,0 C 9,4 km/h (2 Bft) 100 %
12.10.2017 13:16 13,8 C 73 % 1019,0 hPa 0,0 l/m 6,9 km/h (2 Bft) SW 226 9,0 C 9,4 km/h (2 Bft) 100 %
12.10.2017 13:17 13,8 C 73 % 1019,1 hPa 0,0 l/m 9,1 km/h (2 Bft) NW 323 9,0 C 12,6 km/h (3 Bft) 100 %
12.10.2017 13:18 13,9 C 73 % 1019,1 hPa 0,0 l/m 8,1 km/h (2 Bft) W-SW 255 9,1 C 12,6 km/h (3 Bft) 100 %
12.10.2017 13:19 13,9 C 72 % 1019,1 hPa 0,0 l/m 8,8 km/h (2 Bft) NW 305 8,9 C 15,7 km/h (3 Bft) 100 %
12.10.2017 13:20 13,9 C 72 % 1019,1 hPa 0,0 l/m 10,1 km/h (2 Bft) N-NW 330 8,9 C 15,7 km/h (3 Bft) 100 %
12.10.2017 13:21 14,0 C 72 % 1019,1 hPa 0,0 l/m 10,1 km/h (2 Bft) W-NW 300 9,0 C 15,7 km/h (3 Bft) 100 %
12.10.2017 13:22 14,0 C 72 % 1019,1 hPa 0,0 l/m 13,6 km/h (3 Bft) W 269 9,0 C 18,8 km/h (3 Bft) 100 %
12.10.2017 13:23 14,0 C 71 % 1019,2 hPa 0,0 l/m 5,9 km/h (2 Bft) NW 307 8,8 C 9,4 km/h (2 Bft) 100 %
12.10.2017 13:24 14,0 C 71 % 1019,1 hPa 0,0 l/m 8,2 km/h (2 Bft) W 278 8,8 C 15,7 km/h (3 Bft) 100 %
12.10.2017 13:25 14,1 C 70 % 1019,1 hPa 0,0 l/m 21,4 km/h (4 Bft) SW 215 8,7 C 34,5 km/h (5 Bft) 100 %
12.10.2017 13:26 14,1 C 71 % 1019,1 hPa 0,0 l/m 16,6 km/h (3 Bft) NW 319 8,9 C 25,1 km/h (4 Bft) 100 %
12.10.2017 13:27 14,1 C 69 % 1019,1 hPa 0,0 l/m 15,7 km/h (3 Bft) NW 321 8,5 C 28,2 km/h (4 Bft) 100 %
12.10.2017 13:28 14,2 C 70 % 1019,2 hPa 0,0 l/m 8,4 km/h (2 Bft) NW 313 8,8 C 12,6 km/h (3 Bft) 100 %
12.10.2017 13:29 14,2 C 70 % 1019,2 hPa 0,0 l/m 14,8 km/h (3 Bft) W-NW 290 8,8 C 34,5 km/h (5 Bft) 96 %
12.10.2017 13:30 14,2 C 69 % 1019,2 hPa 0,0 l/m 17,7 km/h (3 Bft) N-NW 330 8,6 C 28,2 km/h (4 Bft) 96 %
12.10.2017 13:31 14,3 C 69 % 1019,2 hPa 0,0 l/m 15,4 km/h (3 Bft) W 264 8,7 C 31,4 km/h (5 Bft) 94 %
12.10.2017 13:32 14,3 C 69 % 1019,2 hPa 0,0 l/m 12,7 km/h (3 Bft) W-NW 284 8,7 C 18,8 km/h (3 Bft) 100 %
12.10.2017 13:33 14,4 C 69 % 1019,3 hPa 0,0 l/m 9,3 km/h (2 Bft) W-SW 251 8,8 C 18,8 km/h (3 Bft) 100 %
12.10.2017 13:34 14,5 C 69 % 1019,3 hPa 0,0 l/m 10,2 km/h (2 Bft) W-SW 252 8,9 C 18,8 km/h (3 Bft) 96 %
12.10.2017 13:35 14,6 C 68 % 1019,3 hPa 0,0 l/m 14,7 km/h (3 Bft) W-SW 254 8,8 C 22,0 km/h (4 Bft) 100 %
12.10.2017 13:36 14,6 C 68 % 1019,3 hPa 0,0 l/m 17,8 km/h (3 Bft) W-NW 285 8,8 C 34,5 km/h (5 Bft) 96 %
12.10.2017 13:37 14,6 C 67 % 1019,2 hPa 0,0 l/m 17,5 km/h (3 Bft) W-NW 295 8,5 C 28,2 km/h (4 Bft) 100 %
12.10.2017 13:38 14,6 C 68 % 1019,2 hPa 0,0 l/m 13,8 km/h (3 Bft) NW 305 8,8 C 22,0 km/h (4 Bft) 92 %
12.10.2017 13:39 14,7 C 68 % 1019,3 hPa 0,0 l/m 9,3 km/h (2 Bft) W-NW 293 8,9 C 25,1 km/h (4 Bft) 100 %
12.10.2017 13:40 14,7 C 68 % 1019,2 hPa 0,0 l/m 12,1 km/h (2 Bft) N-NW 328 8,9 C 25,1 km/h (4 Bft) 96 %
12.10.2017 13:41 14,8 C 68 % 1019,2 hPa 0,0 l/m 18,8 km/h (3 Bft) N-NW 333 9,0 C 31,4 km/h (5 Bft) 96 %
12.10.2017 13:42 14,9 C 67 % 1019,2 hPa 0,0 l/m 16,2 km/h (3 Bft) W 262 8,8 C 34,5 km/h (5 Bft) 100 %
12.10.2017 13:43 15,0 C 68 % 1019,2 hPa 0,0 l/m 10,2 km/h (2 Bft) W-SW 248 9,1 C 18,8 km/h (3 Bft) 100 %
12.10.2017 13:44 15,1 C 67 % 1019,3 hPa 0,0 l/m 11,5 km/h (2 Bft) W 261 9,0 C 18,8 km/h (3 Bft) 100 %
12.10.2017 13:45 15,2 C 67 % 1019,3 hPa 0,0 l/m 12,2 km/h (2 Bft) N 352 9,1 C 18,8 km/h (3 Bft) 100 %
12.10.2017 13:46 15,3 C 68 % 1019,2 hPa 0,0 l/m 7,5 km/h (2 Bft) SW 232 9,4 C 12,6 km/h (3 Bft) 100 %
12.10.2017 13:47 15,4 C 68 % 1019,2 hPa 0,0 l/m 11,3 km/h (2 Bft) NW 311 9,5 C 22,0 km/h (4 Bft) 100 %
12.10.2017 13:48 15,4 C 67 % 1019,2 hPa 0,0 l/m 13,7 km/h (3 Bft) NW 309 9,3 C 25,1 km/h (4 Bft) 100 %
12.10.2017 13:49 15,5 C 67 % 1019,2 hPa 0,0 l/m 6,0 km/h (2 Bft) SW 236 9,4 C 12,6 km/h (3 Bft) 100 %
12.10.2017 13:50 15,6 C 67 % 1019,2 hPa 0,0 l/m 8,2 km/h (2 Bft) NW 319 9,5 C 12,6 km/h (3 Bft) 100 %
12.10.2017 13:51 15,7 C 67 % 1019,2 hPa 0,0 l/m 11,3 km/h (2 Bft) W-NW 288 9,6 C 18,8 km/h (3 Bft) 100 %
12.10.2017 13:52 15,7 C 67 % 1019,2 hPa 0,0 l/m 5,8 km/h (2 Bft) W-NW 291 9,6 C 9,4 km/h (2 Bft) 100 %
12.10.2017 13:53 15,7 C 69 % 1019,3 hPa 0,0 l/m 8,2 km/h (2 Bft) W-SW 256 10,0 C 15,7 km/h (3 Bft) 100 %
12.10.2017 13:54 15,7 C 67 % 1019,3 hPa 0,0 l/m 9,8 km/h (2 Bft) W 259 9,6 C 15,7 km/h (3 Bft) 100 %
12.10.2017 13:55 15,7 C 66 % 1019,3 hPa 0,0 l/m 10,2 km/h (2 Bft) N-NW 338 9,4 C 18,8 km/h (3 Bft) 100 %
12.10.2017 13:56 15,6 C 67 % 1019,3 hPa 0,0 l/m 10,3 km/h (2 Bft) W-NW 288 9,5 C 15,7 km/h (3 Bft) 100 %
12.10.2017 13:57 15,6 C 67 % 1019,4 hPa 0,0 l/m 7,4 km/h (2 Bft) W 278 9,5 C 9,4 km/h (2 Bft) 100 %
12.10.2017 13:58 15,6 C 67 % 1019,3 hPa 0,0 l/m 11,1 km/h (2 Bft) W-NW 303 9,5 C 22,0 km/h (4 Bft) 100 %
12.10.2017 13:59 15,5 C 67 % 1019,3 hPa 0,0 l/m 13,5 km/h (3 Bft) NW 304 9,4 C 25,1 km/h (4 Bft) 100 %
12.10.2017 14:00 15,4 C 66 % 1019,3 hPa 0,0 l/m 12,1 km/h (2 Bft) W-SW 241 9,1 C 15,7 km/h (3 Bft) 100 %
12.10.2017 14:02 15,3 C 67 % 1019,4 hPa 0,0 l/m 13,3 km/h (3 Bft) SW 233 9,2 C 34,5 km/h (5 Bft) 100 %
12.10.2017 14:03 15,3 C 67 % 1019,3 hPa 0,0 l/m 6,3 km/h (2 Bft) W 276 9,2 C 9,4 km/h (2 Bft) 100 %
12.10.2017 14:04 15,4 C 68 % 1019,3 hPa 0,0 l/m 13,0 km/h (3 Bft) N-NW 332 9,5 C 28,2 km/h (4 Bft) 100 %
12.10.2017 14:05 15,4 C 67 % 1019,3 hPa 0,0 l/m 13,7 km/h (3 Bft) W-SW 248 9,3 C 18,8 km/h (3 Bft) 100 %
12.10.2017 14:06 15,5 C 66 % 1019,3 hPa 0,0 l/m 14,4 km/h (3 Bft) W 271 9,2 C 25,1 km/h (4 Bft) 100 %
12.10.2017 14:07 15,5 C 66 % 1019,4 hPa 0,0 l/m 11,9 km/h (2 Bft) W-NW 303 9,2 C 18,8 km/h (3 Bft) 100 %
12.10.2017 14:08 15,6 C 68 % 1019,4 hPa 0,0 l/m 11,4 km/h (2 Bft) S-SO 162 9,7 C 18,8 km/h (3 Bft) 100 %
12.10.2017 14:09 15,6 C 67 % 1019,4 hPa 0,0 l/m 16,5 km/h (3 Bft) N-NW 331 9,5 C 40,8 km/h (6 Bft) 100 %
12.10.2017 14:10 15,6 C 66 % 1019,4 hPa 0,0 l/m 15,4 km/h (3 Bft) W 275 9,3 C 25,1 km/h (4 Bft) 100 %
12.10.2017 14:11 15,6 C 67 % 1019,3 hPa 0,0 l/m 13,8 km/h (3 Bft) N-NW 340 9,5 C 22,0 km/h (4 Bft) 100 %
12.10.2017 14:12 15,6 C 67 % 1019,3 hPa 0,0 l/m 11,3 km/h (2 Bft) W-SW 238 9,5 C 15,7 km/h (3 Bft) 100 %
12.10.2017 14:13 15,5 C 67 % 1019,3 hPa 0,0 l/m 14,3 km/h (3 Bft) W-NW 300 9,4 C 22,0 km/h (4 Bft) 100 %
12.10.2017 14:14 15,4 C 67 % 1019,3 hPa 0,0 l/m 11,3 km/h (2 Bft) W-SW 250 9,3 C 15,7 km/h (3 Bft) 100 %
12.10.2017 14:15 15,4 C 67 % 1019,3 hPa 0,0 l/m 9,8 km/h (2 Bft) N-NW 331 9,3 C 15,7 km/h (3 Bft) 100 %
12.10.2017 14:16 15,4 C 67 % 1019,3 hPa 0,0 l/m 11,1 km/h (2 Bft) NW 324 9,3 C 15,7 km/h (3 Bft) 100 %
12.10.2017 14:17 15,3 C 67 % 1019,3 hPa 0,0 l/m 20,1 km/h (4 Bft) NW 314 9,2 C 28,2 km/h (4 Bft) 100 %
12.10.2017 14:18 15,3 C 67 % 1019,3 hPa 0,0 l/m 12,4 km/h (3 Bft) W-NW 293 9,2 C 22,0 km/h (4 Bft) 100 %
12.10.2017 14:19 15,3 C 68 % 1019,2 hPa 0,0 l/m 9,7 km/h (2 Bft) W-NW 295 9,4 C 22,0 km/h (4 Bft) 100 %
12.10.2017 14:20 15,3 C 69 % 1019,3 hPa 0,0 l/m 5,9 km/h (2 Bft) S 182 9,6 C 15,7 km/h (3 Bft) 100 %
12.10.2017 14:21 15,4 C 69 % 1019,3 hPa 0,0 l/m 7,8 km/h (2 Bft) W-NW 297 9,7 C 15,7 km/h (3 Bft) 100 %
12.10.2017 14:22 15,4 C 69 % 1019,3 hPa 0,0 l/m 8,1 km/h (2 Bft) NW 312 9,7 C 15,7 km/h (3 Bft) 100 %
12.10.2017 14:23 15,4 C 69 % 1019,3 hPa 0,0 l/m 5,9 km/h (2 Bft) SW 219 9,7 C 9,4 km/h (2 Bft) 100 %
12.10.2017 14:24 15,4 C 69 % 1019,3 hPa 0,0 l/m 11,8 km/h (2 Bft) W-NW 290 9,7 C 22,0 km/h (4 Bft) 100 %
12.10.2017 14:25 15,4 C 68 % 1019,3 hPa 0,0 l/m 12,7 km/h (3 Bft) NW 316 9,5 C 22,0 km/h (4 Bft) 100 %
12.10.2017 14:26 15,3 C 68 % 1019,3 hPa 0,0 l/m 11,7 km/h (2 Bft) W-NW 296 9,4 C 18,8 km/h (3 Bft) 100 %
12.10.2017 14:27 15,3 C 69 % 1019,3 hPa 0,0 l/m 11,0 km/h (2 Bft) W-SW 243 9,6 C 15,7 km/h (3 Bft) 100 %
12.10.2017 14:28 15,2 C 68 % 1019,3 hPa 0,0 l/m 12,2 km/h (2 Bft) W-SW 245 9,3 C 15,7 km/h (3 Bft) 100 %
12.10.2017 14:29 15,2 C 69 % 1019,3 hPa 0,0 l/m 14,6 km/h (3 Bft) NW 308 9,6 C 25,1 km/h (4 Bft) 100 %
12.10.2017 14:30 15,2 C 69 % 1019,3 hPa 0,0 l/m 6,8 km/h (2 Bft) W-NW 301 9,6 C 15,7 km/h (3 Bft) 96 %
12.10.2017 14:31 15,2 C 70 % 1019,3 hPa 0,0 l/m 4,7 km/h (1 Bft) W 261 9,8 C 18,8 km/h (3 Bft) 100 %
12.10.2017 14:32 15,2 C 68 % 1019,3 hPa 0,0 l/m 9,0 km/h (2 Bft) W-NW 299 9,3 C 22,0 km/h (4 Bft) 97 %
12.10.2017 14:33 15,2 C 69 % 1019,3 hPa 0,0 l/m 8,3 km/h (2 Bft) W-NW 301 9,6 C 15,7 km/h (3 Bft) 100 %
12.10.2017 14:34 15,2 C 68 % 1019,3 hPa 0,0 l/m 10,7 km/h (2 Bft) NW 320 9,3 C 22,0 km/h (4 Bft) 96 %
12.10.2017 14:35 15,2 C 67 % 1019,2 hPa 0,0 l/m 9,5 km/h (2 Bft) W-NW 289 9,1 C 15,7 km/h (3 Bft) 96 %
12.10.2017 14:36 15,2 C 68 % 1019,2 hPa 0,0 l/m 8,3 km/h (2 Bft) W-SW 257 9,3 C 15,7 km/h (3 Bft) 100 %
12.10.2017 14:37 15,2 C 69 % 1019,2 hPa 0,0 l/m 9,4 km/h (2 Bft) W-SW 242 9,6 C 18,8 km/h (3 Bft) 96 %
12.10.2017 14:38 15,2 C 69 % 1019,2 hPa 0,0 l/m 9,1 km/h (2 Bft) NW 318 9,6 C 18,8 km/h (3 Bft) 100 %
12.10.2017 14:39 15,1 C 69 % 1019,2 hPa 0,0 l/m 10,7 km/h (2 Bft) NW 309 9,5 C 22,0 km/h (4 Bft) 96 %
12.10.2017 14:40 15,1 C 68 % 1019,1 hPa 0,0 l/m 8,8 km/h (2 Bft) NW 315 9,2 C 15,7 km/h (3 Bft) 100 %
12.10.2017 14:41 15,1 C 69 % 1019,2 hPa 0,0 l/m 7,2 km/h (2 Bft) W-NW 285 9,5 C 9,4 km/h (2 Bft) 100 %
12.10.2017 14:42 15,1 C 66 % 1019,3 hPa 0,0 l/m 15,7 km/h (3 Bft) W 276 8,8 C 31,4 km/h (5 Bft) 100 %
12.10.2017 14:43 15,0 C 65 % 1019,3 hPa 0,0 l/m 17,3 km/h (3 Bft) W-NW 302 8,5 C 25,1 km/h (4 Bft) 100 %
12.10.2017 14:44 15,1 C 66 % 1019,3 hPa 0,0 l/m 10,0 km/h (2 Bft) W 276 8,8 C 15,7 km/h (3 Bft) 100 %
12.10.2017 14:45 15,1 C 66 % 1019,4 hPa 0,0 l/m 7,9 km/h (2 Bft) NW 307 8,8 C 12,6 km/h (3 Bft) 100 %
12.10.2017 14:46 15,1 C 66 % 1019,4 hPa 0,0 l/m 11,6 km/h (2 Bft) W-NW 288 8,8 C 18,8 km/h (3 Bft) 100 %
12.10.2017 14:47 15,1 C 65 % 1019,4 hPa 0,0 l/m 16,5 km/h (3 Bft) W-NW 288 8,6 C 28,2 km/h (4 Bft) 100 %
12.10.2017 14:48 15,2 C 65 % 1019,5 hPa 0,0 l/m 10,6 km/h (2 Bft) W 266 8,7 C 18,8 km/h (3 Bft) 100 %
12.10.2017 14:49 15,2 C 64 % 1019,5 hPa 0,0 l/m 14,4 km/h (3 Bft) W 269 8,4 C 28,2 km/h (4 Bft) 100 %
12.10.2017 14:50 15,2 C 65 % 1019,5 hPa 0,0 l/m 7,5 km/h (2 Bft) SW 231 8,7 C 15,7 km/h (3 Bft) 100 %
12.10.2017 14:51 15,2 C 65 % 1019,6 hPa 0,0 l/m 9,4 km/h (2 Bft) W 261 8,7 C 22,0 km/h (4 Bft) 100 %
12.10.2017 14:53 15,3 C 65 % 1019,6 hPa 0,0 l/m 10,2 km/h (2 Bft) W-NW 282 8,8 C 25,1 km/h (4 Bft) 100 %
12.10.2017 14:54 15,3 C 65 % 1019,6 hPa 0,0 l/m 11,0 km/h (2 Bft) W-NW 286 8,8 C 15,7 km/h (3 Bft) 100 %
12.10.2017 14:55 15,3 C 65 % 1019,5 hPa 0,0 l/m 6,0 km/h (2 Bft) W-NW 303 8,8 C 15,7 km/h (3 Bft) 100 %
12.10.2017 14:56 15,3 C 64 % 1019,7 hPa 0,0 l/m 18,0 km/h (3 Bft) W 268 8,5 C 37,7 km/h (5 Bft) 100 %
12.10.2017 14:57 15,3 C 63 % 1019,6 hPa 0,0 l/m 17,0 km/h (3 Bft) SW 229 8,3 C 28,2 km/h (4 Bft) 100 %
12.10.2017 14:58 15,3 C 64 % 1019,6 hPa 0,0 l/m 11,0 km/h (2 Bft) W-NW 297 8,5 C 22,0 km/h (4 Bft) 100 %
12.10.2017 14:59 15,3 C 63 % 1019,6 hPa 0,0 l/m 13,4 km/h (3 Bft) N-NW 328 8,3 C 18,8 km/h (3 Bft) 100 %
12.10.2017 15:00 15,3 C 64 % 1019,6 hPa 0,0 l/m 12,7 km/h (3 Bft) NW 306 8,5 C 31,4 km/h (5 Bft) 100 %
12.10.2017 15:02 15,2 C 63 % 1019,7 hPa 0,0 l/m 19,6 km/h (3 Bft) W-SW 237 8,2 C 34,5 km/h (5 Bft) 100 %
12.10.2017 15:03 15,2 C 63 % 1019,7 hPa 0,0 l/m 18,8 km/h (3 Bft) W-NW 291 8,2 C 31,4 km/h (5 Bft) 100 %
12.10.2017 15:04 15,2 C 63 % 1019,8 hPa 0,0 l/m 20,1 km/h (4 Bft) SW 227 8,2 C 28,2 km/h (4 Bft) 100 %
12.10.2017 15:05 15,2 C 64 % 1019,8 hPa 0,0 l/m 16,9 km/h (3 Bft) S-SW 209 8,4 C 25,1 km/h (4 Bft) 100 %
12.10.2017 15:06 15,2 C 64 % 1019,7 hPa 0,0 l/m 18,6 km/h (3 Bft) SW 230 8,4 C 28,2 km/h (4 Bft) 100 %
12.10.2017 15:07 15,2 C 64 % 1019,9 hPa 0,0 l/m 16,7 km/h (3 Bft) W-NW 302 8,4 C 34,5 km/h (5 Bft) 100 %
12.10.2017 15:08 15,1 C 64 % 1019,7 hPa 0,0 l/m 17,7 km/h (3 Bft) W 281 8,3 C 40,8 km/h (6 Bft) 100 %
12.10.2017 15:09 15,1 C 64 % 1019,7 hPa 0,0 l/m 15,1 km/h (3 Bft) W-NW 297 8,3 C 31,4 km/h (5 Bft) 100 %
12.10.2017 15:10 15,1 C 63 % 1019,7 hPa 0,0 l/m 23,3 km/h (4 Bft) SW 233 8,1 C 37,7 km/h (5 Bft) 100 %
12.10.2017 15:11 15,1 C 64 % 1019,7 hPa 0,0 l/m 14,4 km/h (3 Bft) W 281 8,3 C 31,4 km/h (5 Bft) 100 %
12.10.2017 15:12 15,1 C 64 % 1019,7 hPa 0,0 l/m 15,5 km/h (3 Bft) W 281 8,3 C 22,0 km/h (4 Bft) 100 %
12.10.2017 15:13 15,1 C 64 % 1019,7 hPa 0,0 l/m 17,8 km/h (3 Bft) W-SW 250 8,3 C 25,1 km/h (4 Bft) 100 %
12.10.2017 15:14 15,2 C 64 % 1019,7 hPa 0,0 l/m 11,8 km/h (2 Bft) W-NW 299 8,4 C 22,0 km/h (4 Bft) 100 %
12.10.2017 15:15 15,2 C 64 % 1019,7 hPa 0,0 l/m 12,6 km/h (3 Bft) W-NW 299 8,4 C 15,7 km/h (3 Bft) 100 %
12.10.2017 15:16 15,2 C 64 % 1019,7 hPa 0,0 l/m 9,5 km/h (2 Bft) NW 311 8,4 C 28,2 km/h (4 Bft) 100 %
12.10.2017 15:17 15,2 C 64 % 1019,6 hPa 0,0 l/m 19,3 km/h (3 Bft) O-SO 112 8,4 C 34,5 km/h (5 Bft) 100 %
12.10.2017 15:18 15,2 C 63 % 1019,7 hPa 0,0 l/m 18,6 km/h (3 Bft) N-NW 348 8,2 C 34,5 km/h (5 Bft) 100 %
12.10.2017 15:19 15,3 C 63 % 1019,8 hPa 0,0 l/m 9,4 km/h (2 Bft) W-NW 295 8,3 C 18,8 km/h (3 Bft) 100 %
12.10.2017 15:20 15,3 C 63 % 1019,9 hPa 0,0 l/m 16,1 km/h (3 Bft) W 267 8,3 C 28,2 km/h (4 Bft) 100 %
12.10.2017 15:21 15,3 C 64 % 1019,9 hPa 0,0 l/m 16,5 km/h (3 Bft) W 262 8,5 C 28,2 km/h (4 Bft) 100 %
12.10.2017 15:22 15,4 C 63 % 1019,9 hPa 0,0 l/m 14,3 km/h (3 Bft) SW 236 8,4 C 25,1 km/h (4 Bft) 100 %
12.10.2017 15:23 15,4 C 64 % 1019,9 hPa 0,0 l/m 10,9 km/h (2 Bft) NW 321 8,6 C 22,0 km/h (4 Bft) 100 %
12.10.2017 15:24 15,4 C 64 % 1019,8 hPa 0,0 l/m 9,3 km/h (2 Bft) S-SW 203 8,6 C 18,8 km/h (3 Bft) 100 %
12.10.2017 15:25 15,4 C 64 % 1019,8 hPa 0,0 l/m 9,0 km/h (2 Bft) W 262 8,6 C 15,7 km/h (3 Bft) 100 %
12.10.2017 15:26 15,4 C 64 % 1019,8 hPa 0,0 l/m 9,9 km/h (2 Bft) NW 325 8,6 C 15,7 km/h (3 Bft) 100 %
12.10.2017 15:27 15,5 C 64 % 1019,8 hPa 0,0 l/m 12,9 km/h (3 Bft) SW 232 8,7 C 18,8 km/h (3 Bft) 96 %
12.10.2017 15:28 15,5 C 64 % 1019,8 hPa 0,0 l/m 14,5 km/h (3 Bft) W 271 8,7 C 22,0 km/h (4 Bft) 100 %
12.10.2017 15:29 15,6 C 64 % 1019,9 hPa 0,0 l/m 18,1 km/h (3 Bft) W-SW 248 8,8 C 34,5 km/h (5 Bft) 97 %
12.10.2017 15:30 15,6 C 64 % 1019,8 hPa 0,0 l/m 18,7 km/h (3 Bft) W-SW 252 8,8 C 28,2 km/h (4 Bft) 100 %
12.10.2017 15:31 15,6 C 63 % 1020,0 hPa 0,0 l/m 16,3 km/h (3 Bft) NW 308 8,6 C 25,1 km/h (4 Bft) 96 %
12.10.2017 15:32 15,6 C 63 % 1019,9 hPa 0,0 l/m 15,4 km/h (3 Bft) NW 314 8,6 C 25,1 km/h (4 Bft) 96 %
12.10.2017 15:33 15,6 C 64 % 1019,9 hPa 0,0 l/m 11,4 km/h (2 Bft) W-SW 254 8,8 C 22,0 km/h (4 Bft) 100 %
12.10.2017 15:34 15,6 C 64 % 1019,9 hPa 0,0 l/m 9,4 km/h (2 Bft) W-SW 256 8,8 C 12,6 km/h (3 Bft) 96 %
12.10.2017 15:35 15,6 C 64 % 1019,9 hPa 0,0 l/m 11,8 km/h (2 Bft) W 278 8,8 C 22,0 km/h (4 Bft) 96 %
12.10.2017 15:36 15,6 C 64 % 1019,9 hPa 0,0 l/m 15,1 km/h (3 Bft) NW 313 8,8 C 25,1 km/h (4 Bft) 100 %
12.10.2017 15:37 15,6 C 65 % 1020,0 hPa 0,0 l/m 6,2 km/h (2 Bft) NW 318 9,0 C 12,6 km/h (3 Bft) 100 %
12.10.2017 15:38 15,6 C 65 % 1020,0 hPa 0,0 l/m 8,3 km/h (2 Bft) W-SW 257 9,0 C 15,7 km/h (3 Bft) 100 %
12.10.2017 15:39 15,6 C 65 % 1019,9 hPa 0,0 l/m 9,3 km/h (2 Bft) W-NW 290 9,0 C 18,8 km/h (3 Bft) 100 %
12.10.2017 15:40 15,6 C 65 % 1020,0 hPa 0,0 l/m 10,1 km/h (2 Bft) W-SW 253 9,0 C 18,8 km/h (3 Bft) 100 %
12.10.2017 15:41 15,6 C 64 % 1019,9 hPa 0,0 l/m 9,4 km/h (2 Bft) W-SW 258 8,8 C 22,0 km/h (4 Bft) 100 %
12.10.2017 15:42 15,6 C 64 % 1019,9 hPa 0,0 l/m 14,8 km/h (3 Bft) W-NW 282 8,8 C 25,1 km/h (4 Bft) 100 %
12.10.2017 15:43 15,6 C 64 % 1020,0 hPa 0,0 l/m 7,7 km/h (2 Bft) W-NW 285 8,8 C 15,7 km/h (3 Bft) 100 %
12.10.2017 15:45 15,6 C 65 % 1020,1 hPa 0,0 l/m 11,4 km/h (2 Bft) NO 37 9,0 C 18,8 km/h (3 Bft) 100 %
12.10.2017 15:46 15,6 C 65 % 1020,1 hPa 0,0 l/m 9,4 km/h (2 Bft) W 270 9,0 C 15,7 km/h (3 Bft) 100 %
12.10.2017 15:47 15,6 C 65 % 1020,0 hPa 0,0 l/m 7,9 km/h (2 Bft) N-NW 331 9,0 C 12,6 km/h (3 Bft) 100 %
12.10.2017 15:48 15,6 C 65 % 1020,0 hPa 0,0 l/m 11,2 km/h (2 Bft) SW 233 9,0 C 18,8 km/h (3 Bft) 100 %
12.10.2017 15:49 15,6 C 65 % 1020,0 hPa 0,0 l/m 7,8 km/h (2 Bft) W-SW 256 9,0 C 15,7 km/h (3 Bft) 100 %
12.10.2017 15:50 15,5 C 65 % 1020,0 hPa 0,0 l/m 18,0 km/h (3 Bft) NW 311 8,9 C 28,2 km/h (4 Bft) 100 %
12.10.2017 15:51 15,5 C 64 % 1020,1 hPa 0,0 l/m 13,2 km/h (3 Bft) W-NW 288 8,7 C 25,1 km/h (4 Bft) 100 %
12.10.2017 15:52 15,5 C 65 % 1020,1 hPa 0,0 l/m 6,5 km/h (2 Bft) W 259 8,9 C 12,6 km/h (3 Bft) 100 %
12.10.2017 15:53 15,5 C 66 % 1020,1 hPa 0,0 l/m 3,8 km/h (1 Bft) NW 317 9,2 C 12,6 km/h (3 Bft) 100 %
12.10.2017 15:54 15,4 C 65 % 1020,1 hPa 0,0 l/m 13,5 km/h (3 Bft) W-SW 241 8,9 C 28,2 km/h (4 Bft) 100 %
12.10.2017 15:55 15,4 C 64 % 1020,3 hPa 0,0 l/m 13,0 km/h (3 Bft) NW 305 8,6 C 22,0 km/h (4 Bft) 100 %
12.10.2017 15:56 15,4 C 65 % 1020,3 hPa 0,0 l/m 7,0 km/h (2 Bft) W-NW 291 8,9 C 12,6 km/h (3 Bft) 100 %
12.10.2017 15:57 15,4 C 65 % 1020,2 hPa 0,0 l/m 6,4 km/h (2 Bft) W 272 8,9 C 15,7 km/h (3 Bft) 100 %
12.10.2017 15:58 15,4 C 65 % 1020,2 hPa 0,0 l/m 10,6 km/h (2 Bft) NW 306 8,9 C 18,8 km/h (3 Bft) 100 %
12.10.2017 15:59 15,4 C 66 % 1020,2 hPa 0,0 l/m 7,5 km/h (2 Bft) W 272 9,1 C 12,6 km/h (3 Bft) 100 %
12.10.2017 16:00 15,4 C 65 % 1020,3 hPa 0,0 l/m 10,0 km/h (2 Bft) W-NW 302 8,9 C 18,8 km/h (3 Bft) 100 %
12.10.2017 16:02 15,4 C 66 % 1020,3 hPa 0,0 l/m 6,7 km/h (2 Bft) NW 306 9,1 C 15,7 km/h (3 Bft) 100 %
12.10.2017 16:03 15,4 C 66 % 1020,3 hPa 0,0 l/m 5,9 km/h (2 Bft) W 261 9,1 C 15,7 km/h (3 Bft) 100 %
12.10.2017 16:04 15,4 C 65 % 1020,3 hPa 0,0 l/m 13,7 km/h (3 Bft) NW 306 8,9 C 25,1 km/h (4 Bft) 100 %
12.10.2017 16:05 15,4 C 65 % 1020,3 hPa 0,0 l/m 13,2 km/h (3 Bft) SW 215 8,9 C 25,1 km/h (4 Bft) 100 %
12.10.2017 16:06 15,4 C 64 % 1020,4 hPa 0,0 l/m 16,9 km/h (3 Bft) NW 314 8,6 C 31,4 km/h (5 Bft) 100 %
12.10.2017 16:07 15,3 C 64 % 1020,4 hPa 0,0 l/m 14,3 km/h (3 Bft) S 185 8,5 C 18,8 km/h (3 Bft) 100 %
12.10.2017 16:08 15,3 C 65 % 1020,3 hPa 0,0 l/m 13,2 km/h (3 Bft) W-SW 237 8,8 C 22,0 km/h (4 Bft) 100 %
12.10.2017 16:09 15,2 C 64 % 1020,4 hPa 0,0 l/m 19,3 km/h (3 Bft) W 274 8,4 C 37,7 km/h (5 Bft) 100 %
12.10.2017 16:10 15,2 C 63 % 1020,4 hPa 0,0 l/m 18,8 km/h (3 Bft) W 271 8,2 C 34,5 km/h (5 Bft) 100 %
12.10.2017 16:11 15,1 C 64 % 1020,3 hPa 0,0 l/m 17,4 km/h (3 Bft) W 259 8,3 C 28,2 km/h (4 Bft) 100 %
12.10.2017 16:12 15,1 C 64 % 1020,4 hPa 0,0 l/m 13,8 km/h (3 Bft) W-NW 290 8,3 C 25,1 km/h (4 Bft) 100 %
12.10.2017 16:13 15,1 C 65 % 1020,4 hPa 0,0 l/m 11,5 km/h (2 Bft) S 171 8,6 C 18,8 km/h (3 Bft) 100 %
12.10.2017 16:14 15,1 C 65 % 1020,3 hPa 0,0 l/m 17,9 km/h (3 Bft) NW 321 8,6 C 31,4 km/h (5 Bft) 100 %
12.10.2017 16:15 15,1 C 65 % 1020,3 hPa 0,0 l/m 11,5 km/h (2 Bft) N-NO 20 8,6 C 25,1 km/h (4 Bft) 100 %
12.10.2017 16:16 15,1 C 66 % 1020,3 hPa 0,0 l/m 11,9 km/h (2 Bft) NW 311 8,8 C 18,8 km/h (3 Bft) 100 %
12.10.2017 16:17 15,0 C 66 % 1020,3 hPa 0,0 l/m 10,1 km/h (2 Bft) NW 323 8,7 C 18,8 km/h (3 Bft) 100 %
12.10.2017 16:18 15,0 C 66 % 1020,3 hPa 0,0 l/m 7,8 km/h (2 Bft) SW 234 8,7 C 12,6 km/h (3 Bft) 96 %
12.10.2017 16:19 15,0 C 67 % 1020,3 hPa 0,0 l/m 6,0 km/h (2 Bft) W-SW 257 8,9 C 12,6 km/h (3 Bft) 100 %
12.10.2017 16:20 14,9 C 66 % 1020,4 hPa 0,0 l/m 10,1 km/h (2 Bft) SW 223 8,6 C 15,7 km/h (3 Bft) 100 %
12.10.2017 16:21 14,9 C 66 % 1020,3 hPa 0,0 l/m 15,0 km/h (3 Bft) W 280 8,6 C 22,0 km/h (4 Bft) 100 %
12.10.2017 16:22 14,9 C 66 % 1020,4 hPa 0,0 l/m 11,3 km/h (2 Bft) N 360 8,6 C 18,8 km/h (3 Bft) 97 %
12.10.2017 16:23 14,9 C 66 % 1020,4 hPa 0,0 l/m 9,2 km/h (2 Bft) SW 219 8,6 C 22,0 km/h (4 Bft) 100 %
12.10.2017 16:24 14,9 C 66 % 1020,4 hPa 0,0 l/m 19,5 km/h (3 Bft) W-NW 300 8,6 C 28,2 km/h (4 Bft) 96 %
12.10.2017 16:25 14,9 C 65 % 1020,4 hPa 0,0 l/m 13,6 km/h (3 Bft) W-NW 298 8,4 C 28,2 km/h (4 Bft) 100 %
12.10.2017 16:26 14,9 C 66 % 1020,4 hPa 0,0 l/m 12,9 km/h (3 Bft) W-NW 288 8,6 C 22,0 km/h (4 Bft) 96 %
12.10.2017 16:27 14,9 C 66 % 1020,4 hPa 0,0 l/m 17,9 km/h (3 Bft) O 83 8,6 C 31,4 km/h (5 Bft) 100 %
12.10.2017 16:28 14,9 C 66 % 1020,4 hPa 0,0 l/m 9,0 km/h (2 Bft) SW 223 8,6 C 18,8 km/h (3 Bft) 96 %
12.10.2017 16:29 14,9 C 66 % 1020,4 hPa 0,0 l/m 13,3 km/h (3 Bft) W-NW 297 8,6 C 25,1 km/h (4 Bft) 100 %
12.10.2017 16:30 14,9 C 66 % 1020,4 hPa 0,0 l/m 17,7 km/h (3 Bft) W-NW 285 8,6 C 28,2 km/h (4 Bft) 97 %
12.10.2017 16:31 14,9 C 66 % 1020,4 hPa 0,0 l/m 11,6 km/h (2 Bft) W-SW 250 8,6 C 25,1 km/h (4 Bft) 100 %
12.10.2017 16:32 14,9 C 66 % 1020,4 hPa 0,0 l/m 9,6 km/h (2 Bft) NW 319 8,6 C 18,8 km/h (3 Bft) 100 %
12.10.2017 16:33 14,9 C 66 % 1020,4 hPa 0,0 l/m 12,4 km/h (3 Bft) W 267 8,6 C 25,1 km/h (4 Bft) 100 %
12.10.2017 16:34 14,9 C 66 % 1020,4 hPa 0,0 l/m 10,1 km/h (2 Bft) NW 314 8,6 C 15,7 km/h (3 Bft) 100 %
12.10.2017 16:35 14,9 C 66 % 1020,4 hPa 0,0 l/m 6,3 km/h (2 Bft) N-NO 32 8,6 C 9,4 km/h (2 Bft) 100 %
12.10.2017 16:36 15,0 C 67 % 1020,4 hPa 0,0 l/m 11,3 km/h (2 Bft) SW 234 8,9 C 25,1 km/h (4 Bft) 100 %
12.10.2017 16:37 15,0 C 66 % 1020,4 hPa 0,0 l/m 9,4 km/h (2 Bft) N-NW 327 8,7 C 15,7 km/h (3 Bft) 100 %
12.10.2017 16:38 15,0 C 66 % 1020,4 hPa 0,0 l/m 14,3 km/h (3 Bft) W 268 8,7 C 18,8 km/h (3 Bft) 100 %
12.10.2017 16:39 15,0 C 66 % 1020,5 hPa 0,0 l/m 11,9 km/h (2 Bft) NW 307 8,7 C 18,8 km/h (3 Bft) 100 %
12.10.2017 16:40 15,0 C 67 % 1020,5 hPa 0,0 l/m 7,2 km/h (2 Bft) W 266 8,9 C 15,7 km/h (3 Bft) 100 %
12.10.2017 16:41 15,0 C 67 % 1020,5 hPa 0,0 l/m 7,5 km/h (2 Bft) W-NW 297 8,9 C 15,7 km/h (3 Bft) 100 %
12.10.2017 16:42 15,0 C 67 % 1020,4 hPa 0,0 l/m 8,9 km/h (2 Bft) NW 323 8,9 C 15,7 km/h (3 Bft) 100 %
12.10.2017 16:43 15,1 C 67 % 1020,4 hPa 0,0 l/m 10,8 km/h (2 Bft) W-SW 245 9,0 C 18,8 km/h (3 Bft) 100 %
12.10.2017 16:45 15,1 C 67 % 1020,4 hPa 0,0 l/m 10,1 km/h (2 Bft) W 259 9,0 C 18,8 km/h (3 Bft) 100 %
12.10.2017 16:46 15,1 C 66 % 1020,4 hPa 0,0 l/m 5,7 km/h (1 Bft) W-SW 258 8,8 C 9,4 km/h (2 Bft) 100 %
12.10.2017 16:47 15,1 C 67 % 1020,5 hPa 0,0 l/m 8,6 km/h (2 Bft) NW 309 9,0 C 12,6 km/h (3 Bft) 100 %
12.10.2017 16:48 15,1 C 67 % 1020,4 hPa 0,0 l/m 8,3 km/h (2 Bft) SW 236 9,0 C 15,7 km/h (3 Bft) 100 %
12.10.2017 16:49 15,1 C 68 % 1020,4 hPa 0,0 l/m 6,3 km/h (2 Bft) S 187 9,2 C 12,6 km/h (3 Bft) 100 %
12.10.2017 16:50 15,1 C 67 % 1020,5 hPa 0,0 l/m 10,0 km/h (2 Bft) W-NW 285 9,0 C 22,0 km/h (4 Bft) 100 %
12.10.2017 16:51 15,1 C 67 % 1020,4 hPa 0,0 l/m 7,7 km/h (2 Bft) W-SW 252 9,0 C 15,7 km/h (3 Bft) 100 %
12.10.2017 16:52 15,1 C 67 % 1020,4 hPa 0,0 l/m 9,1 km/h (2 Bft) N-NW 339 9,0 C 15,7 km/h (3 Bft) 100 %
12.10.2017 16:53 15,1 C 66 % 1020,4 hPa 0,0 l/m 7,7 km/h (2 Bft) W 262 8,8 C 15,7 km/h (3 Bft) 100 %
12.10.2017 16:54 15,1 C 66 % 1020,4 hPa 0,0 l/m 5,3 km/h (1 Bft) SW 227 8,8 C 9,4 km/h (2 Bft) 100 %
12.10.2017 16:55 15,1 C 67 % 1020,4 hPa 0,0 l/m 10,3 km/h (2 Bft) W-NW 300 9,0 C 18,8 km/h (3 Bft) 100 %
12.10.2017 16:56 15,1 C 67 % 1020,4 hPa 0,0 l/m 5,9 km/h (2 Bft) W-NW 292 9,0 C 12,6 km/h (3 Bft) 100 %
12.10.2017 16:57 15,1 C 67 % 1020,4 hPa 0,0 l/m 8,1 km/h (2 Bft) W 259 9,0 C 15,7 km/h (3 Bft) 100 %
12.10.2017 16:58 15,0 C 67 % 1020,4 hPa 0,0 l/m 5,1 km/h (1 Bft) W 259 8,9 C 9,4 km/h (2 Bft) 100 %
12.10.2017 16:59 15,1 C 68 % 1020,3 hPa 0,0 l/m 4,7 km/h (1 Bft) NW 316 9,2 C 6,3 km/h (2 Bft) 100 %
12.10.2017 17:00 15,0 C 68 % 1020,3 hPa 0,0 l/m 8,3 km/h (2 Bft) SW 217 9,1 C 12,6 km/h (3 Bft) 100 %
12.10.2017 17:02 15,0 C 67 % 1020,4 hPa 0,0 l/m 12,2 km/h (2 Bft) W-SW 242 8,9 C 22,0 km/h (4 Bft) 100 %
12.10.2017 17:03 14,9 C 67 % 1020,4 hPa 0,0 l/m 9,8 km/h (2 Bft) W-NW 301 8,8 C 22,0 km/h (4 Bft) 100 %
12.10.2017 17:04 14,9 C 68 % 1020,4 hPa 0,0 l/m 9,8 km/h (2 Bft) W-SW 254 9,0 C 22,0 km/h (4 Bft) 100 %
12.10.2017 17:05 14,9 C 67 % 1020,4 hPa 0,0 l/m 4,2 km/h (1 Bft) NW 313 8,8 C 12,6 km/h (3 Bft) 100 %
12.10.2017 17:06 14,9 C 68 % 1020,4 hPa 0,0 l/m 6,5 km/h (2 Bft) NW 309 9,0 C 15,7 km/h (3 Bft) 100 %
12.10.2017 17:07 14,9 C 68 % 1020,5 hPa 0,0 l/m 8,8 km/h (2 Bft) NW 326 9,0 C 15,7 km/h (3 Bft) 100 %
12.10.2017 17:08 14,9 C 68 % 1020,4 hPa 0,0 l/m 9,4 km/h (2 Bft) SW 226 9,0 C 15,7 km/h (3 Bft) 100 %
12.10.2017 17:09 14,8 C 68 % 1020,4 hPa 0,0 l/m 11,7 km/h (2 Bft) W-NW 290 9,0 C 25,1 km/h (4 Bft) 100 %
12.10.2017 17:10 14,8 C 68 % 1020,4 hPa 0,0 l/m 3,0 km/h (1 Bft) NW 326 9,0 C 6,3 km/h (2 Bft) 100 %
12.10.2017 17:11 14,8 C 68 % 1020,4 hPa 0,0 l/m 5,0 km/h (1 Bft) W-SW 250 9,0 C 9,4 km/h (2 Bft) 100 %
12.10.2017 17:12 14,8 C 68 % 1020,5 hPa 0,0 l/m 3,3 km/h (1 Bft) NW 304 9,0 C 6,3 km/h (2 Bft) 100 %
12.10.2017 17:13 14,7 C 68 % 1020,5 hPa 0,0 l/m 7,1 km/h (2 Bft) W-NW 300 8,9 C 15,7 km/h (3 Bft) 100 %
12.10.2017 17:14 14,7 C 69 % 1020,5 hPa 0,0 l/m 7,8 km/h (2 Bft) S-SO 166 9,1 C 15,7 km/h (3 Bft) 100 %
12.10.2017 17:15 14,7 C 69 % 1020,5 hPa 0,0 l/m 11,6 km/h (2 Bft) NW 312 9,1 C 18,8 km/h (3 Bft) 100 %
12.10.2017 17:16 14,6 C 68 % 1020,5 hPa 0,0 l/m 9,2 km/h (2 Bft) SW 216 8,8 C 18,8 km/h (3 Bft) 100 %
12.10.2017 17:17 14,6 C 69 % 1020,5 hPa 0,0 l/m 4,6 km/h (1 Bft) W 263 9,0 C 9,4 km/h (2 Bft) 100 %
12.10.2017 17:18 14,6 C 68 % 1020,5 hPa 0,0 l/m 4,5 km/h (1 Bft) W 280 8,8 C 9,4 km/h (2 Bft) 100 %
12.10.2017 17:19 14,6 C 69 % 1020,5 hPa 0,0 l/m 7,8 km/h (2 Bft) SW 221 9,0 C 12,6 km/h (3 Bft) 100 %
12.10.2017 17:20 14,6 C 69 % 1020,5 hPa 0,0 l/m 9,1 km/h (2 Bft) W-NW 302 9,0 C 15,7 km/h (3 Bft) 96 %
12.10.2017 17:21 14,5 C 69 % 1020,5 hPa 0,0 l/m 11,6 km/h (2 Bft) W-SW 243 8,9 C 25,1 km/h (4 Bft) 100 %
12.10.2017 17:22 14,5 C 69 % 1020,5 hPa 0,0 l/m 8,5 km/h (2 Bft) W-SW 238 8,9 C 15,7 km/h (3 Bft) 93 %
12.10.2017 17:23 14,4 C 68 % 1020,5 hPa 0,0 l/m 10,3 km/h (2 Bft) W-NW 286 8,6 C 22,0 km/h (4 Bft) 100 %
12.10.2017 17:24 14,4 C 68 % 1020,5 hPa 0,0 l/m 7,7 km/h (2 Bft) SW 219 8,6 C 18,8 km/h (3 Bft) 96 %
12.10.2017 17:25 14,4 C 69 % 1020,4 hPa 0,0 l/m 6,4 km/h (2 Bft) W-SW 254 8,8 C 9,4 km/h (2 Bft) 100 %
12.10.2017 17:26 14,4 C 69 % 1020,4 hPa 0,0 l/m 6,5 km/h (2 Bft) NW 316 8,8 C 12,6 km/h (3 Bft) 97 %
12.10.2017 17:27 14,4 C 69 % 1020,5 hPa 0,0 l/m 5,5 km/h (1 Bft) W-SW 258 8,8 C 12,6 km/h (3 Bft) 96 %
12.10.2017 17:28 14,4 C 70 % 1020,5 hPa 0,0 l/m 1,4 km/h (1 Bft) W-NW 300 9,0 C 6,3 km/h (2 Bft) 100 %
12.10.2017 17:29 14,4 C 70 % 1020,5 hPa 0,0 l/m 8,5 km/h (2 Bft) NW 308 9,0 C 15,7 km/h (3 Bft) 96 %
12.10.2017 17:30 14,4 C 70 % 1020,5 hPa 0,0 l/m 7,1 km/h (2 Bft) W 276 9,0 C 9,4 km/h (2 Bft) 100 %
12.10.2017 17:31 14,4 C 70 % 1020,5 hPa 0,0 l/m 8,7 km/h (2 Bft) W-NW 302 9,0 C 15,7 km/h (3 Bft) 100 %
12.10.2017 17:32 14,4 C 70 % 1020,5 hPa 0,0 l/m 6,1 km/h (2 Bft) SW 231 9,0 C 12,6 km/h (3 Bft) 100 %
12.10.2017 17:33 14,3 C 70 % 1020,5 hPa 0,0 l/m 6,0 km/h (2 Bft) S-SW 205 8,9 C 9,4 km/h (2 Bft) 100 %
12.10.2017 17:34 14,3 C 70 % 1020,5 hPa 0,0 l/m 7,8 km/h (2 Bft) W-NW 302 8,9 C 15,7 km/h (3 Bft) 100 %
12.10.2017 17:35 14,3 C 70 % 1020,6 hPa 0,0 l/m 5,1 km/h (1 Bft) W-NW 291 8,9 C 9,4 km/h (2 Bft) 100 %
12.10.2017 17:36 14,3 C 71 % 1020,6 hPa 0,0 l/m 4,3 km/h (1 Bft) N-NW 340 9,1 C 6,3 km/h (2 Bft) 100 %
12.10.2017 17:37 14,3 C 70 % 1020,6 hPa 0,0 l/m 7,3 km/h (2 Bft) W-NW 286 8,9 C 12,6 km/h (3 Bft) 100 %
12.10.2017 17:38 14,2 C 70 % 1020,6 hPa 0,0 l/m 6,7 km/h (2 Bft) N-NW 330 8,8 C 15,7 km/h (3 Bft) 100 %
12.10.2017 17:39 14,2 C 71 % 1020,6 hPa 0,0 l/m 8,1 km/h (2 Bft) W-SW 238 9,0 C 15,7 km/h (3 Bft) 100 %
12.10.2017 17:40 14,2 C 71 % 1020,7 hPa 0,0 l/m 4,4 km/h (1 Bft) W-NW 293 9,0 C 9,4 km/h (2 Bft) 100 %
12.10.2017 17:41 14,2 C 71 % 1020,7 hPa 0,0 l/m 3,4 km/h (1 Bft) W-NW 295 9,0 C 6,3 km/h (2 Bft) 100 %
12.10.2017 17:42 14,2 C 71 % 1020,7 hPa 0,0 l/m 6,9 km/h (2 Bft) W-SW 252 9,0 C 15,7 km/h (3 Bft) 100 %
12.10.2017 17:43 14,1 C 71 % 1020,7 hPa 0,0 l/m 7,5 km/h (2 Bft) NW 307 8,9 C 15,7 km/h (3 Bft) 100 %
12.10.2017 17:44 14,1 C 70 % 1020,6 hPa 0,0 l/m 13,7 km/h (3 Bft) NW 304 8,7 C 28,2 km/h (4 Bft) 100 %
12.10.2017 17:45 14,1 C 71 % 1020,7 hPa 0,0 l/m 7,5 km/h (2 Bft) W 271 8,9 C 12,6 km/h (3 Bft) 100 %
12.10.2017 17:46 14,1 C 71 % 1020,7 hPa 0,0 l/m 7,8 km/h (2 Bft) W-NW 299 8,9 C 12,6 km/h (3 Bft) 100 %
12.10.2017 17:47 14,1 C 71 % 1020,7 hPa 0,0 l/m 7,5 km/h (2 Bft) SW 223 8,9 C 12,6 km/h (3 Bft) 100 %
12.10.2017 17:48 14,0 C 71 % 1020,7 hPa 0,0 l/m 5,6 km/h (1 Bft) NW 320 8,8 C 12,6 km/h (3 Bft) 100 %
12.10.2017 17:49 14,0 C 71 % 1020,7 hPa 0,0 l/m 5,8 km/h (2 Bft) W-SW 255 8,8 C 9,4 km/h (2 Bft) 100 %
12.10.2017 17:50 14,0 C 72 % 1020,8 hPa 0,0 l/m 4,2 km/h (1 Bft) W 279 9,0 C 9,4 km/h (2 Bft) 100 %
12.10.2017 17:51 14,0 C 71 % 1020,8 hPa 0,0 l/m 8,4 km/h (2 Bft) SW 221 8,8 C 18,8 km/h (3 Bft) 100 %
12.10.2017 17:52 13,9 C 71 % 1020,7 hPa 0,0 l/m 12,1 km/h (2 Bft) W-NW 300 8,7 C 18,8 km/h (3 Bft) 100 %
12.10.2017 17:53 13,9 C 71 % 1020,8 hPa 0,0 l/m 10,3 km/h (2 Bft) W-SW 255 8,7 C 18,8 km/h (3 Bft) 100 %
12.10.2017 17:54 13,9 C 70 % 1020,8 hPa 0,0 l/m 15,2 km/h (3 Bft) W 270 8,5 C 28,2 km/h (4 Bft) 100 %
12.10.2017 17:55 13,9 C 70 % 1020,8 hPa 0,0 l/m 11,1 km/h (2 Bft) W-NW 299 8,5 C 15,7 km/h (3 Bft) 100 %
12.10.2017 17:56 13,9 C 71 % 1020,7 hPa 0,0 l/m 7,5 km/h (2 Bft) NW 311 8,7 C 12,6 km/h (3 Bft) 100 %
12.10.2017 17:57 13,9 C 71 % 1020,7 hPa 0,0 l/m 11,6 km/h (2 Bft) S-SW 207 8,7 C 15,7 km/h (3 Bft) 100 %
12.10.2017 17:58 13,9 C 71 % 1020,8 hPa 0,0 l/m 12,2 km/h (2 Bft) N-NW 338 8,7 C 18,8 km/h (3 Bft) 100 %
12.10.2017 17:59 13,9 C 71 % 1020,8 hPa 0,0 l/m 9,7 km/h (2 Bft) SW 223 8,7 C 18,8 km/h (3 Bft) 100 %
12.10.2017 18:00 13,9 C 71 % 1020,8 hPa 0,0 l/m 5,9 km/h (2 Bft) W 261 8,7 C 9,4 km/h (2 Bft) 100 %
12.10.2017 18:02 13,9 C 71 % 1020,9 hPa 0,0 l/m 5,2 km/h (1 Bft) W 270 8,7 C 12,6 km/h (3 Bft) 100 %
12.10.2017 18:03 13,9 C 71 % 1020,9 hPa 0,0 l/m 5,9 km/h (2 Bft) NW 311 8,7 C 12,6 km/h (3 Bft) 100 %
12.10.2017 18:04 13,9 C 71 % 1021,0 hPa 0,0 l/m 9,7 km/h (2 Bft) W-SW 258 8,7 C 15,7 km/h (3 Bft) 100 %
12.10.2017 18:05 13,9 C 71 % 1021,0 hPa 0,0 l/m 8,5 km/h (2 Bft) NW 317 8,7 C 18,8 km/h (3 Bft) 100 %
12.10.2017 18:06 13,8 C 71 % 1021,0 hPa 0,0 l/m 9,7 km/h (2 Bft) NW 311 8,6 C 18,8 km/h (3 Bft) 100 %
12.10.2017 18:07 13,8 C 71 % 1021,0 hPa 0,0 l/m 10,6 km/h (2 Bft) W 259 8,6 C 15,7 km/h (3 Bft) 100 %
12.10.2017 18:08 13,8 C 71 % 1021,0 hPa 0,0 l/m 6,4 km/h (2 Bft) NW 320 8,6 C 9,4 km/h (2 Bft) 100 %
12.10.2017 18:09 13,8 C 72 % 1021,0 hPa 0,0 l/m 5,0 km/h (1 Bft) W 265 8,8 C 12,6 km/h (3 Bft) 100 %
12.10.2017 18:10 13,8 C 72 % 1021,1 hPa 0,0 l/m 4,2 km/h (1 Bft) W 261 8,8 C 9,4 km/h (2 Bft) 100 %
12.10.2017 18:11 13,8 C 72 % 1021,1 hPa 0,0 l/m 6,6 km/h (2 Bft) W-NW 292 8,8 C 15,7 km/h (3 Bft) 100 %
12.10.2017 18:12 13,7 C 72 % 1021,1 hPa 0,0 l/m 6,3 km/h (2 Bft) NW 309 8,7 C 9,4 km/h (2 Bft) 100 %
12.10.2017 18:13 13,7 C 72 % 1021,1 hPa 0,0 l/m 3,8 km/h (1 Bft) NW 306 8,7 C 9,4 km/h (2 Bft) 100 %
12.10.2017 18:14 13,7 C 72 % 1021,1 hPa 0,0 l/m 5,0 km/h (1 Bft) W-NW 302 8,7 C 9,4 km/h (2 Bft) 100 %
12.10.2017 18:15 13,7 C 72 % 1021,1 hPa 0,0 l/m 4,2 km/h (1 Bft) NW 319 8,7 C 6,3 km/h (2 Bft) 100 %
12.10.2017 18:16 13,7 C 73 % 1021,1 hPa 0,0 l/m 5,6 km/h (1 Bft) W-NW 283 8,9 C 9,4 km/h (2 Bft) 100 %
12.10.2017 18:17 13,7 C 73 % 1021,1 hPa 0,0 l/m 8,2 km/h (2 Bft) W-NW 298 8,9 C 15,7 km/h (3 Bft) 96 %
12.10.2017 18:18 13,6 C 73 % 1021,1 hPa 0,0 l/m 4,6 km/h (1 Bft) W-NW 302 8,9 C 9,4 km/h (2 Bft) 96 %
12.10.2017 18:19 13,6 C 73 % 1021,1 hPa 0,0 l/m 4,8 km/h (1 Bft) NW 312 8,9 C 6,3 km/h (2 Bft) 96 %
12.10.2017 18:20 13,6 C 73 % 1021,1 hPa 0,0 l/m 4,5 km/h (1 Bft) W-NW 295 8,9 C 6,3 km/h (2 Bft) 100 %
12.10.2017 18:21 13,6 C 73 % 1021,2 hPa 0,0 l/m 2,4 km/h (1 Bft) S-SW 207 8,9 C 6,3 km/h (2 Bft) 94 %
12.10.2017 18:22 13,5 C 73 % 1021,2 hPa 0,0 l/m 3,3 km/h (1 Bft) W-SW 252 8,8 C 6,3 km/h (2 Bft) 100 %
12.10.2017 18:23 13,5 C 74 % 1021,2 hPa 0,0 l/m 7,8 km/h (2 Bft) S-SW 212 9,0 C 15,7 km/h (3 Bft) 92 %
12.10.2017 18:24 13,5 C 74 % 1021,2 hPa 0,0 l/m 3,5 km/h (1 Bft) W-NW 291 9,0 C 9,4 km/h (2 Bft) 100 %
12.10.2017 18:25 13,4 C 73 % 1021,2 hPa 0,0 l/m 9,3 km/h (2 Bft) NW 304 8,7 C 12,6 km/h (3 Bft) 96 %
12.10.2017 18:26 13,4 C 73 % 1021,2 hPa 0,0 l/m 8,1 km/h (2 Bft) NW 307 8,7 C 18,8 km/h (3 Bft) 96 %
12.10.2017 18:27 13,4 C 73 % 1021,2 hPa 0,0 l/m 7,7 km/h (2 Bft) W-NW 297 8,7 C 12,6 km/h (3 Bft) 100 %
12.10.2017 18:28 13,4 C 73 % 1021,2 hPa 0,0 l/m 3,9 km/h (1 Bft) W 268 8,7 C 6,3 km/h (2 Bft) 92 %
12.10.2017 18:29 13,4 C 73 % 1021,2 hPa 0,0 l/m 3,1 km/h (1 Bft) NW 305 8,7 C 6,3 km/h (2 Bft) 100 %
12.10.2017 18:30 13,4 C 73 % 1021,2 hPa 0,0 l/m 4,5 km/h (1 Bft) W 274 8,7 C 6,3 km/h (2 Bft) 97 %
12.10.2017 18:31 13,4 C 74 % 1021,2 hPa 0,0 l/m 1,9 km/h (1 Bft) W-NW 288 8,9 C 3,1 km/h (1 Bft) 100 %
12.10.2017 18:32 13,4 C 74 % 1021,2 hPa 0,0 l/m 4,7 km/h (1 Bft) W-NW 300 8,9 C 6,3 km/h (2 Bft) 100 %
12.10.2017 18:33 13,3 C 74 % 1021,2 hPa 0,0 l/m 6,5 km/h (2 Bft) NW 312 8,8 C 9,4 km/h (2 Bft) 100 %
12.10.2017 18:34 13,3 C 74 % 1021,2 hPa 0,0 l/m 5,1 km/h (1 Bft) W-NW 297 8,8 C 12,6 km/h (3 Bft) 100 %
12.10.2017 18:35 13,3 C 74 % 1021,3 hPa 0,0 l/m 4,2 km/h (1 Bft) W 264 8,8 C 6,3 km/h (2 Bft) 100 %
12.10.2017 18:36 13,3 C 74 % 1021,3 hPa 0,0 l/m 5,4 km/h (1 Bft) W-NW 295 8,8 C 9,4 km/h (2 Bft) 100 %
12.10.2017 18:37 13,3 C 74 % 1021,3 hPa 0,0 l/m 3,4 km/h (1 Bft) W-SW 239 8,8 C 6,3 km/h (2 Bft) 100 %
12.10.2017 18:38 13,3 C 74 % 1021,3 hPa 0,0 l/m 4,1 km/h (1 Bft) W-NW 288 8,8 C 9,4 km/h (2 Bft) 100 %
12.10.2017 18:39 13,2 C 74 % 1021,3 hPa 0,0 l/m 2,2 km/h (1 Bft) NW 305 8,7 C 3,1 km/h (1 Bft) 100 %
12.10.2017 18:40 13,2 C 75 % 1021,4 hPa 0,0 l/m 3,7 km/h (1 Bft) NW 306 8,9 C 6,3 km/h (2 Bft) 100 %
12.10.2017 18:41 13,2 C 75 % 1021,4 hPa 0,0 l/m 2,1 km/h (1 Bft) W-SW 237 8,9 C 3,1 km/h (1 Bft) 100 %
12.10.2017 18:42 13,2 C 75 % 1021,3 hPa 0,0 l/m 3,0 km/h (1 Bft) NW 314 8,9 C 6,3 km/h (2 Bft) 100 %
12.10.2017 18:43 13,1 C 75 % 1021,3 hPa 0,0 l/m 2,3 km/h (1 Bft) W-NW 293 8,8 C 6,3 km/h (2 Bft) 100 %
12.10.2017 18:44 13,1 C 75 % 1021,4 hPa 0,0 l/m 2,8 km/h (1 Bft) W-NW 295 8,8 C 6,3 km/h (2 Bft) 100 %
12.10.2017 18:45 13,1 C 75 % 1021,4 hPa 0,0 l/m 4,1 km/h (1 Bft) W-NW 295 8,8 C 6,3 km/h (2 Bft) 100 %
12.10.2017 18:46 13,1 C 75 % 1021,4 hPa 0,0 l/m 3,0 km/h (1 Bft) NW 315 8,8 C 6,3 km/h (2 Bft) 100 %
12.10.2017 18:47 13,1 C 75 % 1021,4 hPa 0,0 l/m 1,6 km/h (1 Bft) NW 306 8,8 C 3,1 km/h (1 Bft) 100 %
12.10.2017 18:48 13,1 C 75 % 1021,4 hPa 0,0 l/m 3,3 km/h (1 Bft) SW 214 8,8 C 6,3 km/h (2 Bft) 100 %
12.10.2017 18:49 13,0 C 75 % 1021,4 hPa 0,0 l/m 1,3 km/h (1 Bft) S-SO 164 8,7 C 3,1 km/h (1 Bft) 100 %
12.10.2017 18:50 13,0 C 75 % 1021,4 hPa 0,0 l/m 3,0 km/h (1 Bft) W-SW 248 8,7 C 6,3 km/h (2 Bft) 100 %
12.10.2017 18:51 13,0 C 75 % 1021,4 hPa 0,0 l/m 1,2 km/h (1 Bft) W 260 8,7 C 3,1 km/h (1 Bft) 100 %
12.10.2017 18:52 12,9 C 76 % 1021,4 hPa 0,0 l/m 2,2 km/h (1 Bft) W 263 8,8 C 6,3 km/h (2 Bft) 100 %
12.10.2017 18:53 12,9 C 76 % 1021,4 hPa 0,0 l/m 3,3 km/h (1 Bft) W 278 8,8 C 9,4 km/h (2 Bft) 100 %
12.10.2017 18:54 12,9 C 76 % 1021,4 hPa 0,0 l/m 5,1 km/h (1 Bft) W-SW 238 8,8 C 6,3 km/h (2 Bft) 100 %
12.10.2017 18:55 12,9 C 76 % 1021,4 hPa 0,0 l/m 1,2 km/h (1 Bft) W 275 8,8 C 3,1 km/h (1 Bft) 100 %
12.10.2017 18:56 12,9 C 76 % 1021,4 hPa 0,0 l/m 0,6 km/h (0 Bft) W 275 8,8 C 3,1 km/h (1 Bft) 100 %
12.10.2017 18:57 12,9 C 76 % 1021,4 hPa 0,0 l/m 0,3 km/h (0 Bft) S-SW 213 8,8 C 3,1 km/h (1 Bft) 100 %
12.10.2017 18:58 12,8 C 76 % 1021,4 hPa 0,0 l/m 0,3 km/h (0 Bft) W 271 8,7 C 3,1 km/h (1 Bft) 100 %
12.10.2017 18:59 12,8 C 76 % 1021,4 hPa 0,0 l/m 1,0 km/h (0 Bft) W-SW 248 8,7 C 3,1 km/h (1 Bft) 100 %
12.10.2017 19:00 12,8 C 76 % 1021,4 hPa 0,0 l/m 0,8 km/h (0 Bft) W 262 8,7 C 3,1 km/h (1 Bft) 100 %
12.10.2017 19:02 12,8 C 77 % 1021,4 hPa 0,0 l/m 0,7 km/h (0 Bft) W 262 8,9 C 3,1 km/h (1 Bft) 100 %
12.10.2017 19:03 12,7 C 77 % 1021,5 hPa 0,0 l/m 0,8 km/h (0 Bft) W 276 8,8 C 3,1 km/h (1 Bft) 100 %
12.10.2017 19:04 12,7 C 77 % 1021,5 hPa 0,0 l/m 0,5 km/h (0 Bft) W-NW 295 8,8 C 3,1 km/h (1 Bft) 100 %
12.10.2017 19:05 12,7 C 77 % 1021,5 hPa 0,0 l/m 1,2 km/h (1 Bft) W 275 8,8 C 3,1 km/h (1 Bft) 100 %
12.10.2017 19:06 12,7 C 77 % 1021,5 hPa 0,0 l/m 0,0 km/h (0 Bft) W 274 8,8 C 0,0 km/h (0 Bft) 100 %
12.10.2017 19:07 12,7 C 77 % 1021,5 hPa 0,0 l/m 0,0 km/h (0 Bft) SW 236 8,8 C 0,0 km/h (0 Bft) 96 %
12.10.2017 19:08 12,6 C 77 % 1021,5 hPa 0,0 l/m 0,0 km/h (0 Bft) SW 236 8,7 C 0,0 km/h (0 Bft) 100 %
12.10.2017 19:09 12,6 C 77 % 1021,6 hPa 0,0 l/m 0,2 km/h (0 Bft) W-SW 240 8,7 C 3,1 km/h (1 Bft) 100 %
12.10.2017 19:10 12,6 C 77 % 1021,5 hPa 0,0 l/m 0,0 km/h (0 Bft) W-SW 240 8,7 C 0,0 km/h (0 Bft) 100 %
12.10.2017 19:11 12,6 C 78 % 1021,5 hPa 0,0 l/m 0,0 km/h (0 Bft) W-SW 258 8,9 C 0,0 km/h (0 Bft) 100 %
12.10.2017 19:12 12,6 C 78 % 1021,5 hPa 0,0 l/m 0,1 km/h (0 Bft) W-SW 258 8,9 C 3,1 km/h (1 Bft) 100 %
12.10.2017 19:13 12,6 C 78 % 1021,5 hPa 0,0 l/m 0,0 km/h (0 Bft) W-SW 258 8,9 C 0,0 km/h (0 Bft) 100 %
12.10.2017 19:14 12,5 C 78 % 1021,5 hPa 0,0 l/m 0,1 km/h (0 Bft) W 259 8,8 C 3,1 km/h (1 Bft) 100 %
12.10.2017 19:15 12,5 C 78 % 1021,5 hPa 0,0 l/m 0,0 km/h (0 Bft) W 259 8,8 C 0,0 km/h (0 Bft) 100 %
12.10.2017 19:16 12,5 C 78 % 1021,5 hPa 0,0 l/m 0,0 km/h (0 Bft) W 259 8,8 C 0,0 km/h (0 Bft) 100 %
12.10.2017 19:17 12,4 C 78 % 1021,5 hPa 0,0 l/m 0,1 km/h (0 Bft) W 259 8,7 C 3,1 km/h (1 Bft) 100 %
12.10.2017 19:18 12,4 C 78 % 1021,5 hPa 0,0 l/m 0,1 km/h (0 Bft) W 268 8,7 C 3,1 km/h (1 Bft) 100 %
12.10.2017 19:19 12,4 C 78 % 1021,6 hPa 0,0 l/m 0,0 km/h (0 Bft) W 268 8,7 C 0,0 km/h (0 Bft) 100 %
12.10.2017 19:20 12,4 C 78 % 1021,6 hPa 0,0 l/m 0,4 km/h (0 Bft) W 261 8,7 C 3,1 km/h (1 Bft) 100 %
12.10.2017 19:21 12,4 C 78 % 1021,6 hPa 0,0 l/m 1,6 km/h (1 Bft) W 281 8,7 C 3,1 km/h (1 Bft) 100 %
12.10.2017 19:22 12,3 C 79 % 1021,6 hPa 0,0 l/m 0,1 km/h (0 Bft) W 259 8,8 C 3,1 km/h (1 Bft) 100 %
12.10.2017 19:23 12,3 C 79 % 1021,6 hPa 0,0 l/m 1,6 km/h (1 Bft) W-NW 301 8,8 C 6,3 km/h (2 Bft) 100 %
12.10.2017 19:24 12,3 C 78 % 1021,7 hPa 0,0 l/m 3,9 km/h (1 Bft) W-NW 287 8,6 C 6,3 km/h (2 Bft) 100 %
12.10.2017 19:25 12,3 C 79 % 1021,7 hPa 0,0 l/m 0,3 km/h (0 Bft) W 268 8,8 C 3,1 km/h (1 Bft) 96 %
12.10.2017 19:26 12,3 C 79 % 1021,7 hPa 0,0 l/m 0,5 km/h (0 Bft) SW 231 8,8 C 3,1 km/h (1 Bft) 96 %
12.10.2017 19:27 12,3 C 78 % 1021,7 hPa 0,0 l/m 0,0 km/h (0 Bft) SW 231 8,6 C 0,0 km/h (0 Bft) 100 %
12.10.2017 19:28 12,3 C 79 % 1021,7 hPa 0,0 l/m 0,0 km/h (0 Bft) W-SW 245 8,8 C 0,0 km/h (0 Bft) 100 %
12.10.2017 19:29 12,3 C 79 % 1021,6 hPa 0,0 l/m 0,0 km/h (0 Bft) W-SW 245 8,8 C 0,0 km/h (0 Bft) 96 %
12.10.2017 19:30 12,3 C 79 % 1021,6 hPa 0,0 l/m 1,1 km/h (1 Bft) W 271 8,8 C 3,1 km/h (1 Bft) 100 %
12.10.2017 19:31 12,3 C 79 % 1021,7 hPa 0,0 l/m 0,9 km/h (0 Bft) W-NW 285 8,8 C 3,1 km/h (1 Bft) 96 %
12.10.2017 19:32 12,3 C 79 % 1021,7 hPa 0,0 l/m 0,1 km/h (0 Bft) W-NW 285 8,8 C 3,1 km/h (1 Bft) 100 %
12.10.2017 19:33 12,3 C 79 % 1021,7 hPa 0,0 l/m 0,0 km/h (0 Bft) W-NW 285 8,8 C 0,0 km/h (0 Bft) 96 %
12.10.2017 19:34 12,3 C 79 % 1021,7 hPa 0,0 l/m 0,1 km/h (0 Bft) W 278 8,8 C 3,1 km/h (1 Bft) 100 %
12.10.2017 19:35 12,2 C 79 % 1021,7 hPa 0,0 l/m 0,1 km/h (0 Bft) W 278 8,7 C 3,1 km/h (1 Bft) 96 %
12.10.2017 19:36 12,2 C 79 % 1021,7 hPa 0,0 l/m 0,0 km/h (0 Bft) W 278 8,7 C 0,0 km/h (0 Bft) 96 %
12.10.2017 19:37 12,2 C 79 % 1021,7 hPa 0,0 l/m 0,1 km/h (0 Bft) W-SW 252 8,7 C 3,1 km/h (1 Bft) 100 %
12.10.2017 19:38 12,2 C 79 % 1021,7 hPa 0,0 l/m 0,0 km/h (0 Bft) W-SW 250 8,7 C 0,0 km/h (0 Bft) 96 %
12.10.2017 19:39 12,2 C 79 % 1021,7 hPa 0,0 l/m 0,0 km/h (0 Bft) W-SW 250 8,7 C 0,0 km/h (0 Bft) 100 %
12.10.2017 19:40 12,2 C 80 % 1021,7 hPa 0,0 l/m 0,1 km/h (0 Bft) W-SW 250 8,9 C 3,1 km/h (1 Bft) 96 %
12.10.2017 19:41 12,1 C 80 % 1021,7 hPa 0,0 l/m 0,0 km/h (0 Bft) W-SW 250 8,8 C 0,0 km/h (0 Bft) 100 %
12.10.2017 19:42 12,1 C 80 % 1021,7 hPa 0,0 l/m 0,0 km/h (0 Bft) W-NW 287 8,8 C 0,0 km/h (0 Bft) 100 %
12.10.2017 19:43 12,1 C 80 % 1021,7 hPa 0,0 l/m 0,0 km/h (0 Bft) W-NW 286 8,8 C 0,0 km/h (0 Bft) 100 %
12.10.2017 19:44 12,1 C 80 % 1021,8 hPa 0,0 l/m 0,2 km/h (0 Bft) W-NW 286 8,8 C 3,1 km/h (1 Bft) 100 %
12.10.2017 19:45 12,0 C 80 % 1021,7 hPa 0,0 l/m 0,2 km/h (0 Bft) W-NW 290 8,7 C 3,1 km/h (1 Bft) 100 %
12.10.2017 19:46 12,0 C 80 % 1021,7 hPa 0,0 l/m 0,0 km/h (0 Bft) W-NW 290 8,7 C 0,0 km/h (0 Bft) 100 %
12.10.2017 19:47 11,9 C 80 % 1021,8 hPa 0,0 l/m 0,0 km/h (0 Bft) W-NW 290 8,6 C 0,0 km/h (0 Bft) 100 %
12.10.2017 19:48 11,9 C 80 % 1021,8 hPa 0,0 l/m 0,0 km/h (0 Bft) W 263 8,6 C 0,0 km/h (0 Bft) 100 %
12.10.2017 19:49 11,9 C 80 % 1021,8 hPa 0,0 l/m 0,0 km/h (0 Bft) W 263 8,6 C 0,0 km/h (0 Bft) 100 %
12.10.2017 19:50 11,9 C 80 % 1021,8 hPa 0,0 l/m 0,0 km/h (0 Bft) W 263 8,6 C 0,0 km/h (0 Bft) 100 %
12.10.2017 19:51 11,9 C 80 % 1021,8 hPa 0,0 l/m 0,4 km/h (0 Bft) SW 231 8,6 C 3,1 km/h (1 Bft) 100 %
12.10.2017 19:52 11,9 C 81 % 1021,8 hPa 0,0 l/m 0,2 km/h (0 Bft) SW 232 8,7 C 3,1 km/h (1 Bft) 100 %
12.10.2017 19:53 11,8 C 81 % 1021,8 hPa 0,0 l/m 0,0 km/h (0 Bft) SW 232 8,6 C 0,0 km/h (0 Bft) 100 %
12.10.2017 19:54 11,8 C 81 % 1021,8 hPa 0,0 l/m 2,4 km/h (1 Bft) SW 227 8,6 C 6,3 km/h (2 Bft) 100 %
12.10.2017 19:55 11,8 C 81 % 1021,9 hPa 0,0 l/m 0,4 km/h (0 Bft) SW 221 8,6 C 3,1 km/h (1 Bft) 100 %
12.10.2017 19:56 11,8 C 81 % 1021,9 hPa 0,0 l/m 0,2 km/h (0 Bft) SW 222 8,6 C 3,1 km/h (1 Bft) 100 %
12.10.2017 19:57 11,8 C 81 % 1021,8 hPa 0,0 l/m 0,0 km/h (0 Bft) SW 222 8,6 C 0,0 km/h (0 Bft) 100 %
12.10.2017 19:58 11,8 C 81 % 1021,8 hPa 0,0 l/m 0,0 km/h (0 Bft) SW 222 8,6 C 0,0 km/h (0 Bft) 100 %
12.10.2017 19:59 11,8 C 81 % 1021,9 hPa 0,0 l/m 0,7 km/h (0 Bft) W-NW 283 8,6 C 3,1 km/h (1 Bft) 100 %
12.10.2017 20:00 11,8 C 81 % 1021,9 hPa 0,0 l/m 0,0 km/h (0 Bft) W-NW 283 8,6 C 0,0 km/h (0 Bft) 100 %
12.10.2017 20:02 11,8 C 81 % 1021,9 hPa 0,0 l/m 0,4 km/h (0 Bft) W-SW 241 8,6 C 3,1 km/h (1 Bft) 100 %
12.10.2017 20:03 11,8 C 81 % 1022,0 hPa 0,0 l/m 0,0 km/h (0 Bft) W 276 8,6 C 0,0 km/h (0 Bft) 100 %
12.10.2017 20:04 11,8 C 81 % 1022,0 hPa 0,0 l/m 0,0 km/h (0 Bft) W 276 8,6 C 0,0 km/h (0 Bft) 100 %
12.10.2017 20:05 11,7 C 81 % 1022,0 hPa 0,0 l/m 0,0 km/h (0 Bft) W 276 8,5 C 0,0 km/h (0 Bft) 100 %
12.10.2017 20:06 11,7 C 81 % 1021,9 hPa 0,0 l/m 0,0 km/h (0 Bft) W 276 8,5 C 0,0 km/h (0 Bft) 100 %
12.10.2017 20:07 11,7 C 81 % 1021,9 hPa 0,0 l/m 0,9 km/h (0 Bft) W-NW 284 8,5 C 3,1 km/h (1 Bft) 100 %
12.10.2017 20:08 11,7 C 81 % 1022,0 hPa 0,0 l/m 1,9 km/h (1 Bft) W-NW 302 8,5 C 3,1 km/h (1 Bft) 100 %
12.10.2017 20:09 11,7 C 81 % 1022,0 hPa 0,0 l/m 0,0 km/h (0 Bft) W-NW 302 8,5 C 0,0 km/h (0 Bft) 100 %
12.10.2017 20:10 11,7 C 81 % 1022,0 hPa 0,0 l/m 0,0 km/h (0 Bft) W-NW 302 8,5 C 0,0 km/h (0 Bft) 100 %
12.10.2017 20:11 11,7 C 81 % 1022,0 hPa 0,0 l/m 2,1 km/h (1 Bft) W 269 8,5 C 6,3 km/h (2 Bft) 100 %
12.10.2017 20:12 11,7 C 81 % 1022,0 hPa 0,0 l/m 0,1 km/h (0 Bft) S-SW 210 8,5 C 3,1 km/h (1 Bft) 100 %
12.10.2017 20:13 11,7 C 81 % 1022,0 hPa 0,0 l/m 0,0 km/h (0 Bft) S-SW 211 8,5 C 0,0 km/h (0 Bft) 100 %
12.10.2017 20:14 11,7 C 81 % 1022,0 hPa 0,0 l/m 0,6 km/h (0 Bft) W-NW 285 8,5 C 3,1 km/h (1 Bft) 100 %
12.10.2017 20:15 11,7 C 81 % 1022,1 hPa 0,0 l/m 0,8 km/h (0 Bft) W-NW 288 8,5 C 3,1 km/h (1 Bft) 100 %
12.10.2017 20:16 11,7 C 81 % 1022,0 hPa 0,0 l/m 0,0 km/h (0 Bft) W-NW 288 8,5 C 0,0 km/h (0 Bft) 100 %
12.10.2017 20:17 11,7 C 81 % 1022,0 hPa 0,0 l/m 0,0 km/h (0 Bft) W-NW 288 8,5 C 0,0 km/h (0 Bft) 100 %
12.10.2017 20:18 11,7 C 82 % 1022,0 hPa 0,0 l/m 0,1 km/h (0 Bft) W 259 8,7 C 3,1 km/h (1 Bft) 100 %
12.10.2017 20:19 11,7 C 82 % 1022,2 hPa 0,0 l/m 1,8 km/h (1 Bft) SW 234 8,7 C 6,3 km/h (2 Bft) 100 %
12.10.2017 20:20 11,7 C 82 % 1022,2 hPa 0,0 l/m 0,2 km/h (0 Bft) SW 235 8,7 C 3,1 km/h (1 Bft) 100 %
12.10.2017 20:21 11,7 C 82 % 1022,1 hPa 0,0 l/m 0,0 km/h (0 Bft) SW 233 8,7 C 0,0 km/h (0 Bft) 100 %
12.10.2017 20:22 11,6 C 82 % 1022,1 hPa 0,0 l/m 0,0 km/h (0 Bft) W-NW 295 8,6 C 0,0 km/h (0 Bft) 100 %
12.10.2017 20:23 11,6 C 82 % 1022,2 hPa 0,0 l/m 4,3 km/h (1 Bft) N-NW 333 8,6 C 9,4 km/h (2 Bft) 100 %
12.10.2017 20:24 11,6 C 82 % 1022,2 hPa 0,0 l/m 3,9 km/h (1 Bft) W-NW 297 8,6 C 9,4 km/h (2 Bft) 100 %
12.10.2017 20:25 11,7 C 82 % 1022,2 hPa 0,0 l/m 0,0 km/h (0 Bft) W-NW 296 8,7 C 0,0 km/h (0 Bft) 100 %
12.10.2017 20:26 11,7 C 82 % 1022,2 hPa 0,0 l/m 0,0 km/h (0 Bft) W-NW 296 8,7 C 0,0 km/h (0 Bft) 100 %
12.10.2017 20:27 11,7 C 82 % 1022,1 hPa 0,0 l/m 0,0 km/h (0 Bft) W-NW 295 8,7 C 0,0 km/h (0 Bft) 100 %
12.10.2017 20:28 11,7 C 82 % 1022,1 hPa 0,0 l/m 0,8 km/h (0 Bft) W-SW 255 8,7 C 3,1 km/h (1 Bft) 100 %
12.10.2017 20:29 11,7 C 82 % 1022,1 hPa 0,0 l/m 2,0 km/h (1 Bft) W 281 8,7 C 6,3 km/h (2 Bft) 100 %
12.10.2017 20:30 11,7 C 82 % 1022,1 hPa 0,0 l/m 0,5 km/h (0 Bft) W-NW 283 8,7 C 3,1 km/h (1 Bft) 100 %
12.10.2017 20:31 11,7 C 82 % 1022,2 hPa 0,0 l/m 2,7 km/h (1 Bft) SW 232 8,7 C 6,3 km/h (2 Bft) 100 %
12.10.2017 20:32 11,7 C 82 % 1022,2 hPa 0,0 l/m 0,3 km/h (0 Bft) W-SW 238 8,7 C 3,1 km/h (1 Bft) 100 %
12.10.2017 20:33 11,7 C 82 % 1022,2 hPa 0,0 l/m 1,6 km/h (1 Bft) W-SW 250 8,7 C 6,3 km/h (2 Bft) 100 %
12.10.2017 20:34 11,7 C 82 % 1022,3 hPa 0,0 l/m 0,2 km/h (0 Bft) W 277 8,7 C 3,1 km/h (1 Bft) 100 %
12.10.2017 20:35 11,7 C 82 % 1022,2 hPa 0,0 l/m 0,0 km/h (0 Bft) W 277 8,7 C 0,0 km/h (0 Bft) 100 %
12.10.2017 20:36 11,7 C 82 % 1022,2 hPa 0,0 l/m 1,6 km/h (1 Bft) SW 236 8,7 C 6,3 km/h (2 Bft) 100 %
12.10.2017 20:37 11,7 C 82 % 1022,2 hPa 0,0 l/m 0,0 km/h (0 Bft) SW 236 8,7 C 0,0 km/h (0 Bft) 100 %
12.10.2017 20:38 11,7 C 82 % 1022,2 hPa 0,0 l/m 0,3 km/h (0 Bft) W-NW 288 8,7 C 3,1 km/h (1 Bft) 100 %
12.10.2017 20:39 11,6 C 82 % 1022,2 hPa 0,0 l/m 0,4 km/h (0 Bft) SW 227 8,6 C 3,1 km/h (1 Bft) 96 %
12.10.2017 20:40 11,6 C 82 % 1022,2 hPa 0,0 l/m 0,3 km/h (0 Bft) W-SW 256 8,6 C 3,1 km/h (1 Bft) 96 %
12.10.2017 20:41 11,6 C 82 % 1022,2 hPa 0,0 l/m 1,4 km/h (1 Bft) W 268 8,6 C 3,1 km/h (1 Bft) 100 %
12.10.2017 20:42 11,6 C 82 % 1022,3 hPa 0,0 l/m 0,1 km/h (0 Bft) W 277 8,6 C 3,1 km/h (1 Bft) 100 %
12.10.2017 20:43 11,6 C 82 % 1022,4 hPa 0,0 l/m 0,8 km/h (0 Bft) W-NW 290 8,6 C 3,1 km/h (1 Bft) 100 %
12.10.2017 20:44 11,6 C 82 % 1022,4 hPa 0,0 l/m 0,4 km/h (0 Bft) W-NW 288 8,6 C 3,1 km/h (1 Bft) 96 %
12.10.2017 20:45 11,6 C 82 % 1022,3 hPa 0,0 l/m 0,0 km/h (0 Bft) W 261 8,6 C 0,0 km/h (0 Bft) 100 %
12.10.2017 20:46 11,6 C 82 % 1022,3 hPa 0,0 l/m 1,1 km/h (1 Bft) W-NW 293 8,6 C 3,1 km/h (1 Bft) 97 %
12.10.2017 20:47 11,6 C 82 % 1022,3 hPa 0,0 l/m 2,7 km/h (1 Bft) SW 217 8,6 C 9,4 km/h (2 Bft) 100 %
12.10.2017 20:48 11,6 C 82 % 1022,3 hPa 0,0 l/m 1,3 km/h (1 Bft) SW 224 8,6 C 3,1 km/h (1 Bft) 92 %
12.10.2017 20:49 11,6 C 82 % 1022,4 hPa 0,0 l/m 0,1 km/h (0 Bft) W 261 8,6 C 3,1 km/h (1 Bft) 100 %
12.10.2017 20:50 11,6 C 82 % 1022,3 hPa 0,0 l/m 0,0 km/h (0 Bft) W 261 8,6 C 0,0 km/h (0 Bft) 96 %
12.10.2017 20:51 11,6 C 82 % 1022,3 hPa 0,0 l/m 0,0 km/h (0 Bft) W 261 8,6 C 0,0 km/h (0 Bft) 100 %
12.10.2017 20:52 11,5 C 82 % 1022,3 hPa 0,0 l/m 0,1 km/h (0 Bft) W 261 8,5 C 3,1 km/h (1 Bft) 96 %
12.10.2017 20:53 11,5 C 82 % 1022,3 hPa 0,0 l/m 0,0 km/h (0 Bft) W 261 8,5 C 0,0 km/h (0 Bft) 96 %
12.10.2017 20:54 11,5 C 82 % 1022,4 hPa 0,0 l/m 0,0 km/h (0 Bft) S-SW 198 8,5 C 0,0 km/h (0 Bft) 100 %
12.10.2017 20:55 11,4 C 82 % 1022,4 hPa 0,0 l/m 1,1 km/h (1 Bft) NW 320 8,4 C 3,1 km/h (1 Bft) 96 %
12.10.2017 20:56 11,4 C 83 % 1022,4 hPa 0,0 l/m 1,0 km/h (0 Bft) N-NW 327 8,6 C 3,1 km/h (1 Bft) 100 %
12.10.2017 20:57 11,4 C 83 % 1022,5 hPa 0,0 l/m 0,0 km/h (0 Bft) N-NW 327 8,6 C 0,0 km/h (0 Bft) 96 %
12.10.2017 20:58 11,4 C 83 % 1022,5 hPa 0,0 l/m 0,0 km/h (0 Bft) N-NW 327 8,6 C 0,0 km/h (0 Bft) 100 %
12.10.2017 20:59 11,4 C 83 % 1022,5 hPa 0,0 l/m 0,1 km/h (0 Bft) SW 223 8,6 C 3,1 km/h (1 Bft) 100 %
12.10.2017 21:00 11,4 C 83 % 1022,5 hPa 0,0 l/m 0,0 km/h (0 Bft) SW 223 8,6 C 0,0 km/h (0 Bft) 100 %
12.10.2017 21:02 11,4 C 83 % 1022,5 hPa 0,0 l/m 0,0 km/h (0 Bft) SW 223 8,6 C 0,0 km/h (0 Bft) 100 %
12.10.2017 21:03 11,4 C 83 % 1022,5 hPa 0,0 l/m 0,0 km/h (0 Bft) SW 222 8,6 C 0,0 km/h (0 Bft) 100 %
12.10.2017 21:04 11,3 C 83 % 1022,5 hPa 0,0 l/m 0,0 km/h (0 Bft) SW 223 8,5 C 0,0 km/h (0 Bft) 100 %
12.10.2017 21:05 11,3 C 83 % 1022,5 hPa 0,0 l/m 0,0 km/h (0 Bft) SW 222 8,5 C 0,0 km/h (0 Bft) 100 %
12.10.2017 21:06 11,3 C 83 % 1022,5 hPa 0,0 l/m 0,0 km/h (0 Bft) SW 223 8,5 C 0,0 km/h (0 Bft) 100 %
12.10.2017 21:07 11,3 C 83 % 1022,5 hPa 0,0 l/m 0,0 km/h (0 Bft) SW 223 8,5 C 0,0 km/h (0 Bft) 100 %
12.10.2017 21:08 11,2 C 83 % 1022,5 hPa 0,0 l/m 0,0 km/h (0 Bft) SW 223 8,4 C 0,0 km/h (0 Bft) 100 %
12.10.2017 21:09 11,2 C 83 % 1022,5 hPa 0,0 l/m 0,2 km/h (0 Bft) SW 222 8,4 C 3,1 km/h (1 Bft) 100 %
12.10.2017 21:10 11,2 C 83 % 1022,6 hPa 0,0 l/m 0,0 km/h (0 Bft) SW 222 8,4 C 0,0 km/h (0 Bft) 100 %
12.10.2017 21:11 11,2 C 84 % 1022,6 hPa 0,0 l/m 0,0 km/h (0 Bft) SW 222 8,6 C 0,0 km/h (0 Bft) 100 %
12.10.2017 21:12 11,1 C 84 % 1022,5 hPa 0,0 l/m 0,0 km/h (0 Bft) SW 222 8,5 C 0,0 km/h (0 Bft) 100 %
12.10.2017 21:13 11,1 C 84 % 1022,6 hPa 0,0 l/m 0,0 km/h (0 Bft) SW 222 8,5 C 0,0 km/h (0 Bft) 100 %
12.10.2017 21:14 11,0 C 84 % 1022,6 hPa 0,0 l/m 0,0 km/h (0 Bft) SW 222 8,4 C 0,0 km/h (0 Bft) 100 %
12.10.2017 21:15 11,0 C 84 % 1022,6 hPa 0,0 l/m 0,0 km/h (0 Bft) SW 222 8,4 C 0,0 km/h (0 Bft) 100 %
12.10.2017 21:16 10,9 C 84 % 1022,6 hPa 0,0 l/m 0,0 km/h (0 Bft) SW 222 8,3 C 0,0 km/h (0 Bft) 100 %
12.10.2017 21:17 10,9 C 84 % 1022,7 hPa 0,0 l/m 0,0 km/h (0 Bft) SW 222 8,3 C 0,0 km/h (0 Bft) 100 %
12.10.2017 21:18 10,9 C 85 % 1022,7 hPa 0,0 l/m 0,0 km/h (0 Bft) SW 222 8,5 C 0,0 km/h (0 Bft) 100 %
12.10.2017 21:19 10,8 C 85 % 1022,7 hPa 0,0 l/m 0,0 km/h (0 Bft) SW 222 8,4 C 0,0 km/h (0 Bft) 100 %
12.10.2017 21:20 10,8 C 85 % 1022,7 hPa 0,0 l/m 0,0 km/h (0 Bft) SW 222 8,4 C 0,0 km/h (0 Bft) 100 %
12.10.2017 21:21 10,8 C 85 % 1022,7 hPa 0,0 l/m 0,0 km/h (0 Bft) SW 222 8,4 C 0,0 km/h (0 Bft) 100 %
12.10.2017 21:22 10,7 C 85 % 1022,7 hPa 0,0 l/m 0,0 km/h (0 Bft) SW 222 8,3 C 0,0 km/h (0 Bft) 100 %
12.10.2017 21:23 10,7 C 85 % 1022,7 hPa 0,0 l/m 0,0 km/h (0 Bft) SW 222 8,3 C 0,0 km/h (0 Bft) 100 %
12.10.2017 21:24 10,7 C 85 % 1022,7 hPa 0,0 l/m 0,0 km/h (0 Bft) SW 222 8,3 C 0,0 km/h (0 Bft) 100 %
12.10.2017 21:25 10,6 C 85 % 1022,7 hPa 0,0 l/m 0,0 km/h (0 Bft) SW 222 8,2 C 0,0 km/h (0 Bft) 100 %
12.10.2017 21:26 10,6 C 86 % 1022,7 hPa 0,0 l/m 0,0 km/h (0 Bft) SW 222 8,4 C 0,0 km/h (0 Bft) 100 %
12.10.2017 21:27 10,6 C 86 % 1022,7 hPa 0,0 l/m 0,0 km/h (0 Bft) SW 222 8,4 C 0,0 km/h (0 Bft) 100 %
12.10.2017 21:28 10,6 C 86 % 1022,7 hPa 0,0 l/m 0,0 km/h (0 Bft) SW 222 8,4 C 0,0 km/h (0 Bft) 100 %
12.10.2017 21:29 10,5 C 86 % 1022,7 hPa 0,0 l/m 0,1 km/h (0 Bft) SW 222 8,3 C 3,1 km/h (1 Bft) 100 %
12.10.2017 21:30 10,5 C 86 % 1022,7 hPa 0,0 l/m 0,0 km/h (0 Bft) SW 222 8,3 C 0,0 km/h (0 Bft) 100 %
12.10.2017 21:31 10,4 C 86 % 1022,7 hPa 0,0 l/m 0,0 km/h (0 Bft) SW 222 8,2 C 0,0 km/h (0 Bft) 100 %
12.10.2017 21:32 10,4 C 86 % 1022,7 hPa 0,0 l/m 0,0 km/h (0 Bft) SW 222 8,2 C 0,0 km/h (0 Bft) 100 %
12.10.2017 21:33 10,4 C 86 % 1022,7 hPa 0,0 l/m 0,0 km/h (0 Bft) SW 222 8,2 C 0,0 km/h (0 Bft) 100 %
12.10.2017 21:34 10,4 C 87 % 1022,7 hPa 0,0 l/m 0,0 km/h (0 Bft) SW 222 8,3 C 0,0 km/h (0 Bft) 100 %
12.10.2017 21:35 10,3 C 87 % 1022,7 hPa 0,0 l/m 0,0 km/h (0 Bft) SW 222 8,2 C 0,0 km/h (0 Bft) 100 %
12.10.2017 21:36 10,3 C 87 % 1022,8 hPa 0,0 l/m 0,0 km/h (0 Bft) SW 222 8,2 C 0,0 km/h (0 Bft) 100 %
12.10.2017 21:37 10,3 C 87 % 1022,8 hPa 0,0 l/m 0,0 km/h (0 Bft) SW 222 8,2 C 0,0 km/h (0 Bft) 100 %
12.10.2017 21:38 10,3 C 87 % 1022,8 hPa 0,0 l/m 0,0 km/h (0 Bft) SW 222 8,2 C 0,0 km/h (0 Bft) 100 %
12.10.2017 21:39 10,3 C 87 % 1022,8 hPa 0,0 l/m 0,1 km/h (0 Bft) SW 233 8,2 C 3,1 km/h (1 Bft) 100 %
12.10.2017 21:40 10,2 C 87 % 1022,8 hPa 0,0 l/m 0,0 km/h (0 Bft) SW 233 8,1 C 0,0 km/h (0 Bft) 100 %
12.10.2017 21:41 10,2 C 87 % 1022,8 hPa 0,0 l/m 0,0 km/h (0 Bft) SW 233 8,1 C 0,0 km/h (0 Bft) 100 %
12.10.2017 21:42 10,2 C 87 % 1022,8 hPa 0,0 l/m 0,0 km/h (0 Bft) SW 233 8,1 C 0,0 km/h (0 Bft) 100 %
12.10.2017 21:43 10,2 C 88 % 1022,8 hPa 0,0 l/m 0,0 km/h (0 Bft) SW 233 8,3 C 0,0 km/h (0 Bft) 100 %
12.10.2017 21:44 10,2 C 88 % 1022,8 hPa 0,0 l/m 0,1 km/h (0 Bft) SW 233 8,3 C 3,1 km/h (1 Bft) 100 %
12.10.2017 21:45 10,2 C 88 % 1022,7 hPa 0,0 l/m 0,0 km/h (0 Bft) SW 233 8,3 C 0,0 km/h (0 Bft) 100 %
12.10.2017 21:46 10,2 C 88 % 1022,8 hPa 0,0 l/m 0,0 km/h (0 Bft) SW 233 8,3 C 0,0 km/h (0 Bft) 100 %
12.10.2017 21:47 10,2 C 88 % 1022,7 hPa 0,0 l/m 0,0 km/h (0 Bft) SW 233 8,3 C 0,0 km/h (0 Bft) 100 %
12.10.2017 21:48 10,2 C 88 % 1022,7 hPa 0,0 l/m 0,0 km/h (0 Bft) SW 233 8,3 C 0,0 km/h (0 Bft) 100 %
12.10.2017 21:49 10,2 C 88 % 1022,7 hPa 0,0 l/m 0,0 km/h (0 Bft) SW 233 8,3 C 0,0 km/h (0 Bft) 100 %
12.10.2017 21:50 10,1 C 88 % 1022,7 hPa 0,0 l/m 0,0 km/h (0 Bft) SW 233 8,2 C 0,0 km/h (0 Bft) 100 %
12.10.2017 21:51 10,1 C 88 % 1022,7 hPa 0,0 l/m 0,0 km/h (0 Bft) SW 233 8,2 C 0,0 km/h (0 Bft) 100 %
12.10.2017 21:52 10,1 C 88 % 1022,7 hPa 0,0 l/m 0,0 km/h (0 Bft) SW 233 8,2 C 0,0 km/h (0 Bft) 100 %
12.10.2017 21:53 10,1 C 88 % 1022,7 hPa 0,0 l/m 0,0 km/h (0 Bft) SW 233 8,2 C 0,0 km/h (0 Bft) 100 %
12.10.2017 21:54 10,0 C 88 % 1022,7 hPa 0,0 l/m 0,0 km/h (0 Bft) SW 233 8,1 C 0,0 km/h (0 Bft) 100 %
12.10.2017 21:55 9,9 C 88 % 1022,7 hPa 0,0 l/m 0,0 km/h (0 Bft) SW 233 8,0 C 0,0 km/h (0 Bft) 100 %
12.10.2017 21:56 9,9 C 88 % 1022,7 hPa 0,0 l/m 0,0 km/h (0 Bft) SW 233 8,0 C 0,0 km/h (0 Bft) 100 %
12.10.2017 21:57 9,9 C 88 % 1022,7 hPa 0,0 l/m 0,0 km/h (0 Bft) SW 233 8,0 C 0,0 km/h (0 Bft) 100 %
12.10.2017 21:58 9,9 C 88 % 1022,7 hPa 0,0 l/m 0,0 km/h (0 Bft) SW 233 8,0 C 0,0 km/h (0 Bft) 100 %
12.10.2017 21:59 9,8 C 88 % 1022,7 hPa 0,0 l/m 0,0 km/h (0 Bft) SW 233 7,9 C 0,0 km/h (0 Bft) 100 %
12.10.2017 22:00 9,8 C 88 % 1022,7 hPa 0,0 l/m 0,1 km/h (0 Bft) W-SW 237 7,9 C 3,1 km/h (1 Bft) 100 %
12.10.2017 22:02 9,8 C 89 % 1022,8 hPa 0,0 l/m 0,0 km/h (0 Bft) W-SW 237 8,1 C 0,0 km/h (0 Bft) 100 %
12.10.2017 22:03 9,7 C 89 % 1022,8 hPa 0,0 l/m 0,0 km/h (0 Bft) W-SW 237 8,0 C 0,0 km/h (0 Bft) 100 %
12.10.2017 22:04 9,7 C 89 % 1022,8 hPa 0,0 l/m 0,0 km/h (0 Bft) W-SW 237 8,0 C 0,0 km/h (0 Bft) 100 %
12.10.2017 22:05 9,7 C 89 % 1022,8 hPa 0,0 l/m 0,0 km/h (0 Bft) W-SW 237 8,0 C 0,0 km/h (0 Bft) 100 %
12.10.2017 22:06 9,7 C 89 % 1022,8 hPa 0,0 l/m 0,0 km/h (0 Bft) W-SW 237 8,0 C 0,0 km/h (0 Bft) 100 %
12.10.2017 22:07 9,6 C 89 % 1022,8 hPa 0,0 l/m 0,0 km/h (0 Bft) W-SW 237 7,9 C 0,0 km/h (0 Bft) 96 %
12.10.2017 22:08 9,6 C 89 % 1022,7 hPa 0,0 l/m 0,0 km/h (0 Bft) W-SW 237 7,9 C 0,0 km/h (0 Bft) 100 %
12.10.2017 22:09 9,6 C 90 % 1022,7 hPa 0,0 l/m 0,0 km/h (0 Bft) W-SW 237 8,0 C 0,0 km/h (0 Bft) 100 %
12.10.2017 22:10 9,6 C 90 % 1022,7 hPa 0,0 l/m 0,0 km/h (0 Bft) W-SW 237 8,0 C 0,0 km/h (0 Bft) 96 %
12.10.2017 22:11 9,6 C 90 % 1022,8 hPa 0,0 l/m 0,0 km/h (0 Bft) W-SW 237 8,0 C 0,0 km/h (0 Bft) 100 %
12.10.2017 22:12 9,5 C 90 % 1022,7 hPa 0,0 l/m 0,0 km/h (0 Bft) W-SW 237 7,9 C 0,0 km/h (0 Bft) 96 %
12.10.2017 22:13 9,5 C 90 % 1022,7 hPa 0,0 l/m 0,0 km/h (0 Bft) W-SW 237 7,9 C 0,0 km/h (0 Bft) 100 %
12.10.2017 22:14 9,5 C 90 % 1022,7 hPa 0,0 l/m 0,0 km/h (0 Bft) W-SW 237 7,9 C 0,0 km/h (0 Bft) 96 %
12.10.2017 22:15 9,5 C 90 % 1022,7 hPa 0,0 l/m 0,0 km/h (0 Bft) W-SW 237 7,9 C 0,0 km/h (0 Bft) 100 %
12.10.2017 22:16 9,4 C 90 % 1022,7 hPa 0,0 l/m 0,2 km/h (0 Bft) W-SW 238 7,8 C 3,1 km/h (1 Bft) 96 %
12.10.2017 22:17 9,4 C 91 % 1022,7 hPa 0,0 l/m 0,0 km/h (0 Bft) W-SW 238 8,0 C 0,0 km/h (0 Bft) 100 %
12.10.2017 22:18 9,4 C 91 % 1022,7 hPa 0,0 l/m 0,1 km/h (0 Bft) W 261 8,0 C 3,1 km/h (1 Bft) 96 %
12.10.2017 22:19 9,4 C 91 % 1022,7 hPa 0,0 l/m 0,4 km/h (0 Bft) W-NW 296 8,0 C 3,1 km/h (1 Bft) 100 %
12.10.2017 22:20 9,5 C 91 % 1022,7 hPa 0,0 l/m 0,0 km/h (0 Bft) W-NW 296 8,1 C 0,0 km/h (0 Bft) 97 %
12.10.2017 22:21 9,5 C 91 % 1022,7 hPa 0,0 l/m 0,0 km/h (0 Bft) W-NW 296 8,1 C 0,0 km/h (0 Bft) 96 %
12.10.2017 22:22 9,5 C 91 % 1022,7 hPa 0,0 l/m 0,2 km/h (0 Bft) W-NW 296 8,1 C 3,1 km/h (1 Bft) 100 %
12.10.2017 22:23 9,5 C 91 % 1022,7 hPa 0,0 l/m 0,0 km/h (0 Bft) W-NW 296 8,1 C 0,0 km/h (0 Bft) 97 %
12.10.2017 22:24 9,5 C 91 % 1022,7 hPa 0,0 l/m 0,0 km/h (0 Bft) W-NW 296 8,1 C 0,0 km/h (0 Bft) 100 %
12.10.2017 22:25 9,5 C 91 % 1022,8 hPa 0,0 l/m 0,0 km/h (0 Bft) W-SW 237 8,1 C 0,0 km/h (0 Bft) 96 %
12.10.2017 22:26 9,5 C 91 % 1022,7 hPa 0,0 l/m 0,0 km/h (0 Bft) W 279 8,1 C 0,0 km/h (0 Bft) 100 %
12.10.2017 22:27 9,5 C 91 % 1022,7 hPa 0,0 l/m 0,2 km/h (0 Bft) W 274 8,1 C 3,1 km/h (1 Bft) 100 %
12.10.2017 22:28 9,5 C 91 % 1022,8 hPa 0,0 l/m 0,0 km/h (0 Bft) W 274 8,1 C 0,0 km/h (0 Bft) 100 %
12.10.2017 22:29 9,5 C 91 % 1022,8 hPa 0,0 l/m 0,0 km/h (0 Bft) W 274 8,1 C 0,0 km/h (0 Bft) 100 %
12.10.2017 22:30 9,5 C 91 % 1022,8 hPa 0,0 l/m 0,0 km/h (0 Bft) W 274 8,1 C 0,0 km/h (0 Bft) 100 %
12.10.2017 22:31 9,5 C 91 % 1022,8 hPa 0,0 l/m 0,0 km/h (0 Bft) W 274 8,1 C 0,0 km/h (0 Bft) 100 %
12.10.2017 22:32 9,5 C 91 % 1022,9 hPa 0,0 l/m 0,0 km/h (0 Bft) W 274 8,1 C 0,0 km/h (0 Bft) 100 %
12.10.2017 22:33 9,5 C 91 % 1022,8 hPa 0,0 l/m 0,1 km/h (0 Bft) W 273 8,1 C 3,1 km/h (1 Bft) 100 %
12.10.2017 22:34 9,5 C 91 % 1022,8 hPa 0,0 l/m 0,5 km/h (0 Bft) W-NW 286 8,1 C 3,1 km/h (1 Bft) 100 %
12.10.2017 22:35 9,5 C 91 % 1022,8 hPa 0,0 l/m 0,2 km/h (0 Bft) W-NW 286 8,1 C 3,1 km/h (1 Bft) 100 %
12.10.2017 22:36 9,5 C 91 % 1022,9 hPa 0,0 l/m 0,6 km/h (0 Bft) SW 226 8,1 C 3,1 km/h (1 Bft) 100 %
12.10.2017 22:37 9,5 C 91 % 1022,8 hPa 0,0 l/m 0,0 km/h (0 Bft) SW 226 8,1 C 0,0 km/h (0 Bft) 100 %
12.10.2017 22:38 9,5 C 91 % 1022,9 hPa 0,0 l/m 0,0 km/h (0 Bft) SW 226 8,1 C 0,0 km/h (0 Bft) 100 %
12.10.2017 22:39 9,5 C 91 % 1022,9 hPa 0,0 l/m 0,1 km/h (0 Bft) SW 223 8,1 C 3,1 km/h (1 Bft) 100 %
12.10.2017 22:40 9,5 C 91 % 1022,9 hPa 0,0 l/m 1,7 km/h (1 Bft) S-SW 198 8,1 C 6,3 km/h (2 Bft) 100 %
12.10.2017 22:41 9,5 C 91 % 1022,9 hPa 0,0 l/m 0,0 km/h (0 Bft) S-SW 212 8,1 C 0,0 km/h (0 Bft) 100 %
12.10.2017 22:42 9,5 C 91 % 1022,9 hPa 0,0 l/m 0,2 km/h (0 Bft) S-SW 212 8,1 C 3,1 km/h (1 Bft) 100 %
12.10.2017 22:43 9,5 C 91 % 1022,9 hPa 0,0 l/m 1,7 km/h (1 Bft) SW 226 8,1 C 6,3 km/h (2 Bft) 100 %
12.10.2017 22:44 9,4 C 91 % 1023,0 hPa 0,0 l/m 0,0 km/h (0 Bft) SW 226 8,0 C 0,0 km/h (0 Bft) 100 %
12.10.2017 22:45 9,5 C 91 % 1023,0 hPa 0,0 l/m 0,0 km/h (0 Bft) W 266 8,1 C 0,0 km/h (0 Bft) 100 %
12.10.2017 22:46 9,5 C 91 % 1022,9 hPa 0,0 l/m 0,1 km/h (0 Bft) W-NW 296 8,1 C 3,1 km/h (1 Bft) 100 %
12.10.2017 22:47 9,4 C 91 % 1022,9 hPa 0,0 l/m 0,0 km/h (0 Bft) W-NW 295 8,0 C 0,0 km/h (0 Bft) 100 %
12.10.2017 22:48 9,4 C 91 % 1022,9 hPa 0,0 l/m 0,0 km/h (0 Bft) W-NW 296 8,0 C 0,0 km/h (0 Bft) 100 %
12.10.2017 22:49 9,4 C 91 % 1022,9 hPa 0,0 l/m 0,0 km/h (0 Bft) W-NW 296 8,0 C 0,0 km/h (0 Bft) 100 %
12.10.2017 22:50 9,4 C 91 % 1022,9 hPa 0,0 l/m 0,0 km/h (0 Bft) W-NW 297 8,0 C 0,0 km/h (0 Bft) 100 %
12.10.2017 22:51 9,4 C 91 % 1023,0 hPa 0,0 l/m 0,4 km/h (0 Bft) NW 314 8,0 C 3,1 km/h (1 Bft) 100 %
12.10.2017 22:52 9,4 C 91 % 1022,9 hPa 0,0 l/m 0,0 km/h (0 Bft) NW 314 8,0 C 0,0 km/h (0 Bft) 100 %
12.10.2017 22:53 9,4 C 91 % 1023,0 hPa 0,0 l/m 0,0 km/h (0 Bft) NW 314 8,0 C 0,0 km/h (0 Bft) 100 %
12.10.2017 22:54 9,4 C 91 % 1023,0 hPa 0,0 l/m 0,0 km/h (0 Bft) NW 314 8,0 C 0,0 km/h (0 Bft) 100 %
12.10.2017 22:55 9,4 C 91 % 1023,0 hPa 0,0 l/m 0,0 km/h (0 Bft) NW 314 8,0 C 0,0 km/h (0 Bft) 100 %
12.10.2017 22:56 9,4 C 91 % 1023,0 hPa 0,0 l/m 0,0 km/h (0 Bft) NW 314 8,0 C 0,0 km/h (0 Bft) 100 %
12.10.2017 22:57 9,4 C 91 % 1023,0 hPa 0,0 l/m 2,0 km/h (1 Bft) W 275 8,0 C 3,1 km/h (1 Bft) 100 %
12.10.2017 22:58 9,4 C 91 % 1023,0 hPa 0,0 l/m 0,1 km/h (0 Bft) S-SW 199 8,0 C 3,1 km/h (1 Bft) 100 %
12.10.2017 22:59 9,4 C 91 % 1023,0 hPa 0,0 l/m 0,0 km/h (0 Bft) S-SW 199 8,0 C 0,0 km/h (0 Bft) 100 %
12.10.2017 23:00 9,4 C 91 % 1023,0 hPa 0,0 l/m 0,0 km/h (0 Bft) S-SW 199 8,0 C 0,0 km/h (0 Bft) 100 %
12.10.2017 23:02 9,4 C 91 % 1022,9 hPa 0,0 l/m 0,3 km/h (0 Bft) SW 220 8,0 C 3,1 km/h (1 Bft) 100 %
12.10.2017 23:03 9,3 C 91 % 1022,9 hPa 0,0 l/m 0,1 km/h (0 Bft) SW 221 7,9 C 3,1 km/h (1 Bft) 100 %
12.10.2017 23:04 9,3 C 91 % 1022,9 hPa 0,0 l/m 0,0 km/h (0 Bft) W-SW 244 7,9 C 0,0 km/h (0 Bft) 100 %
12.10.2017 23:05 9,3 C 91 % 1023,0 hPa 0,0 l/m 0,0 km/h (0 Bft) W-SW 244 7,9 C 0,0 km/h (0 Bft) 100 %
12.10.2017 23:06 9,3 C 91 % 1023,0 hPa 0,0 l/m 0,2 km/h (0 Bft) W-SW 244 7,9 C 3,1 km/h (1 Bft) 100 %
12.10.2017 23:07 9,3 C 91 % 1023,1 hPa 0,0 l/m 0,7 km/h (0 Bft) W-SW 243 7,9 C 3,1 km/h (1 Bft) 100 %
12.10.2017 23:08 9,3 C 91 % 1023,1 hPa 0,0 l/m 0,1 km/h (0 Bft) NW 307 7,9 C 3,1 km/h (1 Bft) 100 %
12.10.2017 23:09 9,3 C 91 % 1023,0 hPa 0,0 l/m 0,4 km/h (0 Bft) SW 221 7,9 C 3,1 km/h (1 Bft) 100 %
12.10.2017 23:10 9,3 C 91 % 1023,0 hPa 0,0 l/m 0,0 km/h (0 Bft) SW 221 7,9 C 0,0 km/h (0 Bft) 100 %
12.10.2017 23:11 9,3 C 91 % 1023,0 hPa 0,0 l/m 0,0 km/h (0 Bft) SW 224 7,9 C 0,0 km/h (0 Bft) 100 %
12.10.2017 23:12 9,3 C 91 % 1023,0 hPa 0,0 l/m 0,0 km/h (0 Bft) SW 224 7,9 C 0,0 km/h (0 Bft) 100 %
12.10.2017 23:13 9,3 C 91 % 1023,0 hPa 0,0 l/m 0,0 km/h (0 Bft) SW 224 7,9 C 0,0 km/h (0 Bft) 100 %
12.10.2017 23:14 9,3 C 91 % 1023,0 hPa 0,0 l/m 0,0 km/h (0 Bft) SW 224 7,9 C 0,0 km/h (0 Bft) 100 %
12.10.2017 23:15 9,3 C 91 % 1022,9 hPa 0,0 l/m 0,0 km/h (0 Bft) SW 224 7,9 C 0,0 km/h (0 Bft) 100 %
12.10.2017 23:17 9,2 C 91 % 1022,9 hPa 0,0 l/m 0,0 km/h (0 Bft) SW 224 7,8 C 0,0 km/h (0 Bft) 100 %
12.10.2017 23:18 9,2 C 91 % 1022,9 hPa 0,0 l/m 0,0 km/h (0 Bft) SW 224 7,8 C 0,0 km/h (0 Bft) 100 %
12.10.2017 23:19 9,2 C 91 % 1022,9 hPa 0,0 l/m 0,0 km/h (0 Bft) SW 224 7,8 C 0,0 km/h (0 Bft) 100 %
12.10.2017 23:20 9,1 C 91 % 1022,9 hPa 0,0 l/m 0,3 km/h (0 Bft) SW 224 7,7 C 3,1 km/h (1 Bft) 100 %
12.10.2017 23:21 9,1 C 91 % 1022,9 hPa 0,0 l/m 0,1 km/h (0 Bft) SW 224 7,7 C 3,1 km/h (1 Bft) 100 %
12.10.2017 23:22 9,1 C 91 % 1022,9 hPa 0,0 l/m 0,0 km/h (0 Bft) SW 224 7,7 C 0,0 km/h (0 Bft) 100 %
12.10.2017 23:23 9,1 C 91 % 1022,9 hPa 0,0 l/m 0,0 km/h (0 Bft) SW 224 7,7 C 0,0 km/h (0 Bft) 100 %
12.10.2017 23:24 9,1 C 91 % 1022,9 hPa 0,0 l/m 0,0 km/h (0 Bft) SW 224 7,7 C 0,0 km/h (0 Bft) 100 %
12.10.2017 23:25 9,1 C 91 % 1022,9 hPa 0,0 l/m 0,0 km/h (0 Bft) SW 224 7,7 C 0,0 km/h (0 Bft) 100 %
12.10.2017 23:26 9,0 C 91 % 1022,9 hPa 0,0 l/m 1,2 km/h (1 Bft) W-NW 297 7,6 C 3,1 km/h (1 Bft) 100 %
12.10.2017 23:27 9,0 C 92 % 1022,9 hPa 0,0 l/m 0,0 km/h (0 Bft) S-SW 197 7,8 C 0,0 km/h (0 Bft) 100 %
12.10.2017 23:28 9,0 C 92 % 1022,9 hPa 0,0 l/m 0,0 km/h (0 Bft) S-SW 197 7,8 C 0,0 km/h (0 Bft) 100 %
12.10.2017 23:29 8,9 C 92 % 1022,9 hPa 0,0 l/m 0,0 km/h (0 Bft) S-SW 197 7,7 C 0,0 km/h (0 Bft) 100 %
12.10.2017 23:30 8,9 C 92 % 1022,9 hPa 0,0 l/m 0,0 km/h (0 Bft) S-SW 197 7,7 C 0,0 km/h (0 Bft) 100 %
12.10.2017 23:31 8,9 C 92 % 1022,9 hPa 0,0 l/m 0,0 km/h (0 Bft) S-SW 197 7,7 C 0,0 km/h (0 Bft) 100 %
12.10.2017 23:32 8,9 C 92 % 1022,9 hPa 0,0 l/m 0,0 km/h (0 Bft) S-SW 197 7,7 C 0,0 km/h (0 Bft) 100 %
12.10.2017 23:33 8,9 C 92 % 1022,9 hPa 0,0 l/m 0,0 km/h (0 Bft) S-SW 197 7,7 C 0,0 km/h (0 Bft) 100 %
12.10.2017 23:34 8,9 C 92 % 1022,9 hPa 0,0 l/m 0,0 km/h (0 Bft) S-SW 197 7,7 C 0,0 km/h (0 Bft) 100 %
12.10.2017 23:35 8,9 C 92 % 1022,9 hPa 0,0 l/m 0,0 km/h (0 Bft) S-SW 197 7,7 C 0,0 km/h (0 Bft) 100 %
12.10.2017 23:36 8,9 C 92 % 1022,9 hPa 0,0 l/m 0,0 km/h (0 Bft) S-SW 197 7,7 C 0,0 km/h (0 Bft) 100 %
12.10.2017 23:37 8,9 C 92 % 1022,9 hPa 0,0 l/m 0,0 km/h (0 Bft) S-SW 197 7,7 C 0,0 km/h (0 Bft) 100 %
12.10.2017 23:38 8,8 C 92 % 1022,9 hPa 0,0 l/m 0,0 km/h (0 Bft) S-SW 197 7,6 C 0,0 km/h (0 Bft) 100 %
12.10.2017 23:39 8,8 C 92 % 1022,9 hPa 0,0 l/m 0,0 km/h (0 Bft) S-SW 200 7,6 C 0,0 km/h (0 Bft) 100 %
12.10.2017 23:40 8,8 C 92 % 1022,9 hPa 0,0 l/m 0,0 km/h (0 Bft) S-SW 200 7,6 C 0,0 km/h (0 Bft) 100 %
12.10.2017 23:41 8,8 C 92 % 1022,9 hPa 0,0 l/m 0,0 km/h (0 Bft) S-SW 200 7,6 C 0,0 km/h (0 Bft) 100 %
12.10.2017 23:42 8,8 C 92 % 1022,9 hPa 0,0 l/m 0,0 km/h (0 Bft) S-SW 200 7,6 C 0,0 km/h (0 Bft) 100 %
12.10.2017 23:43 8,8 C 92 % 1022,9 hPa 0,0 l/m 0,0 km/h (0 Bft) S-SW 212 7,6 C 0,0 km/h (0 Bft) 92 %
12.10.2017 23:44 8,8 C 92 % 1022,9 hPa 0,0 l/m 0,0 km/h (0 Bft) SW 236 7,6 C 0,0 km/h (0 Bft) 96 %
12.10.2017 23:45 8,8 C 92 % 1022,9 hPa 0,0 l/m 0,0 km/h (0 Bft) SW 236 7,6 C 0,0 km/h (0 Bft) 96 %
12.10.2017 23:46 8,7 C 92 % 1022,9 hPa 0,0 l/m 0,0 km/h (0 Bft) SW 236 7,5 C 0,0 km/h (0 Bft) 100 %
12.10.2017 23:47 8,7 C 92 % 1022,9 hPa 0,0 l/m 0,0 km/h (0 Bft) SW 236 7,5 C 0,0 km/h (0 Bft) 100 %
12.10.2017 23:48 8,7 C 92 % 1022,9 hPa 0,0 l/m 0,1 km/h (0 Bft) SW 236 7,5 C 3,1 km/h (1 Bft) 100 %
12.10.2017 23:49 8,7 C 92 % 1022,9 hPa 0,0 l/m 0,0 km/h (0 Bft) SW 236 7,5 C 0,0 km/h (0 Bft) 100 %
12.10.2017 23:50 8,7 C 93 % 1022,9 hPa 0,0 l/m 0,0 km/h (0 Bft) SW 236 7,6 C 0,0 km/h (0 Bft) 100 %
12.10.2017 23:51 8,7 C 93 % 1022,9 hPa 0,0 l/m 0,1 km/h (0 Bft) NW 305 7,6 C 3,1 km/h (1 Bft) 96 %
12.10.2017 23:52 8,7 C 93 % 1022,9 hPa 0,0 l/m 0,0 km/h (0 Bft) NW 305 7,6 C 0,0 km/h (0 Bft) 100 %
12.10.2017 23:53 8,7 C 93 % 1022,9 hPa 0,0 l/m 0,0 km/h (0 Bft) NW 305 7,6 C 0,0 km/h (0 Bft) 96 %
12.10.2017 23:54 8,6 C 93 % 1022,9 hPa 0,0 l/m 0,0 km/h (0 Bft) NW 304 7,5 C 0,0 km/h (0 Bft) 100 %
12.10.2017 23:55 8,6 C 93 % 1022,9 hPa 0,0 l/m 0,0 km/h (0 Bft) NW 304 7,5 C 0,0 km/h (0 Bft) 96 %
12.10.2017 23:56 8,6 C 93 % 1023,0 hPa 0,0 l/m 0,0 km/h (0 Bft) NW 304 7,5 C 0,0 km/h (0 Bft) 96 %
12.10.2017 23:57 8,6 C 93 % 1023,0 hPa 0,0 l/m 0,0 km/h (0 Bft) NW 304 7,5 C 0,0 km/h (0 Bft) 100 %
12.10.2017 23:58 8,6 C 93 % 1022,9 hPa 0,0 l/m 0,0 km/h (0 Bft) NW 304 7,5 C 0,0 km/h (0 Bft) 96 %
12.10.2017 23:59 8,6 C 93 % 1022,9 hPa 0,0 l/m 0,0 km/h (0 Bft) NW 304 7,5 C 0,0 km/h (0 Bft) 100 %
_ Min-Zeit 23:54 14:57 05:16 - 19:06 - - 23:46 19:06 01:32
Minimum _ 8,6 C 63 % 1011,8 hPa - 0,0 km/h (0 Bft) - - 7,5 C 0,0 km/h (0 Bft) 92 %
_ Max-Zeit 13:51 23:50 23:07 00:01 15:10 - - 06:35 10:12 00:01
Maximum _ 15,7 C 93 % 1023,1 hPa 0,0 l/m 23,3 km/h
SW (4 Bft)
- - 12,3 C 50,2 km/h
W-SW (7 Bft)
100 %
Durchschnitt _ 13,0 C 81 % 1017,4 hPa #0,0 l/m 7,2 km/h (2 Bft) W-NW - 9,7 C 14,1 km/h (3 Bft) 99 %